PWSweather.com
Personal Weather Stations
Station Observations
KCTGROTO5
Groton, CT 06340

Groton, CT 06340

Lat: 41.355721, Lon: -72.084428

Elevation: 0

Station Type: acurite 5in1

High Low Average
Temperature 44.4°F6.9°C 36.7°F2.6°C 40.9°F4.9°C
Dew Point 43.8°F6.6°C 35.6°F2.0°C 40.3°F4.6°C
Winds 39.0 mph 62.8 kmh 1.0 mph 1.6 kmh 12.0 mph SE19.3 kmh SE
Wind Gusts 39.0 mph62.8 kmh 8.0 mph12.9 kmh 21.0 mph33.8 kmh
Humidity 98% 93% 98%
Pressure 29.63 in1003.4 mb 29.04 in983.4 mb -
Precipitation 3.50 in88.9 mm - -
Hour Temp Dew Point Humidity Winds Wind Gusts Pressure Precip Precip Rate Daily Precip Total
12:00 AM 45.0°F7.2°C 41.0°F5.0°C 86% 3.0 mph NNE4.8 kmh NNE 8.0 mph12.9 kmh 29.62 in1003.0 mb 0.00 in0.0 mm 0.00 in0.0 mm 0.00 in0.0 mm
12:01 AM 45.0°F7.2°C 41.0°F5.0°C 86% 3.0 mph NE4.8 kmh NE 8.0 mph12.9 kmh 29.62 in1003.0 mb 0.00 in0.0 mm 0.00 in0.0 mm 0.00 in0.0 mm
12:02 AM 45.0°F7.2°C 41.0°F5.0°C 86% 3.0 mph WNW4.8 kmh WNW 8.0 mph12.9 kmh 29.62 in1003.0 mb 0.00 in0.0 mm 0.00 in0.0 mm 0.00 in0.0 mm
12:03 AM 45.0°F7.2°C 41.0°F5.0°C 86% 7.0 mph S11.3 kmh S 8.0 mph12.9 kmh 29.62 in1003.0 mb 0.00 in0.0 mm 0.00 in0.0 mm 0.00 in0.0 mm
12:04 AM 45.0°F7.2°C 41.0°F5.0°C 86% 4.0 mph NNE6.4 kmh NNE 8.0 mph12.9 kmh 29.62 in1003.0 mb 0.00 in0.0 mm 0.00 in0.0 mm 0.00 in0.0 mm
12:05 AM 45.0°F7.2°C 41.0°F5.0°C 86% 6.0 mph WNW9.7 kmh WNW 8.0 mph12.9 kmh 29.62 in1003.0 mb 0.00 in0.0 mm 0.00 in0.0 mm 0.00 in0.0 mm
12:06 AM 45.0°F7.2°C 41.0°F5.0°C 86% 5.0 mph ENE8.0 kmh ENE 8.0 mph12.9 kmh 29.62 in1003.0 mb 0.00 in0.0 mm 0.00 in0.0 mm 0.00 in0.0 mm
12:07 AM 45.0°F7.2°C 41.0°F5.0°C 86% 5.0 mph 8.0 kmh 9.0 mph14.5 kmh 29.62 in1003.0 mb 0.00 in0.0 mm 0.00 in0.0 mm 0.00 in0.0 mm
12:08 AM 45.0°F7.2°C 41.0°F5.0°C 86% 3.0 mph 4.8 kmh 9.0 mph14.5 kmh 29.62 in1003.0 mb 0.00 in0.0 mm 0.00 in0.0 mm 0.00 in0.0 mm
12:09 AM 45.0°F7.2°C 41.0°F5.0°C 86% 2.0 mph 3.2 kmh 9.0 mph14.5 kmh 29.62 in1003.0 mb 0.00 in0.0 mm 0.00 in0.0 mm 0.00 in0.0 mm
12:10 AM 44.8°F7.1°C 40.8°F4.9°C 86% 5.0 mph NNE8.0 kmh NNE 9.0 mph14.5 kmh 29.62 in1003.0 mb 0.00 in0.0 mm 0.00 in0.0 mm 0.00 in0.0 mm
12:11 AM 44.8°F7.1°C 40.8°F4.9°C 86% 6.0 mph NNE9.7 kmh NNE 9.0 mph14.5 kmh 29.62 in1003.0 mb 0.00 in0.0 mm 0.00 in0.0 mm 0.00 in0.0 mm
12:12 AM 44.8°F7.1°C 41.4°F5.2°C 88% 2.0 mph NNW3.2 kmh NNW 9.0 mph14.5 kmh 29.62 in1003.0 mb 0.00 in0.0 mm 0.00 in0.0 mm 0.00 in0.0 mm
12:13 AM 44.8°F7.1°C 41.4°F5.2°C 88% 4.0 mph NNW6.4 kmh NNW 9.0 mph14.5 kmh 29.62 in1003.0 mb 0.00 in0.0 mm 0.00 in0.0 mm 0.00 in0.0 mm
12:14 AM 44.6°F7.0°C 41.2°F5.1°C 88% 4.0 mph NNW6.4 kmh NNW 9.0 mph14.5 kmh 29.62 in1003.0 mb 0.00 in0.0 mm 0.00 in0.0 mm 0.00 in0.0 mm
12:15 AM 44.6°F7.0°C 41.2°F5.1°C 88% 2.0 mph 3.2 kmh 9.0 mph14.5 kmh 29.62 in1003.0 mb 0.00 in0.0 mm 0.00 in0.0 mm 0.00 in0.0 mm
12:16 AM 44.6°F7.0°C 41.2°F5.1°C 88% 3.0 mph NNE4.8 kmh NNE 9.0 mph14.5 kmh 29.62 in1003.0 mb 0.00 in0.0 mm 0.00 in0.0 mm 0.00 in0.0 mm
12:17 AM 44.4°F6.9°C 41.0°F5.0°C 88% 4.0 mph NW6.4 kmh NW 6.0 mph9.7 kmh 29.62 in1003.0 mb 0.00 in0.0 mm 0.00 in0.0 mm 0.00 in0.0 mm
12:18 AM 44.4°F6.9°C 41.0°F5.0°C 88% 4.0 mph NNE6.4 kmh NNE 6.0 mph9.7 kmh 29.62 in1003.0 mb 0.00 in0.0 mm 0.00 in0.0 mm 0.00 in0.0 mm
12:19 AM 44.4°F6.9°C 41.0°F5.0°C 88% 3.0 mph ESE4.8 kmh ESE 6.0 mph9.7 kmh 29.61 in1002.7 mb 0.00 in0.0 mm 0.00 in0.0 mm 0.00 in0.0 mm
12:20 AM 44.4°F6.9°C 41.0°F5.0°C 88% 5.0 mph NNE8.0 kmh NNE 6.0 mph9.7 kmh 29.61 in1002.7 mb 0.01 in0.3 mm 0.60 in15.2 mm 0.01 in0.3 mm
12:21 AM 44.4°F6.9°C 41.0°F5.0°C 88% 11.0 mph 17.7 kmh 11.0 mph17.7 kmh 29.61 in1002.7 mb 0.01 in0.3 mm 0.00 in0.0 mm 0.01 in0.3 mm
12:22 AM 44.4°F6.9°C 41.0°F5.0°C 88% 3.0 mph NNE4.8 kmh NNE 11.0 mph17.7 kmh 29.62 in1003.0 mb 0.01 in0.3 mm 0.00 in0.0 mm 0.01 in0.3 mm
12:23 AM 44.4°F6.9°C 41.0°F5.0°C 88% 6.0 mph 9.7 kmh 11.0 mph17.7 kmh 29.62 in1003.0 mb 0.01 in0.3 mm 0.00 in0.0 mm 0.01 in0.3 mm
12:24 AM 44.4°F6.9°C 41.0°F5.0°C 88% 3.0 mph W4.8 kmh W 11.0 mph17.7 kmh 29.61 in1002.7 mb 0.01 in0.3 mm 0.00 in0.0 mm 0.01 in0.3 mm
12:25 AM 44.4°F6.9°C 41.0°F5.0°C 88% 2.0 mph 3.2 kmh 11.0 mph17.7 kmh 29.61 in1002.7 mb 0.01 in0.3 mm 0.00 in0.0 mm 0.01 in0.3 mm
12:26 AM 44.4°F6.9°C 41.6°F5.3°C 90% 3.0 mph NNW4.8 kmh NNW 11.0 mph17.7 kmh 29.60 in1002.4 mb 0.01 in0.3 mm 0.00 in0.0 mm 0.01 in0.3 mm
12:27 AM 44.4°F6.9°C 41.6°F5.3°C 90% 3.0 mph NNW4.8 kmh NNW 11.0 mph17.7 kmh 29.60 in1002.4 mb 0.01 in0.3 mm 0.00 in0.0 mm 0.01 in0.3 mm
12:28 AM 44.2°F6.8°C 41.4°F5.2°C 90% 5.0 mph 8.0 kmh 11.0 mph17.7 kmh 29.60 in1002.4 mb 0.01 in0.3 mm 0.00 in0.0 mm 0.01 in0.3 mm
12:29 AM 44.2°F6.8°C 41.4°F5.2°C 90% 3.0 mph NE4.8 kmh NE 11.0 mph17.7 kmh 29.61 in1002.7 mb 0.01 in0.3 mm 0.00 in0.0 mm 0.01 in0.3 mm
12:30 AM 44.2°F6.8°C 41.4°F5.2°C 90% 3.0 mph NNW4.8 kmh NNW 11.0 mph17.7 kmh 29.61 in1002.7 mb 0.01 in0.3 mm 0.00 in0.0 mm 0.01 in0.3 mm
12:31 AM 44.2°F6.8°C 41.4°F5.2°C 90% 8.0 mph NNW12.9 kmh NNW 11.0 mph17.7 kmh 29.60 in1002.4 mb 0.01 in0.3 mm 0.00 in0.0 mm 0.01 in0.3 mm
12:32 AM 44.2°F6.8°C 41.4°F5.2°C 90% 7.0 mph NNW11.3 kmh NNW 8.0 mph12.9 kmh 29.61 in1002.7 mb 0.01 in0.3 mm 0.00 in0.0 mm 0.01 in0.3 mm
12:33 AM 44.2°F6.8°C 41.4°F5.2°C 90% 4.0 mph E6.4 kmh E 8.0 mph12.9 kmh 29.61 in1002.7 mb 0.01 in0.3 mm 0.00 in0.0 mm 0.01 in0.3 mm
12:34 AM 44.2°F6.8°C 41.4°F5.2°C 90% 9.0 mph NNE14.5 kmh NNE 9.0 mph14.5 kmh 29.61 in1002.7 mb 0.01 in0.3 mm 0.00 in0.0 mm 0.01 in0.3 mm
12:35 AM 44.0°F6.7°C 41.5°F5.3°C 91% 4.0 mph W6.4 kmh W 9.0 mph14.5 kmh 29.60 in1002.4 mb 0.01 in0.3 mm 0.00 in0.0 mm 0.01 in0.3 mm
12:36 AM 44.0°F6.7°C 41.5°F5.3°C 91% 3.0 mph NNW4.8 kmh NNW 9.0 mph14.5 kmh 29.60 in1002.4 mb 0.01 in0.3 mm 0.00 in0.0 mm 0.01 in0.3 mm
12:37 AM 44.0°F6.7°C 41.5°F5.3°C 91% 4.0 mph 6.4 kmh 9.0 mph14.5 kmh 29.60 in1002.4 mb 0.01 in0.3 mm 0.00 in0.0 mm 0.01 in0.3 mm
12:38 AM 44.0°F6.7°C 41.5°F5.3°C 91% 2.0 mph NNE3.2 kmh NNE 9.0 mph14.5 kmh 29.60 in1002.4 mb 0.01 in0.3 mm 0.00 in0.0 mm 0.01 in0.3 mm
12:39 AM 44.0°F6.7°C 41.5°F5.3°C 91% 6.0 mph NW9.7 kmh NW 9.0 mph14.5 kmh 29.61 in1002.7 mb 0.01 in0.3 mm 0.00 in0.0 mm 0.01 in0.3 mm
12:40 AM 43.9°F6.6°C 41.4°F5.2°C 91% 2.0 mph NW3.2 kmh NW 9.0 mph14.5 kmh 29.60 in1002.4 mb 0.01 in0.3 mm 0.00 in0.0 mm 0.01 in0.3 mm
12:41 AM 43.9°F6.6°C 41.4°F5.2°C 91% 3.0 mph 4.8 kmh 9.0 mph14.5 kmh 29.60 in1002.4 mb 0.01 in0.3 mm 0.00 in0.0 mm 0.01 in0.3 mm
12:42 AM 43.9°F6.6°C 41.4°F5.2°C 91% 4.0 mph NNW6.4 kmh NNW 9.0 mph14.5 kmh 29.60 in1002.4 mb 0.01 in0.3 mm 0.00 in0.0 mm 0.01 in0.3 mm
12:43 AM 43.9°F6.6°C 41.4°F5.2°C 91% 7.0 mph 11.3 kmh 9.0 mph14.5 kmh 29.61 in1002.7 mb 0.01 in0.3 mm 0.00 in0.0 mm 0.01 in0.3 mm
12:44 AM 43.9°F6.6°C 41.4°F5.2°C 91% 3.0 mph 4.8 kmh 9.0 mph14.5 kmh 29.60 in1002.4 mb 0.02 in0.5 mm 0.60 in15.2 mm 0.02 in0.5 mm
12:45 AM 43.6°F6.4°C 41.7°F5.4°C 93% 4.0 mph 6.4 kmh 7.0 mph11.3 kmh 29.60 in1002.4 mb 0.02 in0.5 mm 0.00 in0.0 mm 0.02 in0.5 mm
12:46 AM 43.6°F6.4°C 41.7°F5.4°C 93% 6.0 mph WNW9.7 kmh WNW 7.0 mph11.3 kmh 29.60 in1002.4 mb 0.02 in0.5 mm 0.00 in0.0 mm 0.02 in0.5 mm
12:47 AM 43.6°F6.4°C 41.7°F5.4°C 93% 3.0 mph NNE4.8 kmh NNE 7.0 mph11.3 kmh 29.60 in1002.4 mb 0.02 in0.5 mm 0.00 in0.0 mm 0.02 in0.5 mm
12:48 AM 43.6°F6.4°C 41.7°F5.4°C 93% 4.0 mph NW6.4 kmh NW 7.0 mph11.3 kmh 29.60 in1002.4 mb 0.02 in0.5 mm 0.00 in0.0 mm 0.02 in0.5 mm
12:49 AM 43.6°F6.4°C 41.7°F5.4°C 93% 4.0 mph NW6.4 kmh NW 7.0 mph11.3 kmh 29.60 in1002.4 mb 0.02 in0.5 mm 0.00 in0.0 mm 0.02 in0.5 mm
12:50 AM 43.4°F6.3°C 41.5°F5.3°C 93% 6.0 mph 9.7 kmh 10.0 mph16.1 kmh 29.60 in1002.4 mb 0.02 in0.5 mm 0.00 in0.0 mm 0.02 in0.5 mm
12:51 AM 43.4°F6.3°C 41.5°F5.3°C 93% 4.0 mph NNE6.4 kmh NNE 10.0 mph16.1 kmh 29.60 in1002.4 mb 0.02 in0.5 mm 0.00 in0.0 mm 0.02 in0.5 mm
12:52 AM 43.4°F6.3°C 41.5°F5.3°C 93% 3.0 mph NNE4.8 kmh NNE 10.0 mph16.1 kmh 29.60 in1002.4 mb 0.02 in0.5 mm 0.00 in0.0 mm 0.02 in0.5 mm
12:53 AM 43.4°F6.3°C 41.5°F5.3°C 93% 4.0 mph WSW6.4 kmh WSW 10.0 mph16.1 kmh 29.60 in1002.4 mb 0.02 in0.5 mm 0.00 in0.0 mm 0.02 in0.5 mm
12:54 AM 43.4°F6.3°C 41.5°F5.3°C 93% 3.0 mph 4.8 kmh 10.0 mph16.1 kmh 29.59 in1002.0 mb 0.02 in0.5 mm 0.00 in0.0 mm 0.02 in0.5 mm
12:55 AM 43.4°F6.3°C 41.5°F5.3°C 93% 7.0 mph 11.3 kmh 10.0 mph16.1 kmh 29.59 in1002.0 mb 0.02 in0.5 mm 0.00 in0.0 mm 0.02 in0.5 mm
12:56 AM 43.4°F6.3°C 41.5°F5.3°C 93% 6.0 mph NNE9.7 kmh NNE 10.0 mph16.1 kmh 29.59 in1002.0 mb 0.03 in0.8 mm 0.60 in15.2 mm 0.03 in0.8 mm
12:57 AM 43.4°F6.3°C 41.5°F5.3°C 93% 6.0 mph NNE9.7 kmh NNE 10.0 mph16.1 kmh 29.59 in1002.0 mb 0.03 in0.8 mm 0.00 in0.0 mm 0.03 in0.8 mm
12:58 AM 43.2°F6.2°C 41.3°F5.2°C 93% 6.0 mph NNE9.7 kmh NNE 10.0 mph16.1 kmh 29.59 in1002.0 mb 0.03 in0.8 mm 0.00 in0.0 mm 0.03 in0.8 mm
12:59 AM 43.2°F6.2°C 41.3°F5.2°C 93% 3.0 mph NW4.8 kmh NW 10.0 mph16.1 kmh 29.59 in1002.0 mb 0.03 in0.8 mm 0.00 in0.0 mm 0.03 in0.8 mm
01:00 AM 43.2°F6.2°C 41.8°F5.4°C 95% 4.0 mph NNW6.4 kmh NNW 8.0 mph12.9 kmh 29.59 in1002.0 mb 0.03 in0.8 mm 0.00 in0.0 mm 0.03 in0.8 mm
01:01 AM 43.2°F6.2°C 41.8°F5.4°C 95% 5.0 mph WSW8.0 kmh WSW 8.0 mph12.9 kmh 29.59 in1002.0 mb 0.03 in0.8 mm 0.00 in0.0 mm 0.03 in0.8 mm
01:02 AM 43.2°F6.2°C 41.8°F5.4°C 95% 10.0 mph NNE16.1 kmh NNE 10.0 mph16.1 kmh 29.59 in1002.0 mb 0.03 in0.8 mm 0.00 in0.0 mm 0.03 in0.8 mm
01:03 AM 43.2°F6.2°C 41.8°F5.4°C 95% 4.0 mph NW6.4 kmh NW 10.0 mph16.1 kmh 29.59 in1002.0 mb 0.03 in0.8 mm 0.00 in0.0 mm 0.03 in0.8 mm
01:04 AM 43.2°F6.2°C 41.8°F5.4°C 95% 4.0 mph 6.4 kmh 10.0 mph16.1 kmh 29.59 in1002.0 mb 0.03 in0.8 mm 0.00 in0.0 mm 0.03 in0.8 mm
01:05 AM 43.2°F6.2°C 41.8°F5.4°C 95% 3.0 mph WNW4.8 kmh WNW 10.0 mph16.1 kmh 29.59 in1002.0 mb 0.03 in0.8 mm 0.00 in0.0 mm 0.03 in0.8 mm
01:06 AM 43.2°F6.2°C 41.8°F5.4°C 95% 6.0 mph NNE9.7 kmh NNE 10.0 mph16.1 kmh 29.59 in1002.0 mb 0.03 in0.8 mm 0.00 in0.0 mm 0.03 in0.8 mm
01:07 AM 43.2°F6.2°C 41.8°F5.4°C 95% 6.0 mph 9.7 kmh 10.0 mph16.1 kmh 29.59 in1002.0 mb 0.03 in0.8 mm 0.00 in0.0 mm 0.03 in0.8 mm
01:08 AM 43.2°F6.2°C 41.8°F5.4°C 95% 11.0 mph 17.7 kmh 11.0 mph17.7 kmh 29.59 in1002.0 mb 0.03 in0.8 mm 0.00 in0.0 mm 0.03 in0.8 mm
01:09 AM 43.2°F6.2°C 41.8°F5.4°C 95% 6.0 mph 9.7 kmh 11.0 mph17.7 kmh 29.59 in1002.0 mb 0.03 in0.8 mm 0.00 in0.0 mm 0.03 in0.8 mm
01:10 AM 43.2°F6.2°C 42.1°F5.6°C 96% 3.0 mph ESE4.8 kmh ESE 11.0 mph17.7 kmh 29.59 in1002.0 mb 0.03 in0.8 mm 0.00 in0.0 mm 0.03 in0.8 mm
01:11 AM 43.2°F6.2°C 42.1°F5.6°C 96% 1.0 mph WSW1.6 kmh WSW 11.0 mph17.7 kmh 29.59 in1002.0 mb 0.04 in1.0 mm 0.60 in15.2 mm 0.01 in0.3 mm
01:12 AM 43.2°F6.2°C 42.1°F5.6°C 96% 3.0 mph 4.8 kmh 11.0 mph17.7 kmh 29.58 in1001.7 mb 0.04 in1.0 mm 0.00 in0.0 mm 0.01 in0.3 mm
01:13 AM 43.0°F6.1°C 41.9°F5.5°C 96% 6.0 mph WNW9.7 kmh WNW 11.0 mph17.7 kmh 29.58 in1001.7 mb 0.04 in1.0 mm 0.00 in0.0 mm 0.01 in0.3 mm
01:14 AM 43.0°F6.1°C 41.9°F5.5°C 96% 4.0 mph NNW6.4 kmh NNW 11.0 mph17.7 kmh 29.58 in1001.7 mb 0.04 in1.0 mm 0.00 in0.0 mm 0.01 in0.3 mm
01:15 AM 43.0°F6.1°C 41.9°F5.5°C 96% 4.0 mph NNE6.4 kmh NNE 11.0 mph17.7 kmh 29.58 in1001.7 mb 0.04 in1.0 mm 0.00 in0.0 mm 0.01 in0.3 mm
01:16 AM 42.7°F5.9°C 41.6°F5.3°C 96% 9.0 mph WNW14.5 kmh WNW 11.0 mph17.7 kmh 29.58 in1001.7 mb 0.04 in1.0 mm 0.00 in0.0 mm 0.01 in0.3 mm
01:17 AM 42.7°F5.9°C 41.6°F5.3°C 96% 6.0 mph WNW9.7 kmh WNW 11.0 mph17.7 kmh 29.58 in1001.7 mb 0.04 in1.0 mm 0.00 in0.0 mm 0.01 in0.3 mm
01:18 AM 42.7°F5.9°C 41.6°F5.3°C 96% 4.0 mph NNE6.4 kmh NNE 9.0 mph14.5 kmh 29.58 in1001.7 mb 0.04 in1.0 mm 0.00 in0.0 mm 0.01 in0.3 mm
01:19 AM 42.7°F5.9°C 41.6°F5.3°C 96% 3.0 mph 4.8 kmh 9.0 mph14.5 kmh 29.58 in1001.7 mb 0.04 in1.0 mm 0.00 in0.0 mm 0.01 in0.3 mm
01:20 AM 42.7°F5.9°C 41.6°F5.3°C 96% 4.0 mph NE6.4 kmh NE 9.0 mph14.5 kmh 29.58 in1001.7 mb 0.04 in1.0 mm 0.00 in0.0 mm 0.01 in0.3 mm
01:21 AM 42.7°F5.9°C 41.6°F5.3°C 96% 5.0 mph NE8.0 kmh NE 9.0 mph14.5 kmh 29.57 in1001.4 mb 0.04 in1.0 mm 0.00 in0.0 mm 0.01 in0.3 mm
01:22 AM 42.7°F5.9°C 41.6°F5.3°C 96% 3.0 mph SE4.8 kmh SE 9.0 mph14.5 kmh 29.57 in1001.4 mb 0.05 in1.3 mm 0.60 in15.2 mm 0.02 in0.5 mm
01:23 AM 42.7°F5.9°C 41.6°F5.3°C 96% 6.0 mph 9.7 kmh 9.0 mph14.5 kmh 29.57 in1001.4 mb 0.05 in1.3 mm 0.00 in0.0 mm 0.02 in0.5 mm
01:24 AM 42.5°F5.8°C 41.4°F5.2°C 96% 7.0 mph ESE11.3 kmh ESE 9.0 mph14.5 kmh 29.57 in1001.4 mb 0.05 in1.3 mm 0.00 in0.0 mm 0.02 in0.5 mm
01:25 AM 42.5°F5.8°C 41.4°F5.2°C 96% 5.0 mph 8.0 kmh 9.0 mph14.5 kmh 29.57 in1001.4 mb 0.05 in1.3 mm 0.00 in0.0 mm 0.02 in0.5 mm
01:26 AM 42.5°F5.8°C 41.4°F5.2°C 96% 11.0 mph E17.7 kmh E 11.0 mph17.7 kmh 29.57 in1001.4 mb 0.05 in1.3 mm 0.00 in0.0 mm 0.02 in0.5 mm
01:27 AM 42.5°F5.8°C 41.4°F5.2°C 96% 6.0 mph 9.7 kmh 11.0 mph17.7 kmh 29.57 in1001.4 mb 0.05 in1.3 mm 0.00 in0.0 mm 0.02 in0.5 mm
01:28 AM 42.5°F5.8°C 41.4°F5.2°C 96% 5.0 mph NNE8.0 kmh NNE 11.0 mph17.7 kmh 29.57 in1001.4 mb 0.05 in1.3 mm 0.00 in0.0 mm 0.02 in0.5 mm
01:29 AM 42.5°F5.8°C 41.4°F5.2°C 96% 3.0 mph NNE4.8 kmh NNE 11.0 mph17.7 kmh 29.57 in1001.4 mb 0.06 in1.5 mm 0.60 in15.2 mm 0.03 in0.8 mm
01:30 AM 42.5°F5.8°C 41.4°F5.2°C 96% 6.0 mph NW9.7 kmh NW 11.0 mph17.7 kmh 29.57 in1001.4 mb 0.06 in1.5 mm 0.00 in0.0 mm 0.03 in0.8 mm
01:31 AM 42.5°F5.8°C 41.4°F5.2°C 96% 10.0 mph NNW16.1 kmh NNW 11.0 mph17.7 kmh 29.57 in1001.4 mb 0.06 in1.5 mm 0.00 in0.0 mm 0.03 in0.8 mm
01:32 AM 42.5°F5.8°C 41.4°F5.2°C 96% 4.0 mph ESE6.4 kmh ESE 11.0 mph17.7 kmh 29.56 in1001.0 mb 0.06 in1.5 mm 0.00 in0.0 mm 0.03 in0.8 mm
01:33 AM 42.5°F5.8°C 41.4°F5.2°C 96% 5.0 mph WNW8.0 kmh WNW 11.0 mph17.7 kmh 29.56 in1001.0 mb 0.06 in1.5 mm 0.00 in0.0 mm 0.03 in0.8 mm
01:34 AM 42.5°F5.8°C 41.4°F5.2°C 96% 7.0 mph 11.3 kmh 11.0 mph17.7 kmh 29.56 in1001.0 mb 0.06 in1.5 mm 0.00 in0.0 mm 0.03 in0.8 mm
01:35 AM 42.5°F5.8°C 41.4°F5.2°C 96% 5.0 mph NNE8.0 kmh NNE 11.0 mph17.7 kmh 29.56 in1001.0 mb 0.06 in1.5 mm 0.00 in0.0 mm 0.03 in0.8 mm
01:36 AM 42.5°F5.8°C 41.4°F5.2°C 96% 7.0 mph NNE11.3 kmh NNE 11.0 mph17.7 kmh 29.56 in1001.0 mb 0.06 in1.5 mm 0.00 in0.0 mm 0.03 in0.8 mm
01:37 AM 42.5°F5.8°C 41.4°F5.2°C 96% 4.0 mph NW6.4 kmh NW 11.0 mph17.7 kmh 29.56 in1001.0 mb 0.06 in1.5 mm 0.00 in0.0 mm 0.03 in0.8 mm
01:38 AM 42.5°F5.8°C 41.4°F5.2°C 96% 6.0 mph 9.7 kmh 11.0 mph17.7 kmh 29.56 in1001.0 mb 0.06 in1.5 mm 0.00 in0.0 mm 0.03 in0.8 mm
01:39 AM 42.4°F5.8°C 41.3°F5.2°C 96% 10.0 mph NNW16.1 kmh NNW 11.0 mph17.7 kmh 29.56 in1001.0 mb 0.06 in1.5 mm 0.00 in0.0 mm 0.03 in0.8 mm
01:40 AM 42.4°F5.8°C 41.3°F5.2°C 96% 7.0 mph NE11.3 kmh NE 11.0 mph17.7 kmh 29.56 in1001.0 mb 0.06 in1.5 mm 0.00 in0.0 mm 0.03 in0.8 mm
01:41 AM 42.4°F5.8°C 41.3°F5.2°C 96% 5.0 mph NNE8.0 kmh NNE 11.0 mph17.7 kmh 29.56 in1001.0 mb 0.06 in1.5 mm 0.00 in0.0 mm 0.03 in0.8 mm
01:42 AM 42.4°F5.8°C 41.9°F5.5°C 98% 4.0 mph WNW6.4 kmh WNW 11.0 mph17.7 kmh 29.56 in1001.0 mb 0.06 in1.5 mm 0.00 in0.0 mm 0.03 in0.8 mm
01:43 AM 42.4°F5.8°C 41.9°F5.5°C 98% 5.0 mph NE8.0 kmh NE 11.0 mph17.7 kmh 29.56 in1001.0 mb 0.06 in1.5 mm 0.00 in0.0 mm 0.03 in0.8 mm
01:44 AM 42.4°F5.8°C 41.9°F5.5°C 98% 6.0 mph NE9.7 kmh NE 10.0 mph16.1 kmh 29.56 in1001.0 mb 0.06 in1.5 mm 0.00 in0.0 mm 0.03 in0.8 mm
01:45 AM 42.4°F5.8°C 41.9°F5.5°C 98% 10.0 mph NNE16.1 kmh NNE 10.0 mph16.1 kmh 29.56 in1001.0 mb 0.06 in1.5 mm 0.00 in0.0 mm 0.03 in0.8 mm
01:46 AM 42.4°F5.8°C 41.9°F5.5°C 98% 6.0 mph E9.7 kmh E 10.0 mph16.1 kmh 29.56 in1001.0 mb 0.07 in1.8 mm 0.60 in15.2 mm 0.04 in1.0 mm
01:47 AM 42.4°F5.8°C 41.9°F5.5°C 98% 5.0 mph WSW8.0 kmh WSW 10.0 mph16.1 kmh 29.56 in1001.0 mb 0.07 in1.8 mm 0.00 in0.0 mm 0.04 in1.0 mm
01:48 AM 42.4°F5.8°C 41.9°F5.5°C 98% 9.0 mph NNE14.5 kmh NNE 10.0 mph16.1 kmh 29.56 in1001.0 mb 0.07 in1.8 mm 0.00 in0.0 mm 0.04 in1.0 mm
01:49 AM 42.4°F5.8°C 41.9°F5.5°C 98% 7.0 mph 11.3 kmh 10.0 mph16.1 kmh 29.56 in1001.0 mb 0.07 in1.8 mm 0.00 in0.0 mm 0.04 in1.0 mm
01:50 AM 42.4°F5.8°C 41.9°F5.5°C 98% 4.0 mph NNW6.4 kmh NNW 10.0 mph16.1 kmh 29.56 in1001.0 mb 0.07 in1.8 mm 0.00 in0.0 mm 0.04 in1.0 mm
01:51 AM 42.4°F5.8°C 41.9°F5.5°C 98% 6.0 mph 9.7 kmh 10.0 mph16.1 kmh 29.56 in1001.0 mb 0.07 in1.8 mm 0.00 in0.0 mm 0.04 in1.0 mm
01:52 AM 42.4°F5.8°C 41.9°F5.5°C 98% 4.0 mph ENE6.4 kmh ENE 10.0 mph16.1 kmh 29.56 in1001.0 mb 0.07 in1.8 mm 0.00 in0.0 mm 0.04 in1.0 mm
01:53 AM 42.4°F5.8°C 41.9°F5.5°C 98% 8.0 mph NNE12.9 kmh NNE 10.0 mph16.1 kmh 29.56 in1001.0 mb 0.07 in1.8 mm 0.00 in0.0 mm 0.04 in1.0 mm
01:54 AM 42.4°F5.8°C 41.9°F5.5°C 98% 4.0 mph 6.4 kmh 10.0 mph16.1 kmh 29.56 in1001.0 mb 0.07 in1.8 mm 0.00 in0.0 mm 0.04 in1.0 mm
01:55 AM 42.4°F5.8°C 41.9°F5.5°C 98% 4.0 mph NNE6.4 kmh NNE 10.0 mph16.1 kmh 29.56 in1001.0 mb 0.07 in1.8 mm 0.00 in0.0 mm 0.04 in1.0 mm
01:56 AM 42.4°F5.8°C 41.9°F5.5°C 98% 6.0 mph NNW9.7 kmh NNW 9.0 mph14.5 kmh 29.55 in1000.7 mb 0.07 in1.8 mm 0.00 in0.0 mm 0.04 in1.0 mm
01:57 AM 42.4°F5.8°C 41.9°F5.5°C 98% 7.0 mph NNW11.3 kmh NNW 9.0 mph14.5 kmh 29.56 in1001.0 mb 0.07 in1.8 mm 0.00 in0.0 mm 0.04 in1.0 mm
01:58 AM 42.4°F5.8°C 41.9°F5.5°C 98% 10.0 mph NW16.1 kmh NW 11.0 mph17.7 kmh 29.55 in1000.7 mb 0.07 in1.8 mm 0.00 in0.0 mm 0.04 in1.0 mm
01:59 AM 42.4°F5.8°C 41.9°F5.5°C 98% 4.0 mph NNE6.4 kmh NNE 11.0 mph17.7 kmh 29.55 in1000.7 mb 0.07 in1.8 mm 0.00 in0.0 mm 0.04 in1.0 mm
02:00 AM 42.4°F5.8°C 41.9°F5.5°C 98% 6.0 mph NNE9.7 kmh NNE 11.0 mph17.7 kmh 29.55 in1000.7 mb 0.07 in1.8 mm 0.00 in0.0 mm 0.04 in1.0 mm
02:01 AM 42.4°F5.8°C 41.9°F5.5°C 98% 5.0 mph NNE8.0 kmh NNE 11.0 mph17.7 kmh 29.56 in1001.0 mb 0.07 in1.8 mm 0.00 in0.0 mm 0.04 in1.0 mm
02:02 AM 42.4°F5.8°C 41.9°F5.5°C 98% 3.0 mph NNW4.8 kmh NNW 11.0 mph17.7 kmh 29.56 in1001.0 mb 0.07 in1.8 mm 0.00 in0.0 mm 0.04 in1.0 mm
02:03 AM 42.4°F5.8°C 41.9°F5.5°C 98% 5.0 mph NW8.0 kmh NW 11.0 mph17.7 kmh 29.56 in1001.0 mb 0.08 in2.0 mm 0.60 in15.2 mm 0.05 in1.3 mm
02:04 AM 42.4°F5.8°C 41.9°F5.5°C 98% 6.0 mph NNW9.7 kmh NNW 11.0 mph17.7 kmh 29.55 in1000.7 mb 0.08 in2.0 mm 0.00 in0.0 mm 0.05 in1.3 mm
02:05 AM 42.4°F5.8°C 41.9°F5.5°C 98% 5.0 mph 8.0 kmh 11.0 mph17.7 kmh 29.55 in1000.7 mb 0.08 in2.0 mm 0.00 in0.0 mm 0.05 in1.3 mm
02:06 AM 42.4°F5.8°C 41.9°F5.5°C 98% 4.0 mph SE6.4 kmh SE 11.0 mph17.7 kmh 29.55 in1000.7 mb 0.08 in2.0 mm 0.00 in0.0 mm 0.05 in1.3 mm
02:07 AM 42.4°F5.8°C 41.9°F5.5°C 98% 11.0 mph NNE17.7 kmh NNE 12.0 mph19.3 kmh 29.54 in1000.3 mb 0.00 in0.0 mm 0.00 in0.0 mm 0.05 in1.3 mm
02:08 AM 42.4°F5.8°C 41.9°F5.5°C 98% 5.0 mph ENE8.0 kmh ENE 12.0 mph19.3 kmh 29.54 in1000.3 mb 0.00 in0.0 mm 0.00 in0.0 mm 0.05 in1.3 mm
02:09 AM 42.4°F5.8°C 41.9°F5.5°C 98% 6.0 mph 9.7 kmh 12.0 mph19.3 kmh 29.55 in1000.7 mb 0.00 in0.0 mm 0.00 in0.0 mm 0.05 in1.3 mm
02:10 AM 42.4°F5.8°C 41.9°F5.5°C 98% 4.0 mph ESE6.4 kmh ESE 12.0 mph19.3 kmh 29.54 in1000.3 mb 0.00 in0.0 mm 0.00 in0.0 mm 0.05 in1.3 mm
02:11 AM 42.4°F5.8°C 41.9°F5.5°C 98% 4.0 mph NNE6.4 kmh NNE 12.0 mph19.3 kmh 29.54 in1000.3 mb 0.01 in0.3 mm 0.60 in15.2 mm 0.06 in1.5 mm
02:12 AM 42.4°F5.8°C 41.9°F5.5°C 98% 3.0 mph WNW4.8 kmh WNW 12.0 mph19.3 kmh 29.54 in1000.3 mb 0.01 in0.3 mm 0.00 in0.0 mm 0.06 in1.5 mm
02:13 AM 42.4°F5.8°C 41.9°F5.5°C 98% 9.0 mph NNE14.5 kmh NNE 12.0 mph19.3 kmh 29.54 in1000.3 mb 0.01 in0.3 mm 0.00 in0.0 mm 0.06 in1.5 mm
02:14 AM 42.4°F5.8°C 41.9°F5.5°C 98% 6.0 mph NNE9.7 kmh NNE 12.0 mph19.3 kmh 29.54 in1000.3 mb 0.01 in0.3 mm 0.00 in0.0 mm 0.06 in1.5 mm
02:15 AM 42.3°F5.7°C 41.8°F5.4°C 98% 6.0 mph NNE9.7 kmh NNE 12.0 mph19.3 kmh 29.53 in1000.0 mb 0.01 in0.3 mm 0.00 in0.0 mm 0.06 in1.5 mm
02:16 AM 42.3°F5.7°C 41.8°F5.4°C 98% 12.0 mph NNE19.3 kmh NNE 12.0 mph19.3 kmh 29.53 in1000.0 mb 0.02 in0.5 mm 0.60 in15.2 mm 0.07 in1.8 mm
02:17 AM 42.3°F5.7°C 41.8°F5.4°C 98% 6.0 mph NNE9.7 kmh NNE 12.0 mph19.3 kmh 29.53 in1000.0 mb 0.02 in0.5 mm 0.00 in0.0 mm 0.07 in1.8 mm
02:18 AM 42.3°F5.7°C 41.8°F5.4°C 98% 9.0 mph NNE14.5 kmh NNE 12.0 mph19.3 kmh 29.53 in1000.0 mb 0.02 in0.5 mm 0.00 in0.0 mm 0.07 in1.8 mm
02:19 AM 42.3°F5.7°C 41.8°F5.4°C 98% 5.0 mph NW8.0 kmh NW 12.0 mph19.3 kmh 29.52 in999.7 mb 0.02 in0.5 mm 0.00 in0.0 mm 0.07 in1.8 mm
02:20 AM 42.3°F5.7°C 41.8°F5.4°C 98% 9.0 mph NNE14.5 kmh NNE 13.0 mph20.9 kmh 29.52 in999.7 mb 0.02 in0.5 mm 0.00 in0.0 mm 0.07 in1.8 mm
02:21 AM 42.3°F5.7°C 41.8°F5.4°C 98% 3.0 mph WNW4.8 kmh WNW 13.0 mph20.9 kmh 29.51 in999.3 mb 0.02 in0.5 mm 0.00 in0.0 mm 0.07 in1.8 mm
02:22 AM 42.3°F5.7°C 41.8°F5.4°C 98% 8.0 mph NNW12.9 kmh NNW 13.0 mph20.9 kmh 29.51 in999.3 mb 0.02 in0.5 mm 0.00 in0.0 mm 0.07 in1.8 mm
02:23 AM 42.3°F5.7°C 41.8°F5.4°C 98% 9.0 mph NW14.5 kmh NW 13.0 mph20.9 kmh 29.51 in999.3 mb 0.03 in0.8 mm 0.60 in15.2 mm 0.08 in2.0 mm
02:24 AM 42.3°F5.7°C 41.8°F5.4°C 98% 3.0 mph NNE4.8 kmh NNE 13.0 mph20.9 kmh 29.51 in999.3 mb 0.03 in0.8 mm 0.00 in0.0 mm 0.08 in2.0 mm
02:25 AM 42.3°F5.7°C 41.8°F5.4°C 98% 4.0 mph 6.4 kmh 13.0 mph20.9 kmh 29.51 in999.3 mb 0.03 in0.8 mm 0.00 in0.0 mm 0.08 in2.0 mm
02:26 AM 42.3°F5.7°C 41.8°F5.4°C 98% 4.0 mph NW6.4 kmh NW 13.0 mph20.9 kmh 29.51 in999.3 mb 0.03 in0.8 mm 0.00 in0.0 mm 0.08 in2.0 mm
02:27 AM 42.3°F5.7°C 41.8°F5.4°C 98% 4.0 mph NNE6.4 kmh NNE 13.0 mph20.9 kmh 29.50 in999.0 mb 0.03 in0.8 mm 0.00 in0.0 mm 0.08 in2.0 mm
02:28 AM 42.3°F5.7°C 41.8°F5.4°C 98% 8.0 mph NNW12.9 kmh NNW 16.0 mph25.7 kmh 29.50 in999.0 mb 0.04 in1.0 mm 0.60 in15.2 mm 0.09 in2.3 mm
02:29 AM 42.3°F5.7°C 41.8°F5.4°C 98% 9.0 mph NW14.5 kmh NW 16.0 mph25.7 kmh 29.50 in999.0 mb 0.04 in1.0 mm 0.00 in0.0 mm 0.09 in2.3 mm
02:30 AM 42.3°F5.7°C 41.8°F5.4°C 98% 11.0 mph NE17.7 kmh NE 16.0 mph25.7 kmh 29.50 in999.0 mb 0.04 in1.0 mm 0.00 in0.0 mm 0.09 in2.3 mm
02:31 AM 42.3°F5.7°C 41.8°F5.4°C 98% 10.0 mph NNE16.1 kmh NNE 16.0 mph25.7 kmh 29.50 in999.0 mb 0.04 in1.0 mm 0.00 in0.0 mm 0.09 in2.3 mm
02:32 AM 42.3°F5.7°C 41.8°F5.4°C 98% 6.0 mph NNW9.7 kmh NNW 16.0 mph25.7 kmh 29.50 in999.0 mb 0.04 in1.0 mm 0.00 in0.0 mm 0.09 in2.3 mm
02:33 AM 42.3°F5.7°C 41.8°F5.4°C 98% 5.0 mph 8.0 kmh 16.0 mph25.7 kmh 29.50 in999.0 mb 0.04 in1.0 mm 0.00 in0.0 mm 0.09 in2.3 mm
02:34 AM 42.3°F5.7°C 41.8°F5.4°C 98% 5.0 mph NE8.0 kmh NE 16.0 mph25.7 kmh 29.50 in999.0 mb 0.04 in1.0 mm 0.00 in0.0 mm 0.09 in2.3 mm
02:35 AM 42.3°F5.7°C 41.8°F5.4°C 98% 5.0 mph NE8.0 kmh NE 16.0 mph25.7 kmh 29.50 in999.0 mb 0.04 in1.0 mm 0.00 in0.0 mm 0.09 in2.3 mm
02:36 AM 42.3°F5.7°C 41.8°F5.4°C 98% 10.0 mph NE16.1 kmh NE 16.0 mph25.7 kmh 29.50 in999.0 mb 0.04 in1.0 mm 0.00 in0.0 mm 0.09 in2.3 mm
02:37 AM 42.3°F5.7°C 41.8°F5.4°C 98% 10.0 mph 16.1 kmh 16.0 mph25.7 kmh 29.50 in999.0 mb 0.04 in1.0 mm 0.00 in0.0 mm 0.09 in2.3 mm
02:38 AM 42.3°F5.7°C 41.8°F5.4°C 98% 7.0 mph 11.3 kmh 16.0 mph25.7 kmh 29.50 in999.0 mb 0.04 in1.0 mm 0.00 in0.0 mm 0.09 in2.3 mm
02:39 AM 42.3°F5.7°C 41.8°F5.4°C 98% 5.0 mph ESE8.0 kmh ESE 16.0 mph25.7 kmh 29.50 in999.0 mb 0.05 in1.3 mm 0.60 in15.2 mm 0.10 in2.5 mm
02:40 AM 42.3°F5.7°C 41.8°F5.4°C 98% 7.0 mph NNE11.3 kmh NNE 16.0 mph25.7 kmh 29.50 in999.0 mb 0.05 in1.3 mm 0.00 in0.0 mm 0.10 in2.5 mm
02:41 AM 42.1°F5.6°C 41.6°F5.3°C 98% 7.0 mph NNE11.3 kmh NNE 11.0 mph17.7 kmh 29.49 in998.6 mb 0.05 in1.3 mm 0.00 in0.0 mm 0.10 in2.5 mm
02:42 AM 42.1°F5.6°C 41.6°F5.3°C 98% 7.0 mph WNW11.3 kmh WNW 11.0 mph17.7 kmh 29.49 in998.6 mb 0.06 in1.5 mm 0.60 in15.2 mm 0.11 in2.8 mm
02:43 AM 42.1°F5.6°C 41.6°F5.3°C 98% 7.0 mph ENE11.3 kmh ENE 11.0 mph17.7 kmh 29.49 in998.6 mb 0.06 in1.5 mm 0.00 in0.0 mm 0.11 in2.8 mm
02:44 AM 42.1°F5.6°C 41.6°F5.3°C 98% 4.0 mph 6.4 kmh 11.0 mph17.7 kmh 29.49 in998.6 mb 0.06 in1.5 mm 0.00 in0.0 mm 0.11 in2.8 mm
02:45 AM 42.1°F5.6°C 41.6°F5.3°C 98% 9.0 mph WNW14.5 kmh WNW 11.0 mph17.7 kmh 29.49 in998.6 mb 0.06 in1.5 mm 0.00 in0.0 mm 0.11 in2.8 mm
02:46 AM 42.1°F5.6°C 41.6°F5.3°C 98% 6.0 mph NNE9.7 kmh NNE 11.0 mph17.7 kmh 29.49 in998.6 mb 0.07 in1.8 mm 0.60 in15.2 mm 0.12 in3.0 mm
02:47 AM 42.1°F5.6°C 41.6°F5.3°C 98% 6.0 mph NW9.7 kmh NW 11.0 mph17.7 kmh 29.49 in998.6 mb 0.07 in1.8 mm 0.00 in0.0 mm 0.12 in3.0 mm
02:48 AM 42.1°F5.6°C 41.6°F5.3°C 98% 8.0 mph NNE12.9 kmh NNE 9.0 mph14.5 kmh 29.49 in998.6 mb 0.07 in1.8 mm 0.00 in0.0 mm 0.12 in3.0 mm
02:49 AM 42.1°F5.6°C 41.6°F5.3°C 98% 3.0 mph WSW4.8 kmh WSW 9.0 mph14.5 kmh 29.48 in998.3 mb 0.07 in1.8 mm 0.00 in0.0 mm 0.12 in3.0 mm
02:50 AM 42.1°F5.6°C 41.6°F5.3°C 98% 9.0 mph 14.5 kmh 9.0 mph14.5 kmh 29.48 in998.3 mb 0.08 in2.0 mm 0.60 in15.2 mm 0.13 in3.3 mm
02:51 AM 42.1°F5.6°C 41.6°F5.3°C 98% 8.0 mph NE12.9 kmh NE 9.0 mph14.5 kmh 29.48 in998.3 mb 0.08 in2.0 mm 0.00 in0.0 mm 0.13 in3.3 mm
02:52 AM 42.1°F5.6°C 41.6°F5.3°C 98% 7.0 mph ENE11.3 kmh ENE 9.0 mph14.5 kmh 29.48 in998.3 mb 0.08 in2.0 mm 0.00 in0.0 mm 0.13 in3.3 mm
02:53 AM 41.9°F5.5°C 41.4°F5.2°C 98% 14.0 mph NE22.5 kmh NE 14.0 mph22.5 kmh 29.48 in998.3 mb 0.08 in2.0 mm 0.00 in0.0 mm 0.13 in3.3 mm
02:54 AM 41.9°F5.5°C 41.4°F5.2°C 98% 5.0 mph NE8.0 kmh NE 14.0 mph22.5 kmh 29.49 in998.6 mb 0.08 in2.0 mm 0.00 in0.0 mm 0.13 in3.3 mm
02:55 AM 41.9°F5.5°C 41.4°F5.2°C 98% 9.0 mph 14.5 kmh 14.0 mph22.5 kmh 29.48 in998.3 mb 0.08 in2.0 mm 0.00 in0.0 mm 0.13 in3.3 mm
02:56 AM 41.9°F5.5°C 41.4°F5.2°C 98% 10.0 mph NNE16.1 kmh NNE 14.0 mph22.5 kmh 29.48 in998.3 mb 0.08 in2.0 mm 0.00 in0.0 mm 0.13 in3.3 mm
02:57 AM 41.9°F5.5°C 41.4°F5.2°C 98% 11.0 mph NW17.7 kmh NW 14.0 mph22.5 kmh 29.47 in998.0 mb 0.08 in2.0 mm 0.00 in0.0 mm 0.13 in3.3 mm
02:58 AM 41.9°F5.5°C 41.4°F5.2°C 98% 7.0 mph NNW11.3 kmh NNW 14.0 mph22.5 kmh 29.47 in998.0 mb 0.08 in2.0 mm 0.00 in0.0 mm 0.13 in3.3 mm
02:59 AM 41.9°F5.5°C 41.4°F5.2°C 98% 3.0 mph NNE4.8 kmh NNE 14.0 mph22.5 kmh 29.47 in998.0 mb 0.08 in2.0 mm 0.00 in0.0 mm 0.13 in3.3 mm
03:00 AM 41.9°F5.5°C 41.4°F5.2°C 98% 5.0 mph 8.0 kmh 14.0 mph22.5 kmh 29.47 in998.0 mb 0.08 in2.0 mm 0.00 in0.0 mm 0.13 in3.3 mm
03:01 AM 41.9°F5.5°C 41.4°F5.2°C 98% 6.0 mph NE9.7 kmh NE 14.0 mph22.5 kmh 29.46 in997.6 mb 0.09 in2.3 mm 0.60 in15.2 mm 0.14 in3.6 mm
03:02 AM 41.9°F5.5°C 41.4°F5.2°C 98% 5.0 mph 8.0 kmh 15.0 mph24.1 kmh 29.46 in997.6 mb 0.09 in2.3 mm 0.00 in0.0 mm 0.14 in3.6 mm
03:04 AM 41.9°F5.5°C 41.4°F5.2°C 98% 7.0 mph 11.3 kmh 15.0 mph24.1 kmh 29.46 in997.6 mb 0.09 in2.3 mm 0.00 in0.0 mm 0.14 in3.6 mm
03:05 AM 41.7°F5.4°C 41.2°F5.1°C 98% 4.0 mph 6.4 kmh 15.0 mph24.1 kmh 29.46 in997.6 mb 0.09 in2.3 mm 0.00 in0.0 mm 0.14 in3.6 mm
03:06 AM 41.7°F5.4°C 41.2°F5.1°C 98% 5.0 mph NE8.0 kmh NE 15.0 mph24.1 kmh 29.46 in997.6 mb 0.09 in2.3 mm 0.00 in0.0 mm 0.14 in3.6 mm
03:07 AM 41.7°F5.4°C 41.2°F5.1°C 98% 5.0 mph NNE8.0 kmh NNE 15.0 mph24.1 kmh 29.46 in997.6 mb 0.00 in0.0 mm 0.00 in0.0 mm 0.14 in3.6 mm
03:08 AM 41.7°F5.4°C 41.2°F5.1°C 98% 5.0 mph NNE8.0 kmh NNE 15.0 mph24.1 kmh 29.46 in997.6 mb 0.00 in0.0 mm 0.00 in0.0 mm 0.14 in3.6 mm
03:09 AM 41.7°F5.4°C 41.2°F5.1°C 98% 4.0 mph 6.4 kmh 15.0 mph24.1 kmh 29.45 in997.3 mb 0.00 in0.0 mm 0.00 in0.0 mm 0.14 in3.6 mm
03:10 AM 41.7°F5.4°C 41.2°F5.1°C 98% 10.0 mph 16.1 kmh 15.0 mph24.1 kmh 29.45 in997.3 mb 0.00 in0.0 mm 0.00 in0.0 mm 0.14 in3.6 mm
03:11 AM 41.7°F5.4°C 41.2°F5.1°C 98% 5.0 mph 8.0 kmh 15.0 mph24.1 kmh 29.45 in997.3 mb 0.00 in0.0 mm 0.00 in0.0 mm 0.14 in3.6 mm
03:12 AM 41.5°F5.3°C 41.0°F5.0°C 98% 6.0 mph 9.7 kmh 10.0 mph16.1 kmh 29.45 in997.3 mb 0.00 in0.0 mm 0.00 in0.0 mm 0.14 in3.6 mm
03:13 AM 41.5°F5.3°C 41.0°F5.0°C 98% 12.0 mph 19.3 kmh 12.0 mph19.3 kmh 29.45 in997.3 mb 0.00 in0.0 mm 0.00 in0.0 mm 0.14 in3.6 mm
03:14 AM 41.5°F5.3°C 41.0°F5.0°C 98% 6.0 mph NNE9.7 kmh NNE 12.0 mph19.3 kmh 29.45 in997.3 mb 0.00 in0.0 mm 0.00 in0.0 mm 0.14 in3.6 mm
03:15 AM 41.5°F5.3°C 41.0°F5.0°C 98% 8.0 mph NNE12.9 kmh NNE 12.0 mph19.3 kmh 29.44 in997.0 mb 0.00 in0.0 mm 0.00 in0.0 mm 0.14 in3.6 mm
03:16 AM 41.5°F5.3°C 41.0°F5.0°C 98% 5.0 mph NNE8.0 kmh NNE 12.0 mph19.3 kmh 29.44 in997.0 mb 0.00 in0.0 mm 0.00 in0.0 mm 0.14 in3.6 mm
03:17 AM 41.5°F5.3°C 41.0°F5.0°C 98% 10.0 mph 16.1 kmh 13.0 mph20.9 kmh 29.44 in997.0 mb 0.00 in0.0 mm 0.00 in0.0 mm 0.14 in3.6 mm
03:18 AM 41.5°F5.3°C 41.0°F5.0°C 98% 11.0 mph NNE17.7 kmh NNE 13.0 mph20.9 kmh 29.44 in997.0 mb 0.00 in0.0 mm 0.00 in0.0 mm 0.14 in3.6 mm
03:19 AM 41.5°F5.3°C 41.0°F5.0°C 98% 12.0 mph 19.3 kmh 13.0 mph20.9 kmh 29.44 in997.0 mb 0.00 in0.0 mm 0.00 in0.0 mm 0.14 in3.6 mm
03:20 AM 41.5°F5.3°C 41.0°F5.0°C 98% 3.0 mph NNE4.8 kmh NNE 13.0 mph20.9 kmh 29.43 in996.6 mb 0.00 in0.0 mm 0.00 in0.0 mm 0.14 in3.6 mm
03:21 AM 41.5°F5.3°C 41.0°F5.0°C 98% 6.0 mph NNE9.7 kmh NNE 13.0 mph20.9 kmh 29.43 in996.6 mb 0.00 in0.0 mm 0.00 in0.0 mm 0.14 in3.6 mm
03:22 AM 41.5°F5.3°C 41.0°F5.0°C 98% 8.0 mph NNW12.9 kmh NNW 13.0 mph20.9 kmh 29.43 in996.6 mb 0.00 in0.0 mm 0.00 in0.0 mm 0.14 in3.6 mm
03:23 AM 41.5°F5.3°C 41.0°F5.0°C 98% 10.0 mph NNW16.1 kmh NNW 13.0 mph20.9 kmh 29.43 in996.6 mb 0.00 in0.0 mm 0.00 in0.0 mm 0.14 in3.6 mm
03:24 AM 41.5°F5.3°C 41.0°F5.0°C 98% 9.0 mph NE14.5 kmh NE 13.0 mph20.9 kmh 29.43 in996.6 mb 0.00 in0.0 mm 0.00 in0.0 mm 0.14 in3.6 mm
03:25 AM 41.5°F5.3°C 41.0°F5.0°C 98% 12.0 mph W19.3 kmh W 13.0 mph20.9 kmh 29.43 in996.6 mb 0.00 in0.0 mm 0.00 in0.0 mm 0.14 in3.6 mm
03:26 AM 41.5°F5.3°C 41.0°F5.0°C 98% 8.0 mph NE12.9 kmh NE 13.0 mph20.9 kmh 29.43 in996.6 mb 0.00 in0.0 mm 0.00 in0.0 mm 0.14 in3.6 mm
03:27 AM 41.5°F5.3°C 41.0°F5.0°C 98% 8.0 mph 12.9 kmh 12.0 mph19.3 kmh 29.42 in996.3 mb 0.00 in0.0 mm 0.00 in0.0 mm 0.14 in3.6 mm
03:28 AM 41.5°F5.3°C 41.0°F5.0°C 98% 6.0 mph 9.7 kmh 12.0 mph19.3 kmh 29.43 in996.6 mb 0.00 in0.0 mm 0.00 in0.0 mm 0.14 in3.6 mm
03:29 AM 41.5°F5.3°C 41.0°F5.0°C 98% 8.0 mph 12.9 kmh 12.0 mph19.3 kmh 29.43 in996.6 mb 0.00 in0.0 mm 0.00 in0.0 mm 0.14 in3.6 mm
03:30 AM 41.4°F5.2°C 40.9°F4.9°C 98% 9.0 mph NNE14.5 kmh NNE 12.0 mph19.3 kmh 29.42 in996.3 mb 0.00 in0.0 mm 0.00 in0.0 mm 0.14 in3.6 mm
03:31 AM 41.4°F5.2°C 40.9°F4.9°C 98% 4.0 mph NE6.4 kmh NE 12.0 mph19.3 kmh 29.42 in996.3 mb 0.00 in0.0 mm 0.00 in0.0 mm 0.14 in3.6 mm
03:32 AM 41.4°F5.2°C 40.9°F4.9°C 98% 9.0 mph NE14.5 kmh NE 12.0 mph19.3 kmh 29.42 in996.3 mb 0.00 in0.0 mm 0.00 in0.0 mm 0.14 in3.6 mm
03:33 AM 41.4°F5.2°C 40.9°F4.9°C 98% 7.0 mph NE11.3 kmh NE 12.0 mph19.3 kmh 29.42 in996.3 mb 0.00 in0.0 mm 0.00 in0.0 mm 0.14 in3.6 mm
03:34 AM 41.4°F5.2°C 40.9°F4.9°C 98% 12.0 mph 19.3 kmh 17.0 mph27.4 kmh 29.42 in996.3 mb 0.00 in0.0 mm 0.00 in0.0 mm 0.14 in3.6 mm
03:35 AM 41.4°F5.2°C 40.9°F4.9°C 98% 17.0 mph NW27.4 kmh NW 17.0 mph27.4 kmh 29.41 in995.9 mb 0.00 in0.0 mm 0.00 in0.0 mm 0.14 in3.6 mm
03:36 AM 41.4°F5.2°C 40.9°F4.9°C 98% 4.0 mph W6.4 kmh W 17.0 mph27.4 kmh 29.41 in995.9 mb 0.00 in0.0 mm 0.00 in0.0 mm 0.14 in3.6 mm
03:37 AM 41.4°F5.2°C 40.9°F4.9°C 98% 8.0 mph NNW12.9 kmh NNW 17.0 mph27.4 kmh 29.41 in995.9 mb 0.00 in0.0 mm 0.00 in0.0 mm 0.14 in3.6 mm
03:38 AM 41.4°F5.2°C 40.9°F4.9°C 98% 13.0 mph NW20.9 kmh NW 17.0 mph27.4 kmh 29.41 in995.9 mb 0.00 in0.0 mm 0.00 in0.0 mm 0.14 in3.6 mm
03:39 AM 41.4°F5.2°C 40.9°F4.9°C 98% 12.0 mph NNW19.3 kmh NNW 17.0 mph27.4 kmh 29.41 in995.9 mb 0.00 in0.0 mm 0.00 in0.0 mm 0.14 in3.6 mm
03:40 AM 41.4°F5.2°C 40.9°F4.9°C 98% 6.0 mph NE9.7 kmh NE 17.0 mph27.4 kmh 29.41 in995.9 mb 0.00 in0.0 mm 0.00 in0.0 mm 0.14 in3.6 mm
03:41 AM 41.4°F5.2°C 40.9°F4.9°C 98% 9.0 mph ENE14.5 kmh ENE 17.0 mph27.4 kmh 29.41 in995.9 mb 0.00 in0.0 mm 0.00 in0.0 mm 0.14 in3.6 mm
03:42 AM 41.4°F5.2°C 40.9°F4.9°C 98% 9.0 mph NNE14.5 kmh NNE 17.0 mph27.4 kmh 29.41 in995.9 mb 0.00 in0.0 mm 0.00 in0.0 mm 0.14 in3.6 mm
03:43 AM 41.4°F5.2°C 40.9°F4.9°C 98% 11.0 mph ENE17.7 kmh ENE 17.0 mph27.4 kmh 29.41 in995.9 mb 0.00 in0.0 mm 0.00 in0.0 mm 0.14 in3.6 mm
03:44 AM 41.4°F5.2°C 40.9°F4.9°C 98% 10.0 mph 16.1 kmh 17.0 mph27.4 kmh 29.41 in995.9 mb 0.00 in0.0 mm 0.00 in0.0 mm 0.14 in3.6 mm
03:45 AM 41.4°F5.2°C 40.9°F4.9°C 98% 18.0 mph NW29.0 kmh NW 18.0 mph29.0 kmh 29.41 in995.9 mb 0.00 in0.0 mm 0.00 in0.0 mm 0.14 in3.6 mm
03:46 AM 41.4°F5.2°C 40.9°F4.9°C 98% 8.0 mph NNE12.9 kmh NNE 18.0 mph29.0 kmh 29.40 in995.6 mb 0.00 in0.0 mm 0.00 in0.0 mm 0.14 in3.6 mm
03:47 AM 41.4°F5.2°C 40.9°F4.9°C 98% 8.0 mph NE12.9 kmh NE 18.0 mph29.0 kmh 29.40 in995.6 mb 0.00 in0.0 mm 0.00 in0.0 mm 0.14 in3.6 mm
03:48 AM 41.4°F5.2°C 40.9°F4.9°C 98% 5.0 mph NNW8.0 kmh NNW 18.0 mph29.0 kmh 29.40 in995.6 mb 0.00 in0.0 mm 0.00 in0.0 mm 0.14 in3.6 mm
03:49 AM 41.4°F5.2°C 40.9°F4.9°C 98% 7.0 mph NW11.3 kmh NW 18.0 mph29.0 kmh 29.41 in995.9 mb 0.00 in0.0 mm 0.00 in0.0 mm 0.14 in3.6 mm
03:50 AM 41.4°F5.2°C 40.9°F4.9°C 98% 6.0 mph NNW9.7 kmh NNW 18.0 mph29.0 kmh 29.41 in995.9 mb 0.00 in0.0 mm 0.00 in0.0 mm 0.14 in3.6 mm
03:51 AM 41.4°F5.2°C 40.9°F4.9°C 98% 4.0 mph NE6.4 kmh NE 18.0 mph29.0 kmh 29.41 in995.9 mb 0.00 in0.0 mm 0.00 in0.0 mm 0.14 in3.6 mm
03:52 AM 41.4°F5.2°C 40.9°F4.9°C 98% 7.0 mph NNW11.3 kmh NNW 18.0 mph29.0 kmh 29.40 in995.6 mb 0.00 in0.0 mm 0.00 in0.0 mm 0.14 in3.6 mm
03:53 AM 41.4°F5.2°C 40.9°F4.9°C 98% 11.0 mph E17.7 kmh E 18.0 mph29.0 kmh 29.40 in995.6 mb 0.00 in0.0 mm 0.00 in0.0 mm 0.14 in3.6 mm
03:54 AM 41.4°F5.2°C 40.9°F4.9°C 98% 6.0 mph 9.7 kmh 18.0 mph29.0 kmh 29.40 in995.6 mb 0.00 in0.0 mm 0.00 in0.0 mm 0.14 in3.6 mm
03:55 AM 41.4°F5.2°C 40.9°F4.9°C 98% 4.0 mph 6.4 kmh 13.0 mph20.9 kmh 29.40 in995.6 mb 0.00 in0.0 mm 0.00 in0.0 mm 0.14 in3.6 mm
03:56 AM 41.4°F5.2°C 40.9°F4.9°C 98% 8.0 mph E12.9 kmh E 13.0 mph20.9 kmh 29.40 in995.6 mb 0.00 in0.0 mm 0.00 in0.0 mm 0.14 in3.6 mm
03:57 AM 41.4°F5.2°C 40.9°F4.9°C 98% 7.0 mph 11.3 kmh 13.0 mph20.9 kmh 29.41 in995.9 mb 0.00 in0.0 mm 0.00 in0.0 mm 0.14 in3.6 mm
03:58 AM 41.4°F5.2°C 40.9°F4.9°C 98% 10.0 mph ENE16.1 kmh ENE 13.0 mph20.9 kmh 29.41 in995.9 mb 0.01 in0.3 mm 0.60 in15.2 mm 0.15 in3.8 mm
03:59 AM 41.4°F5.2°C 40.9°F4.9°C 98% 7.0 mph NW11.3 kmh NW 13.0 mph20.9 kmh 29.40 in995.6 mb 0.01 in0.3 mm 0.00 in0.0 mm 0.15 in3.8 mm
04:00 AM 41.4°F5.2°C 40.9°F4.9°C 98% 7.0 mph NNW11.3 kmh NNW 13.0 mph20.9 kmh 29.40 in995.6 mb 0.01 in0.3 mm 0.00 in0.0 mm 0.15 in3.8 mm
04:01 AM 41.4°F5.2°C 40.9°F4.9°C 98% 10.0 mph ESE16.1 kmh ESE 13.0 mph20.9 kmh 29.40 in995.6 mb 0.01 in0.3 mm 0.00 in0.0 mm 0.15 in3.8 mm
04:02 AM 41.4°F5.2°C 40.9°F4.9°C 98% 7.0 mph NE11.3 kmh NE 13.0 mph20.9 kmh 29.40 in995.6 mb 0.01 in0.3 mm 0.00 in0.0 mm 0.15 in3.8 mm
04:03 AM 41.4°F5.2°C 40.9°F4.9°C 98% 5.0 mph 8.0 kmh 13.0 mph20.9 kmh 29.40 in995.6 mb 0.01 in0.3 mm 0.00 in0.0 mm 0.15 in3.8 mm
04:04 AM 41.4°F5.2°C 40.9°F4.9°C 98% 6.0 mph SSW9.7 kmh SSW 13.0 mph20.9 kmh 29.40 in995.6 mb 0.01 in0.3 mm 0.00 in0.0 mm 0.15 in3.8 mm
04:05 AM 41.4°F5.2°C 40.9°F4.9°C 98% 7.0 mph NNW11.3 kmh NNW 13.0 mph20.9 kmh 29.41 in995.9 mb 0.01 in0.3 mm 0.00 in0.0 mm 0.15 in3.8 mm
04:06 AM 41.4°F5.2°C 40.9°F4.9°C 98% 3.0 mph NNE4.8 kmh NNE 10.0 mph16.1 kmh 29.41 in995.9 mb 0.01 in0.3 mm 0.00 in0.0 mm 0.15 in3.8 mm
04:07 AM 41.4°F5.2°C 40.9°F4.9°C 98% 7.0 mph NE11.3 kmh NE 10.0 mph16.1 kmh 29.41 in995.9 mb 0.00 in0.0 mm 0.00 in0.0 mm 0.15 in3.8 mm
04:08 AM 41.4°F5.2°C 40.9°F4.9°C 98% 3.0 mph NNW4.8 kmh NNW 10.0 mph16.1 kmh 29.41 in995.9 mb 0.00 in0.0 mm 0.00 in0.0 mm 0.15 in3.8 mm
04:09 AM 41.4°F5.2°C 40.9°F4.9°C 98% 7.0 mph NNW11.3 kmh NNW 10.0 mph16.1 kmh 29.42 in996.3 mb 0.00 in0.0 mm 0.00 in0.0 mm 0.15 in3.8 mm
04:10 AM 41.4°F5.2°C 40.9°F4.9°C 98% 8.0 mph NNE12.9 kmh NNE 10.0 mph16.1 kmh 29.42 in996.3 mb 0.00 in0.0 mm 0.00 in0.0 mm 0.15 in3.8 mm
04:11 AM 41.4°F5.2°C 40.9°F4.9°C 98% 8.0 mph NNE12.9 kmh NNE 8.0 mph12.9 kmh 29.42 in996.3 mb 0.00 in0.0 mm 0.00 in0.0 mm 0.15 in3.8 mm
04:12 AM 41.4°F5.2°C 40.9°F4.9°C 98% 4.0 mph NW6.4 kmh NW 8.0 mph12.9 kmh 29.42 in996.3 mb 0.00 in0.0 mm 0.00 in0.0 mm 0.15 in3.8 mm
04:13 AM 41.1°F5.1°C 40.6°F4.8°C 98% 4.0 mph W6.4 kmh W 8.0 mph12.9 kmh 29.41 in995.9 mb 0.00 in0.0 mm 0.00 in0.0 mm 0.15 in3.8 mm
04:14 AM 41.1°F5.1°C 40.6°F4.8°C 98% 4.0 mph NE6.4 kmh NE 8.0 mph12.9 kmh 29.41 in995.9 mb 0.00 in0.0 mm 0.00 in0.0 mm 0.15 in3.8 mm
04:15 AM 41.1°F5.1°C 40.6°F4.8°C 98% 7.0 mph NNE11.3 kmh NNE 10.0 mph16.1 kmh 29.41 in995.9 mb 0.00 in0.0 mm 0.00 in0.0 mm 0.15 in3.8 mm
04:16 AM 41.1°F5.1°C 40.6°F4.8°C 98% 6.0 mph NNW9.7 kmh NNW 10.0 mph16.1 kmh 29.41 in995.9 mb 0.00 in0.0 mm 0.00 in0.0 mm 0.15 in3.8 mm
04:17 AM 41.1°F5.1°C 40.6°F4.8°C 98% 2.0 mph NNW3.2 kmh NNW 10.0 mph16.1 kmh 29.41 in995.9 mb 0.00 in0.0 mm 0.00 in0.0 mm 0.15 in3.8 mm
04:18 AM 41.1°F5.1°C 40.6°F4.8°C 98% 4.0 mph NNE6.4 kmh NNE 13.0 mph20.9 kmh 29.42 in996.3 mb 0.01 in0.3 mm 0.60 in15.2 mm 0.16 in4.1 mm
04:19 AM 41.1°F5.1°C 40.6°F4.8°C 98% 9.0 mph NNE14.5 kmh NNE 13.0 mph20.9 kmh 29.41 in995.9 mb 0.01 in0.3 mm 0.00 in0.0 mm 0.16 in4.1 mm
04:20 AM 41.1°F5.1°C 40.6°F4.8°C 98% 6.0 mph NNE9.7 kmh NNE 13.0 mph20.9 kmh 29.41 in995.9 mb 0.01 in0.3 mm 0.00 in0.0 mm 0.16 in4.1 mm
04:21 AM 41.1°F5.1°C 40.6°F4.8°C 98% 4.0 mph NNE6.4 kmh NNE 13.0 mph20.9 kmh 29.41 in995.9 mb 0.01 in0.3 mm 0.00 in0.0 mm 0.16 in4.1 mm
04:22 AM 41.1°F5.1°C 40.6°F4.8°C 98% 10.0 mph NNE16.1 kmh NNE 13.0 mph20.9 kmh 29.41 in995.9 mb 0.01 in0.3 mm 0.00 in0.0 mm 0.16 in4.1 mm
04:23 AM 41.1°F5.1°C 40.6°F4.8°C 98% 5.0 mph ESE8.0 kmh ESE 13.0 mph20.9 kmh 29.41 in995.9 mb 0.01 in0.3 mm 0.00 in0.0 mm 0.16 in4.1 mm
04:24 AM 41.1°F5.1°C 40.6°F4.8°C 98% 5.0 mph 8.0 kmh 13.0 mph20.9 kmh 29.41 in995.9 mb 0.01 in0.3 mm 0.00 in0.0 mm 0.16 in4.1 mm
04:25 AM 41.1°F5.1°C 40.6°F4.8°C 98% 7.0 mph NNE11.3 kmh NNE 13.0 mph20.9 kmh 29.40 in995.6 mb 0.01 in0.3 mm 0.00 in0.0 mm 0.16 in4.1 mm
04:26 AM 41.1°F5.1°C 40.6°F4.8°C 98% 3.0 mph WNW4.8 kmh WNW 13.0 mph20.9 kmh 29.40 in995.6 mb 0.01 in0.3 mm 0.00 in0.0 mm 0.16 in4.1 mm
04:27 AM 41.1°F5.1°C 40.6°F4.8°C 98% 10.0 mph NNE16.1 kmh NNE 16.0 mph25.7 kmh 29.40 in995.6 mb 0.01 in0.3 mm 0.00 in0.0 mm 0.16 in4.1 mm
04:28 AM 41.1°F5.1°C 40.6°F4.8°C 98% 9.0 mph NNE14.5 kmh NNE 17.0 mph27.4 kmh 29.40 in995.6 mb 0.01 in0.3 mm 0.00 in0.0 mm 0.16 in4.1 mm
04:29 AM 41.1°F5.1°C 40.6°F4.8°C 98% 4.0 mph NNE6.4 kmh NNE 17.0 mph27.4 kmh 29.40 in995.6 mb 0.01 in0.3 mm 0.00 in0.0 mm 0.16 in4.1 mm
04:30 AM 41.1°F5.1°C 40.6°F4.8°C 98% 4.0 mph WNW6.4 kmh WNW 17.0 mph27.4 kmh 29.40 in995.6 mb 0.01 in0.3 mm 0.00 in0.0 mm 0.16 in4.1 mm
04:31 AM 41.1°F5.1°C 40.6°F4.8°C 98% 8.0 mph NNW12.9 kmh NNW 17.0 mph27.4 kmh 29.40 in995.6 mb 0.02 in0.5 mm 0.60 in15.2 mm 0.17 in4.3 mm
04:32 AM 41.1°F5.1°C 40.6°F4.8°C 98% 4.0 mph NNE6.4 kmh NNE 17.0 mph27.4 kmh 29.40 in995.6 mb 0.02 in0.5 mm 0.00 in0.0 mm 0.17 in4.3 mm
04:33 AM 41.1°F5.1°C 40.6°F4.8°C 98% 3.0 mph NNE4.8 kmh NNE 17.0 mph27.4 kmh 29.40 in995.6 mb 0.02 in0.5 mm 0.00 in0.0 mm 0.17 in4.3 mm
04:34 AM 41.1°F5.1°C 40.6°F4.8°C 98% 6.0 mph NNE9.7 kmh NNE 17.0 mph27.4 kmh 29.40 in995.6 mb 0.02 in0.5 mm 0.00 in0.0 mm 0.17 in4.3 mm
04:35 AM 41.1°F5.1°C 40.6°F4.8°C 98% 6.0 mph NE9.7 kmh NE 17.0 mph27.4 kmh 29.40 in995.6 mb 0.02 in0.5 mm 0.00 in0.0 mm 0.17 in4.3 mm
04:36 AM 41.1°F5.1°C 40.6°F4.8°C 98% 6.0 mph SW9.7 kmh SW 17.0 mph27.4 kmh 29.39 in995.3 mb 0.02 in0.5 mm 0.00 in0.0 mm 0.17 in4.3 mm
04:37 AM 41.1°F5.1°C 40.6°F4.8°C 98% 6.0 mph NNW9.7 kmh NNW 17.0 mph27.4 kmh 29.39 in995.3 mb 0.02 in0.5 mm 0.00 in0.0 mm 0.17 in4.3 mm
04:38 AM 41.1°F5.1°C 40.6°F4.8°C 98% 13.0 mph NNE20.9 kmh NNE 14.0 mph22.5 kmh 29.39 in995.3 mb 0.02 in0.5 mm 0.00 in0.0 mm 0.17 in4.3 mm
04:39 AM 41.1°F5.1°C 40.6°F4.8°C 98% 8.0 mph NNE12.9 kmh NNE 14.0 mph22.5 kmh 29.38 in994.9 mb 0.02 in0.5 mm 0.00 in0.0 mm 0.17 in4.3 mm
04:40 AM 41.1°F5.1°C 40.6°F4.8°C 98% 1.0 mph NNW1.6 kmh NNW 14.0 mph22.5 kmh 29.38 in994.9 mb 0.02 in0.5 mm 0.00 in0.0 mm 0.17 in4.3 mm
04:41 AM 41.1°F5.1°C 40.6°F4.8°C 98% 5.0 mph 8.0 kmh 14.0 mph22.5 kmh 29.38 in994.9 mb 0.02 in0.5 mm 0.00 in0.0 mm 0.17 in4.3 mm
04:42 AM 41.1°F5.1°C 40.6°F4.8°C 98% 3.0 mph NNE4.8 kmh NNE 14.0 mph22.5 kmh 29.38 in994.9 mb 0.02 in0.5 mm 0.00 in0.0 mm 0.17 in4.3 mm
04:43 AM 41.1°F5.1°C 40.6°F4.8°C 98% 12.0 mph NW19.3 kmh NW 14.0 mph22.5 kmh 29.37 in994.6 mb 0.03 in0.8 mm 0.60 in15.2 mm 0.18 in4.6 mm
04:44 AM 41.1°F5.1°C 40.6°F4.8°C 98% 5.0 mph NNE8.0 kmh NNE 14.0 mph22.5 kmh 29.37 in994.6 mb 0.03 in0.8 mm 0.00 in0.0 mm 0.18 in4.6 mm
04:45 AM 41.1°F5.1°C 40.6°F4.8°C 98% 8.0 mph NNE12.9 kmh NNE 14.0 mph22.5 kmh 29.37 in994.6 mb 0.03 in0.8 mm 0.00 in0.0 mm 0.18 in4.6 mm
04:46 AM 41.1°F5.1°C 40.6°F4.8°C 98% 8.0 mph NE12.9 kmh NE 14.0 mph22.5 kmh 29.37 in994.6 mb 0.03 in0.8 mm 0.00 in0.0 mm 0.18 in4.6 mm
04:47 AM 41.1°F5.1°C 40.6°F4.8°C 98% 4.0 mph SE6.4 kmh SE 13.0 mph20.9 kmh 29.37 in994.6 mb 0.03 in0.8 mm 0.00 in0.0 mm 0.18 in4.6 mm
04:48 AM 41.1°F5.1°C 40.6°F4.8°C 98% 16.0 mph NNW25.7 kmh NNW 16.0 mph25.7 kmh 29.37 in994.6 mb 0.03 in0.8 mm 0.00 in0.0 mm 0.18 in4.6 mm
04:49 AM 41.1°F5.1°C 40.6°F4.8°C 98% 6.0 mph NNE9.7 kmh NNE 16.0 mph25.7 kmh 29.37 in994.6 mb 0.03 in0.8 mm 0.00 in0.0 mm 0.18 in4.6 mm
04:50 AM 41.1°F5.1°C 40.6°F4.8°C 98% 6.0 mph 9.7 kmh 16.0 mph25.7 kmh 29.37 in994.6 mb 0.03 in0.8 mm 0.00 in0.0 mm 0.18 in4.6 mm
04:51 AM 41.1°F5.1°C 40.6°F4.8°C 98% 6.0 mph NNE9.7 kmh NNE 16.0 mph25.7 kmh 29.37 in994.6 mb 0.03 in0.8 mm 0.00 in0.0 mm 0.18 in4.6 mm
04:52 AM 41.1°F5.1°C 40.6°F4.8°C 98% 6.0 mph NE9.7 kmh NE 16.0 mph25.7 kmh 29.37 in994.6 mb 0.03 in0.8 mm 0.00 in0.0 mm 0.18 in4.6 mm
04:53 AM 41.1°F5.1°C 40.6°F4.8°C 98% 7.0 mph NNW11.3 kmh NNW 16.0 mph25.7 kmh 29.37 in994.6 mb 0.03 in0.8 mm 0.00 in0.0 mm 0.18 in4.6 mm
04:54 AM 41.1°F5.1°C 40.6°F4.8°C 98% 8.0 mph 12.9 kmh 16.0 mph25.7 kmh 29.36 in994.2 mb 0.03 in0.8 mm 0.00 in0.0 mm 0.18 in4.6 mm
04:55 AM 41.1°F5.1°C 40.6°F4.8°C 98% 3.0 mph NNE4.8 kmh NNE 16.0 mph25.7 kmh 29.37 in994.6 mb 0.04 in1.0 mm 0.60 in15.2 mm 0.19 in4.8 mm
04:56 AM 41.1°F5.1°C 40.6°F4.8°C 98% 8.0 mph 12.9 kmh 16.0 mph25.7 kmh 29.37 in994.6 mb 0.04 in1.0 mm 0.00 in0.0 mm 0.19 in4.8 mm
04:57 AM 41.1°F5.1°C 40.6°F4.8°C 98% 7.0 mph NNE11.3 kmh NNE 16.0 mph25.7 kmh 29.36 in994.2 mb 0.04 in1.0 mm 0.00 in0.0 mm 0.19 in4.8 mm
04:58 AM 41.1°F5.1°C 40.6°F4.8°C 98% 7.0 mph WNW11.3 kmh WNW 16.0 mph25.7 kmh 29.36 in994.2 mb 0.04 in1.0 mm 0.00 in0.0 mm 0.19 in4.8 mm
04:59 AM 40.9°F4.9°C 40.4°F4.7°C 98% 6.0 mph NW9.7 kmh NW 11.0 mph17.7 kmh 29.36 in994.2 mb 0.04 in1.0 mm 0.00 in0.0 mm 0.19 in4.8 mm
05:00 AM 40.9°F4.9°C 40.4°F4.7°C 98% 8.0 mph NW12.9 kmh NW 11.0 mph17.7 kmh 29.36 in994.2 mb 0.04 in1.0 mm 0.00 in0.0 mm 0.19 in4.8 mm
05:01 AM 40.9°F4.9°C 40.4°F4.7°C 98% 6.0 mph WNW9.7 kmh WNW 11.0 mph17.7 kmh 29.36 in994.2 mb 0.05 in1.3 mm 0.60 in15.2 mm 0.20 in5.1 mm
05:02 AM 40.9°F4.9°C 40.4°F4.7°C 98% 10.0 mph 16.1 kmh 12.0 mph19.3 kmh 29.36 in994.2 mb 0.05 in1.3 mm 0.00 in0.0 mm 0.20 in5.1 mm
05:03 AM 40.9°F4.9°C 40.4°F4.7°C 98% 8.0 mph 12.9 kmh 12.0 mph19.3 kmh 29.35 in993.9 mb 0.05 in1.3 mm 0.00 in0.0 mm 0.20 in5.1 mm
05:04 AM 40.9°F4.9°C 40.4°F4.7°C 98% 10.0 mph 16.1 kmh 12.0 mph19.3 kmh 29.35 in993.9 mb 0.06 in1.5 mm 0.60 in15.2 mm 0.21 in5.3 mm
05:05 AM 40.9°F4.9°C 40.4°F4.7°C 98% 7.0 mph W11.3 kmh W 12.0 mph19.3 kmh 29.35 in993.9 mb 0.06 in1.5 mm 0.00 in0.0 mm 0.21 in5.3 mm
05:06 AM 40.9°F4.9°C 40.4°F4.7°C 98% 11.0 mph NE17.7 kmh NE 13.0 mph20.9 kmh 29.35 in993.9 mb 0.06 in1.5 mm 0.00 in0.0 mm 0.21 in5.3 mm
05:07 AM 40.9°F4.9°C 40.4°F4.7°C 98% 9.0 mph NNE14.5 kmh NNE 13.0 mph20.9 kmh 29.34 in993.6 mb 0.00 in0.0 mm 0.00 in0.0 mm 0.21 in5.3 mm
05:08 AM 40.9°F4.9°C 40.4°F4.7°C 98% 6.0 mph NE9.7 kmh NE 13.0 mph20.9 kmh 29.35 in993.9 mb 0.01 in0.3 mm 0.60 in15.2 mm 0.22 in5.6 mm
05:09 AM 40.9°F4.9°C 40.4°F4.7°C 98% 5.0 mph NNE8.0 kmh NNE 13.0 mph20.9 kmh 29.34 in993.6 mb 0.01 in0.3 mm 0.00 in0.0 mm 0.22 in5.6 mm
05:10 AM 40.9°F4.9°C 40.4°F4.7°C 98% 6.0 mph NNE9.7 kmh NNE 13.0 mph20.9 kmh 29.34 in993.6 mb 0.01 in0.3 mm 0.00 in0.0 mm 0.22 in5.6 mm
05:11 AM 40.9°F4.9°C 40.4°F4.7°C 98% 14.0 mph 22.5 kmh 14.0 mph22.5 kmh 29.34 in993.6 mb 0.02 in0.5 mm 0.60 in15.2 mm 0.23 in5.8 mm
05:12 AM 40.9°F4.9°C 40.4°F4.7°C 98% 10.0 mph 16.1 kmh 16.0 mph25.7 kmh 29.34 in993.6 mb 0.02 in0.5 mm 0.00 in0.0 mm 0.23 in5.8 mm
05:13 AM 40.9°F4.9°C 40.4°F4.7°C 98% 10.0 mph 16.1 kmh 16.0 mph25.7 kmh 29.34 in993.6 mb 0.02 in0.5 mm 0.00 in0.0 mm 0.23 in5.8 mm
05:14 AM 40.7°F4.8°C 40.2°F4.6°C 98% 9.0 mph NNE14.5 kmh NNE 16.0 mph25.7 kmh 29.34 in993.6 mb 0.03 in0.8 mm 0.60 in15.2 mm 0.24 in6.1 mm
05:15 AM 40.7°F4.8°C 40.2°F4.6°C 98% 11.0 mph 17.7 kmh 17.0 mph27.4 kmh 29.33 in993.2 mb 0.03 in0.8 mm 0.00 in0.0 mm 0.24 in6.1 mm
05:16 AM 40.7°F4.8°C 40.2°F4.6°C 98% 12.0 mph NW19.3 kmh NW 17.0 mph27.4 kmh 29.33 in993.2 mb 0.04 in1.0 mm 0.60 in15.2 mm 0.25 in6.4 mm
05:17 AM 40.7°F4.8°C 40.2°F4.6°C 98% 6.0 mph NE9.7 kmh NE 17.0 mph27.4 kmh 29.33 in993.2 mb 0.04 in1.0 mm 0.00 in0.0 mm 0.25 in6.4 mm
05:18 AM 40.7°F4.8°C 40.2°F4.6°C 98% 7.0 mph NE11.3 kmh NE 17.0 mph27.4 kmh 29.33 in993.2 mb 0.04 in1.0 mm 0.00 in0.0 mm 0.25 in6.4 mm
05:19 AM 40.7°F4.8°C 40.2°F4.6°C 98% 4.0 mph NW6.4 kmh NW 17.0 mph27.4 kmh 29.33 in993.2 mb 0.04 in1.0 mm 0.00 in0.0 mm 0.25 in6.4 mm
05:20 AM 40.7°F4.8°C 40.2°F4.6°C 98% 9.0 mph NNE14.5 kmh NNE 17.0 mph27.4 kmh 29.33 in993.2 mb 0.04 in1.0 mm 0.00 in0.0 mm 0.25 in6.4 mm
05:21 AM 40.7°F4.8°C 40.2°F4.6°C 98% 11.0 mph WNW17.7 kmh WNW 17.0 mph27.4 kmh 29.32 in992.9 mb 0.05 in1.3 mm 0.60 in15.2 mm 0.26 in6.6 mm
05:22 AM 40.7°F4.8°C 40.2°F4.6°C 98% 9.0 mph NNE14.5 kmh NNE 17.0 mph27.4 kmh 29.32 in992.9 mb 0.05 in1.3 mm 0.00 in0.0 mm 0.26 in6.6 mm
05:23 AM 40.7°F4.8°C 40.2°F4.6°C 98% 9.0 mph NNE14.5 kmh NNE 17.0 mph27.4 kmh 29.32 in992.9 mb 0.05 in1.3 mm 0.00 in0.0 mm 0.26 in6.6 mm
05:24 AM 40.7°F4.8°C 40.2°F4.6°C 98% 18.0 mph 29.0 kmh 18.0 mph29.0 kmh 29.32 in992.9 mb 0.05 in1.3 mm 0.00 in0.0 mm 0.26 in6.6 mm
05:25 AM 40.7°F4.8°C 40.2°F4.6°C 98% 10.0 mph 16.1 kmh 18.0 mph29.0 kmh 29.32 in992.9 mb 0.06 in1.5 mm 0.60 in15.2 mm 0.27 in6.9 mm
05:26 AM 40.7°F4.8°C 40.2°F4.6°C 98% 6.0 mph WNW9.7 kmh WNW 18.0 mph29.0 kmh 29.32 in992.9 mb 0.06 in1.5 mm 0.00 in0.0 mm 0.27 in6.9 mm
05:27 AM 40.7°F4.8°C 40.2°F4.6°C 98% 13.0 mph 20.9 kmh 18.0 mph29.0 kmh 29.32 in992.9 mb 0.06 in1.5 mm 0.00 in0.0 mm 0.27 in6.9 mm
05:28 AM 40.7°F4.8°C 40.2°F4.6°C 98% 8.0 mph ESE12.9 kmh ESE 18.0 mph29.0 kmh 29.32 in992.9 mb 0.06 in1.5 mm 0.00 in0.0 mm 0.27 in6.9 mm
05:29 AM 40.7°F4.8°C 40.2°F4.6°C 98% 12.0 mph 19.3 kmh 18.0 mph29.0 kmh 29.32 in992.9 mb 0.07 in1.8 mm 0.60 in15.2 mm 0.28 in7.1 mm
05:30 AM 40.7°F4.8°C 40.2°F4.6°C 98% 8.0 mph 12.9 kmh 18.0 mph29.0 kmh 29.32 in992.9 mb 0.07 in1.8 mm 0.00 in0.0 mm 0.28 in7.1 mm
05:31 AM 40.5°F4.7°C 40.0°F4.4°C 98% 11.0 mph NNW17.7 kmh NNW 18.0 mph29.0 kmh 29.31 in992.6 mb 0.07 in1.8 mm 0.00 in0.0 mm 0.28 in7.1 mm
05:32 AM 40.5°F4.7°C 40.0°F4.4°C 98% 8.0 mph 12.9 kmh 18.0 mph29.0 kmh 29.31 in992.6 mb 0.07 in1.8 mm 0.00 in0.0 mm 0.28 in7.1 mm
05:33 AM 40.5°F4.7°C 40.0°F4.4°C 98% 6.0 mph W9.7 kmh W 18.0 mph29.0 kmh 29.32 in992.9 mb 0.08 in2.0 mm 0.60 in15.2 mm 0.29 in7.4 mm
05:34 AM 40.5°F4.7°C 40.0°F4.4°C 98% 7.0 mph NE11.3 kmh NE 18.0 mph29.0 kmh 29.31 in992.6 mb 0.08 in2.0 mm 0.00 in0.0 mm 0.29 in7.4 mm
05:35 AM 40.5°F4.7°C 40.0°F4.4°C 98% 5.0 mph NE8.0 kmh NE 13.0 mph20.9 kmh 29.31 in992.6 mb 0.08 in2.0 mm 0.00 in0.0 mm 0.29 in7.4 mm
05:36 AM 40.5°F4.7°C 40.0°F4.4°C 98% 9.0 mph NNW14.5 kmh NNW 13.0 mph20.9 kmh 29.31 in992.6 mb 0.08 in2.0 mm 0.00 in0.0 mm 0.29 in7.4 mm
05:37 AM 40.5°F4.7°C 40.0°F4.4°C 98% 9.0 mph ENE14.5 kmh ENE 13.0 mph20.9 kmh 29.32 in992.9 mb 0.08 in2.0 mm 0.00 in0.0 mm 0.29 in7.4 mm
05:38 AM 40.5°F4.7°C 40.0°F4.4°C 98% 16.0 mph NNE25.7 kmh NNE 16.0 mph25.7 kmh 29.32 in992.9 mb 0.09 in2.3 mm 0.60 in15.2 mm 0.30 in7.6 mm
05:39 AM 40.5°F4.7°C 40.0°F4.4°C 98% 6.0 mph E9.7 kmh E 16.0 mph25.7 kmh 29.31 in992.6 mb 0.09 in2.3 mm 0.00 in0.0 mm 0.30 in7.6 mm
05:40 AM 40.5°F4.7°C 40.0°F4.4°C 98% 8.0 mph NNE12.9 kmh NNE 16.0 mph25.7 kmh 29.31 in992.6 mb 0.09 in2.3 mm 0.00 in0.0 mm 0.30 in7.6 mm
05:41 AM 40.5°F4.7°C 40.0°F4.4°C 98% 12.0 mph NE19.3 kmh NE 16.0 mph25.7 kmh 29.31 in992.6 mb 0.10 in2.5 mm 0.60 in15.2 mm 0.31 in7.9 mm
05:42 AM 40.5°F4.7°C 40.0°F4.4°C 98% 5.0 mph NNE8.0 kmh NNE 16.0 mph25.7 kmh 29.31 in992.6 mb 0.10 in2.5 mm 0.00 in0.0 mm 0.31 in7.9 mm
05:43 AM 40.5°F4.7°C 40.0°F4.4°C 98% 9.0 mph NE14.5 kmh NE 16.0 mph25.7 kmh 29.31 in992.6 mb 0.10 in2.5 mm 0.00 in0.0 mm 0.31 in7.9 mm
05:44 AM 40.5°F4.7°C 40.0°F4.4°C 98% 8.0 mph W12.9 kmh W 16.0 mph25.7 kmh 29.31 in992.6 mb 0.10 in2.5 mm 0.00 in0.0 mm 0.31 in7.9 mm
05:45 AM 40.5°F4.7°C 40.0°F4.4°C 98% 10.0 mph NNE16.1 kmh NNE 16.0 mph25.7 kmh 29.31 in992.6 mb 0.10 in2.5 mm 0.00 in0.0 mm 0.31 in7.9 mm
05:46 AM 40.5°F4.7°C 40.0°F4.4°C 98% 11.0 mph 17.7 kmh 16.0 mph25.7 kmh 29.30 in992.2 mb 0.11 in2.8 mm 0.60 in15.2 mm 0.32 in8.1 mm
05:47 AM 40.5°F4.7°C 40.0°F4.4°C 98% 5.0 mph NNE8.0 kmh NNE 16.0 mph25.7 kmh 29.31 in992.6 mb 0.11 in2.8 mm 0.00 in0.0 mm 0.32 in8.1 mm
05:48 AM 40.5°F4.7°C 40.0°F4.4°C 98% 12.0 mph NE19.3 kmh NE 15.0 mph24.1 kmh 29.31 in992.6 mb 0.12 in3.0 mm 0.60 in15.2 mm 0.33 in8.4 mm
05:49 AM 40.5°F4.7°C 40.0°F4.4°C 98% 7.0 mph NNW11.3 kmh NNW 15.0 mph24.1 kmh 29.30 in992.2 mb 0.12 in3.0 mm 0.00 in0.0 mm 0.33 in8.4 mm
05:50 AM 40.5°F4.7°C 40.0°F4.4°C 98% 13.0 mph NW20.9 kmh NW 15.0 mph24.1 kmh 29.30 in992.2 mb 0.12 in3.0 mm 0.00 in0.0 mm 0.33 in8.4 mm
05:51 AM 40.5°F4.7°C 40.0°F4.4°C 98% 11.0 mph WNW17.7 kmh WNW 15.0 mph24.1 kmh 29.30 in992.2 mb 0.12 in3.0 mm 0.00 in0.0 mm 0.33 in8.4 mm
05:52 AM 40.5°F4.7°C 40.0°F4.4°C 98% 11.0 mph WNW17.7 kmh WNW 15.0 mph24.1 kmh 29.30 in992.2 mb 0.12 in3.0 mm 0.00 in0.0 mm 0.33 in8.4 mm
05:53 AM 40.5°F4.7°C 40.0°F4.4°C 98% 10.0 mph NNW16.1 kmh NNW 16.0 mph25.7 kmh 29.31 in992.6 mb 0.13 in3.3 mm 0.60 in15.2 mm 0.34 in8.6 mm
05:54 AM 40.5°F4.7°C 40.0°F4.4°C 98% 10.0 mph NE16.1 kmh NE 16.0 mph25.7 kmh 29.31 in992.6 mb 0.13 in3.3 mm 0.00 in0.0 mm 0.34 in8.6 mm
05:55 AM 40.5°F4.7°C 40.0°F4.4°C 98% 9.0 mph NNW14.5 kmh NNW 16.0 mph25.7 kmh 29.31 in992.6 mb 0.13 in3.3 mm 0.00 in0.0 mm 0.34 in8.6 mm
05:56 AM 40.5°F4.7°C 40.0°F4.4°C 98% 5.0 mph NNE8.0 kmh NNE 16.0 mph25.7 kmh 29.31 in992.6 mb 0.14 in3.6 mm 0.60 in15.2 mm 0.35 in8.9 mm
05:57 AM 40.5°F4.7°C 40.0°F4.4°C 98% 6.0 mph NNE9.7 kmh NNE 16.0 mph25.7 kmh 29.30 in992.2 mb 0.14 in3.6 mm 0.00 in0.0 mm 0.35 in8.9 mm
05:58 AM 40.5°F4.7°C 40.0°F4.4°C 98% 7.0 mph 11.3 kmh 16.0 mph25.7 kmh 29.30 in992.2 mb 0.14 in3.6 mm 0.00 in0.0 mm 0.35 in8.9 mm
05:59 AM 40.5°F4.7°C 40.0°F4.4°C 98% 9.0 mph NNE14.5 kmh NNE 19.0 mph30.6 kmh 29.30 in992.2 mb 0.14 in3.6 mm 0.00 in0.0 mm 0.35 in8.9 mm
06:00 AM 40.5°F4.7°C 40.0°F4.4°C 98% 6.0 mph 9.7 kmh 19.0 mph30.6 kmh 29.30 in992.2 mb 0.14 in3.6 mm 0.00 in0.0 mm 0.35 in8.9 mm
06:01 AM 40.5°F4.7°C 40.0°F4.4°C 98% 8.0 mph NE12.9 kmh NE 19.0 mph30.6 kmh 29.30 in992.2 mb 0.14 in3.6 mm 0.00 in0.0 mm 0.35 in8.9 mm
06:02 AM 40.5°F4.7°C 40.0°F4.4°C 98% 10.0 mph NNE16.1 kmh NNE 19.0 mph30.6 kmh 29.30 in992.2 mb 0.14 in3.6 mm 0.00 in0.0 mm 0.35 in8.9 mm
06:03 AM 40.5°F4.7°C 40.0°F4.4°C 98% 9.0 mph NNW14.5 kmh NNW 19.0 mph30.6 kmh 29.30 in992.2 mb 0.15 in3.8 mm 0.60 in15.2 mm 0.36 in9.1 mm
06:04 AM 40.5°F4.7°C 40.0°F4.4°C 98% 9.0 mph NNE14.5 kmh NNE 19.0 mph30.6 kmh 29.30 in992.2 mb 0.15 in3.8 mm 0.00 in0.0 mm 0.36 in9.1 mm
06:05 AM 40.5°F4.7°C 40.0°F4.4°C 98% 7.0 mph NNE11.3 kmh NNE 19.0 mph30.6 kmh 29.30 in992.2 mb 0.15 in3.8 mm 0.00 in0.0 mm 0.36 in9.1 mm
06:06 AM 40.5°F4.7°C 40.0°F4.4°C 98% 10.0 mph W16.1 kmh W 19.0 mph30.6 kmh 29.30 in992.2 mb 0.15 in3.8 mm 0.00 in0.0 mm 0.36 in9.1 mm
06:07 AM 40.5°F4.7°C 40.0°F4.4°C 98% 6.0 mph NNE9.7 kmh NNE 19.0 mph30.6 kmh 29.30 in992.2 mb 0.00 in0.0 mm 0.00 in0.0 mm 0.36 in9.1 mm
06:08 AM 40.5°F4.7°C 40.0°F4.4°C 98% 6.0 mph NNE9.7 kmh NNE 19.0 mph30.6 kmh 29.29 in991.9 mb 0.00 in0.0 mm 0.00 in0.0 mm 0.36 in9.1 mm
06:09 AM 40.5°F4.7°C 40.0°F4.4°C 98% 8.0 mph NNE12.9 kmh NNE 16.0 mph25.7 kmh 29.30 in992.2 mb 0.00 in0.0 mm 0.00 in0.0 mm 0.36 in9.1 mm
06:10 AM 40.5°F4.7°C 40.0°F4.4°C 98% 7.0 mph E11.3 kmh E 16.0 mph25.7 kmh 29.29 in991.9 mb 0.01 in0.3 mm 0.60 in15.2 mm 0.37 in9.4 mm
06:11 AM 40.5°F4.7°C 40.0°F4.4°C 98% 6.0 mph 9.7 kmh 16.0 mph25.7 kmh 29.29 in991.9 mb 0.01 in0.3 mm 0.00 in0.0 mm 0.37 in9.4 mm
06:12 AM 40.5°F4.7°C 40.0°F4.4°C 98% 6.0 mph NNE9.7 kmh NNE 16.0 mph25.7 kmh 29.29 in991.9 mb 0.01 in0.3 mm 0.00 in0.0 mm 0.37 in9.4 mm
06:13 AM 40.5°F4.7°C 40.0°F4.4°C 98% 15.0 mph NNE24.1 kmh NNE 16.0 mph25.7 kmh 29.29 in991.9 mb 0.01 in0.3 mm 0.00 in0.0 mm 0.37 in9.4 mm
06:14 AM 40.5°F4.7°C 40.0°F4.4°C 98% 15.0 mph NNE24.1 kmh NNE 16.0 mph25.7 kmh 29.29 in991.9 mb 0.01 in0.3 mm 0.00 in0.0 mm 0.37 in9.4 mm
06:15 AM 40.5°F4.7°C 40.0°F4.4°C 98% 8.0 mph 12.9 kmh 16.0 mph25.7 kmh 29.29 in991.9 mb 0.01 in0.3 mm 0.00 in0.0 mm 0.37 in9.4 mm
06:16 AM 40.5°F4.7°C 40.0°F4.4°C 98% 4.0 mph NE6.4 kmh NE 16.0 mph25.7 kmh 29.29 in991.9 mb 0.01 in0.3 mm 0.00 in0.0 mm 0.37 in9.4 mm
06:17 AM 40.5°F4.7°C 40.0°F4.4°C 98% 11.0 mph NNE17.7 kmh NNE 16.0 mph25.7 kmh 29.28 in991.5 mb 0.01 in0.3 mm 0.00 in0.0 mm 0.37 in9.4 mm
06:18 AM 40.5°F4.7°C 40.0°F4.4°C 98% 9.0 mph ENE14.5 kmh ENE 16.0 mph25.7 kmh 29.28 in991.5 mb 0.01 in0.3 mm 0.00 in0.0 mm 0.37 in9.4 mm
06:19 AM 40.5°F4.7°C 40.0°F4.4°C 98% 11.0 mph ENE17.7 kmh ENE 16.0 mph25.7 kmh 29.29 in991.9 mb 0.01 in0.3 mm 0.00 in0.0 mm 0.37 in9.4 mm
06:20 AM 40.2°F4.6°C 39.7°F4.3°C 98% 6.0 mph NW9.7 kmh NW 15.0 mph24.1 kmh 29.29 in991.9 mb 0.02 in0.5 mm 0.60 in15.2 mm 0.38 in9.7 mm
06:21 AM 40.2°F4.6°C 39.7°F4.3°C 98% 8.0 mph NNW12.9 kmh NNW 15.0 mph24.1 kmh 29.29 in991.9 mb 0.02 in0.5 mm 0.00 in0.0 mm 0.38 in9.7 mm
06:22 AM 40.2°F4.6°C 39.7°F4.3°C 98% 9.0 mph 14.5 kmh 15.0 mph24.1 kmh 29.29 in991.9 mb 0.02 in0.5 mm 0.00 in0.0 mm 0.38 in9.7 mm
06:23 AM 40.2°F4.6°C 39.7°F4.3°C 98% 8.0 mph 12.9 kmh 15.0 mph24.1 kmh 29.28 in991.5 mb 0.02 in0.5 mm 0.00 in0.0 mm 0.38 in9.7 mm
06:24 AM 40.2°F4.6°C 39.7°F4.3°C 98% 6.0 mph NE9.7 kmh NE 16.0 mph25.7 kmh 29.28 in991.5 mb 0.02 in0.5 mm 0.00 in0.0 mm 0.38 in9.7 mm
06:25 AM 40.2°F4.6°C 39.7°F4.3°C 98% 12.0 mph NNE19.3 kmh NNE 16.0 mph25.7 kmh 29.28 in991.5 mb 0.02 in0.5 mm 0.00 in0.0 mm 0.38 in9.7 mm
06:26 AM 40.2°F4.6°C 39.7°F4.3°C 98% 9.0 mph NNE14.5 kmh NNE 16.0 mph25.7 kmh 29.28 in991.5 mb 0.02 in0.5 mm 0.00 in0.0 mm 0.38 in9.7 mm
06:27 AM 40.2°F4.6°C 39.7°F4.3°C 98% 5.0 mph 8.0 kmh 16.0 mph25.7 kmh 29.28 in991.5 mb 0.02 in0.5 mm 0.00 in0.0 mm 0.38 in9.7 mm
06:28 AM 40.2°F4.6°C 39.7°F4.3°C 98% 15.0 mph NNW24.1 kmh NNW 16.0 mph25.7 kmh 29.28 in991.5 mb 0.02 in0.5 mm 0.00 in0.0 mm 0.38 in9.7 mm
06:29 AM 40.2°F4.6°C 39.7°F4.3°C 98% 7.0 mph 11.3 kmh 16.0 mph25.7 kmh 29.28 in991.5 mb 0.02 in0.5 mm 0.00 in0.0 mm 0.38 in9.7 mm
06:30 AM 40.2°F4.6°C 39.7°F4.3°C 98% 5.0 mph NW8.0 kmh NW 16.0 mph25.7 kmh 29.28 in991.5 mb 0.02 in0.5 mm 0.00 in0.0 mm 0.38 in9.7 mm
06:31 AM 40.2°F4.6°C 39.7°F4.3°C 98% 9.0 mph 14.5 kmh 16.0 mph25.7 kmh 29.27 in991.2 mb 0.02 in0.5 mm 0.00 in0.0 mm 0.38 in9.7 mm
06:32 AM 40.2°F4.6°C 39.7°F4.3°C 98% 5.0 mph NNE8.0 kmh NNE 16.0 mph25.7 kmh 29.27 in991.2 mb 0.02 in0.5 mm 0.00 in0.0 mm 0.38 in9.7 mm
06:33 AM 40.2°F4.6°C 39.7°F4.3°C 98% 10.0 mph NE16.1 kmh NE 16.0 mph25.7 kmh 29.27 in991.2 mb 0.02 in0.5 mm 0.00 in0.0 mm 0.38 in9.7 mm
06:34 AM 40.2°F4.6°C 39.7°F4.3°C 98% 13.0 mph NNW20.9 kmh NNW 15.0 mph24.1 kmh 29.27 in991.2 mb 0.02 in0.5 mm 0.00 in0.0 mm 0.38 in9.7 mm
06:35 AM 40.2°F4.6°C 39.7°F4.3°C 98% 12.0 mph NNE19.3 kmh NNE 15.0 mph24.1 kmh 29.27 in991.2 mb 0.02 in0.5 mm 0.00 in0.0 mm 0.38 in9.7 mm
06:36 AM 40.2°F4.6°C 39.7°F4.3°C 98% 10.0 mph NNW16.1 kmh NNW 17.0 mph27.4 kmh 29.26 in990.9 mb 0.02 in0.5 mm 0.00 in0.0 mm 0.38 in9.7 mm
06:37 AM 40.2°F4.6°C 39.7°F4.3°C 98% 8.0 mph NNE12.9 kmh NNE 17.0 mph27.4 kmh 29.26 in990.9 mb 0.02 in0.5 mm 0.00 in0.0 mm 0.38 in9.7 mm
06:38 AM 40.2°F4.6°C 39.7°F4.3°C 98% 6.0 mph NE9.7 kmh NE 17.0 mph27.4 kmh 29.26 in990.9 mb 0.02 in0.5 mm 0.00 in0.0 mm 0.38 in9.7 mm
06:39 AM 40.2°F4.6°C 39.7°F4.3°C 98% 6.0 mph 9.7 kmh 17.0 mph27.4 kmh 29.27 in991.2 mb 0.02 in0.5 mm 0.00 in0.0 mm 0.38 in9.7 mm
06:40 AM 40.2°F4.6°C 39.7°F4.3°C 98% 8.0 mph NNE12.9 kmh NNE 17.0 mph27.4 kmh 29.27 in991.2 mb 0.02 in0.5 mm 0.00 in0.0 mm 0.38 in9.7 mm
06:41 AM 40.2°F4.6°C 39.7°F4.3°C 98% 13.0 mph 20.9 kmh 17.0 mph27.4 kmh 29.26 in990.9 mb 0.02 in0.5 mm 0.00 in0.0 mm 0.38 in9.7 mm
06:42 AM 40.0°F4.4°C 39.5°F4.2°C 98% 17.0 mph NNE27.4 kmh NNE 17.0 mph27.4 kmh 29.26 in990.9 mb 0.02 in0.5 mm 0.00 in0.0 mm 0.38 in9.7 mm
06:43 AM 40.0°F4.4°C 39.5°F4.2°C 98% 6.0 mph NNE9.7 kmh NNE 17.0 mph27.4 kmh 29.26 in990.9 mb 0.03 in0.8 mm 0.60 in15.2 mm 0.39 in9.9 mm
06:44 AM 40.0°F4.4°C 39.5°F4.2°C 98% 12.0 mph 19.3 kmh 17.0 mph27.4 kmh 29.26 in990.9 mb 0.03 in0.8 mm 0.00 in0.0 mm 0.39 in9.9 mm
06:45 AM 40.0°F4.4°C 39.5°F4.2°C 98% 10.0 mph NW16.1 kmh NW 17.0 mph27.4 kmh 29.26 in990.9 mb 0.03 in0.8 mm 0.00 in0.0 mm 0.39 in9.9 mm
06:46 AM 40.0°F4.4°C 39.5°F4.2°C 98% 9.0 mph NNW14.5 kmh NNW 17.0 mph27.4 kmh 29.25 in990.5 mb 0.03 in0.8 mm 0.00 in0.0 mm 0.39 in9.9 mm
06:47 AM 40.0°F4.4°C 39.5°F4.2°C 98% 16.0 mph SE25.7 kmh SE 18.0 mph29.0 kmh 29.27 in991.2 mb 0.03 in0.8 mm 0.00 in0.0 mm 0.39 in9.9 mm
06:48 AM 40.0°F4.4°C 39.5°F4.2°C 98% 12.0 mph NNE19.3 kmh NNE 18.0 mph29.0 kmh 29.27 in991.2 mb 0.03 in0.8 mm 0.00 in0.0 mm 0.39 in9.9 mm
06:49 AM 40.0°F4.4°C 39.5°F4.2°C 98% 10.0 mph NNW16.1 kmh NNW 18.0 mph29.0 kmh 29.27 in991.2 mb 0.03 in0.8 mm 0.00 in0.0 mm 0.39 in9.9 mm
06:50 AM 40.0°F4.4°C 39.5°F4.2°C 98% 12.0 mph NW19.3 kmh NW 18.0 mph29.0 kmh 29.27 in991.2 mb 0.03 in0.8 mm 0.00 in0.0 mm 0.39 in9.9 mm
06:51 AM 40.0°F4.4°C 39.5°F4.2°C 98% 13.0 mph NW20.9 kmh NW 18.0 mph29.0 kmh 29.26 in990.9 mb 0.03 in0.8 mm 0.00 in0.0 mm 0.39 in9.9 mm
06:52 AM 40.0°F4.4°C 39.5°F4.2°C 98% 11.0 mph NE17.7 kmh NE 18.0 mph29.0 kmh 29.26 in990.9 mb 0.03 in0.8 mm 0.00 in0.0 mm 0.39 in9.9 mm
06:53 AM 40.0°F4.4°C 39.5°F4.2°C 98% 7.0 mph WNW11.3 kmh WNW 18.0 mph29.0 kmh 29.26 in990.9 mb 0.03 in0.8 mm 0.00 in0.0 mm 0.39 in9.9 mm
06:54 AM 40.0°F4.4°C 39.5°F4.2°C 98% 9.0 mph NW14.5 kmh NW 18.0 mph29.0 kmh 29.26 in990.9 mb 0.03 in0.8 mm 0.00 in0.0 mm 0.39 in9.9 mm
06:55 AM 40.0°F4.4°C 39.5°F4.2°C 98% 12.0 mph NNE19.3 kmh NNE 18.0 mph29.0 kmh 29.26 in990.9 mb 0.03 in0.8 mm 0.00 in0.0 mm 0.39 in9.9 mm
06:56 AM 40.0°F4.4°C 39.5°F4.2°C 98% 12.0 mph 19.3 kmh 18.0 mph29.0 kmh 29.26 in990.9 mb 0.03 in0.8 mm 0.00 in0.0 mm 0.39 in9.9 mm
06:57 AM 40.0°F4.4°C 39.5°F4.2°C 98% 13.0 mph SW20.9 kmh SW 19.0 mph30.6 kmh 29.25 in990.5 mb 0.03 in0.8 mm 0.00 in0.0 mm 0.39 in9.9 mm
06:58 AM 40.0°F4.4°C 39.5°F4.2°C 98% 14.0 mph NW22.5 kmh NW 19.0 mph30.6 kmh 29.25 in990.5 mb 0.03 in0.8 mm 0.00 in0.0 mm 0.39 in9.9 mm
06:59 AM 40.0°F4.4°C 39.5°F4.2°C 98% 8.0 mph 12.9 kmh 19.0 mph30.6 kmh 29.26 in990.9 mb 0.03 in0.8 mm 0.00 in0.0 mm 0.39 in9.9 mm
07:00 AM 40.0°F4.4°C 39.5°F4.2°C 98% 17.0 mph NNW27.4 kmh NNW 19.0 mph30.6 kmh 29.25 in990.5 mb 0.03 in0.8 mm 0.00 in0.0 mm 0.39 in9.9 mm
07:01 AM 40.0°F4.4°C 39.5°F4.2°C 98% 12.0 mph NE19.3 kmh NE 19.0 mph30.6 kmh 29.25 in990.5 mb 0.03 in0.8 mm 0.00 in0.0 mm 0.39 in9.9 mm
07:02 AM 40.0°F4.4°C 39.5°F4.2°C 98% 8.0 mph NNE12.9 kmh NNE 19.0 mph30.6 kmh 29.25 in990.5 mb 0.03 in0.8 mm 0.00 in0.0 mm 0.39 in9.9 mm
07:03 AM 40.0°F4.4°C 39.5°F4.2°C 98% 8.0 mph NNW12.9 kmh NNW 19.0 mph30.6 kmh 29.25 in990.5 mb 0.03 in0.8 mm 0.00 in0.0 mm 0.39 in9.9 mm
07:04 AM 40.0°F4.4°C 39.5°F4.2°C 98% 8.0 mph NNE12.9 kmh NNE 19.0 mph30.6 kmh 29.25 in990.5 mb 0.03 in0.8 mm 0.00 in0.0 mm 0.39 in9.9 mm
07:05 AM 40.0°F4.4°C 39.5°F4.2°C 98% 7.0 mph NW11.3 kmh NW 19.0 mph30.6 kmh 29.26 in990.9 mb 0.03 in0.8 mm 0.00 in0.0 mm 0.39 in9.9 mm
07:06 AM 40.0°F4.4°C 39.5°F4.2°C 98% 8.0 mph NNE12.9 kmh NNE 19.0 mph30.6 kmh 29.26 in990.9 mb 0.00 in0.0 mm 0.00 in0.0 mm 0.39 in9.9 mm
07:07 AM 40.0°F4.4°C 39.5°F4.2°C 98% 10.0 mph W16.1 kmh W 18.0 mph29.0 kmh 29.25 in990.5 mb 0.00 in0.0 mm 0.00 in0.0 mm 0.39 in9.9 mm
07:08 AM 40.0°F4.4°C 39.5°F4.2°C 98% 10.0 mph NNE16.1 kmh NNE 18.0 mph29.0 kmh 29.25 in990.5 mb 0.00 in0.0 mm 0.00 in0.0 mm 0.39 in9.9 mm
07:09 AM 40.0°F4.4°C 39.5°F4.2°C 98% 10.0 mph NNE16.1 kmh NNE 17.0 mph27.4 kmh 29.25 in990.5 mb 0.00 in0.0 mm 0.00 in0.0 mm 0.39 in9.9 mm
07:10 AM 40.0°F4.4°C 39.5°F4.2°C 98% 10.0 mph NNW16.1 kmh NNW 17.0 mph27.4 kmh 29.25 in990.5 mb 0.00 in0.0 mm 0.00 in0.0 mm 0.39 in9.9 mm
07:11 AM 40.0°F4.4°C 39.5°F4.2°C 98% 22.0 mph 35.4 kmh 22.0 mph35.4 kmh 29.24 in990.2 mb 0.00 in0.0 mm 0.00 in0.0 mm 0.39 in9.9 mm
07:12 AM 40.0°F4.4°C 39.5°F4.2°C 98% 8.0 mph NNE12.9 kmh NNE 22.0 mph35.4 kmh 29.24 in990.2 mb 0.00 in0.0 mm 0.00 in0.0 mm 0.39 in9.9 mm
07:13 AM 40.0°F4.4°C 39.5°F4.2°C 98% 6.0 mph NNW9.7 kmh NNW 22.0 mph35.4 kmh 29.25 in990.5 mb 0.00 in0.0 mm 0.00 in0.0 mm 0.39 in9.9 mm
07:14 AM 40.0°F4.4°C 39.5°F4.2°C 98% 16.0 mph NNW25.7 kmh NNW 22.0 mph35.4 kmh 29.25 in990.5 mb 0.00 in0.0 mm 0.00 in0.0 mm 0.39 in9.9 mm
07:15 AM 40.0°F4.4°C 39.5°F4.2°C 98% 6.0 mph NNE9.7 kmh NNE 22.0 mph35.4 kmh 29.25 in990.5 mb 0.00 in0.0 mm 0.00 in0.0 mm 0.39 in9.9 mm
07:16 AM 40.0°F4.4°C 39.5°F4.2°C 98% 10.0 mph NNE16.1 kmh NNE 22.0 mph35.4 kmh 29.25 in990.5 mb 0.00 in0.0 mm 0.00 in0.0 mm 0.39 in9.9 mm
07:17 AM 40.0°F4.4°C 39.5°F4.2°C 98% 6.0 mph NNW9.7 kmh NNW 22.0 mph35.4 kmh 29.25 in990.5 mb 0.00 in0.0 mm 0.00 in0.0 mm 0.39 in9.9 mm
07:18 AM 40.0°F4.4°C 39.5°F4.2°C 98% 5.0 mph 8.0 kmh 22.0 mph35.4 kmh 29.25 in990.5 mb 0.00 in0.0 mm 0.00 in0.0 mm 0.39 in9.9 mm
07:19 AM 40.0°F4.4°C 39.5°F4.2°C 98% 4.0 mph 6.4 kmh 22.0 mph35.4 kmh 29.25 in990.5 mb 0.00 in0.0 mm 0.00 in0.0 mm 0.39 in9.9 mm
07:20 AM 40.0°F4.4°C 39.5°F4.2°C 98% 5.0 mph NNW8.0 kmh NNW 22.0 mph35.4 kmh 29.25 in990.5 mb 0.00 in0.0 mm 0.00 in0.0 mm 0.39 in9.9 mm
07:21 AM 40.0°F4.4°C 39.5°F4.2°C 98% 5.0 mph NW8.0 kmh NW 16.0 mph25.7 kmh 29.25 in990.5 mb 0.00 in0.0 mm 0.00 in0.0 mm 0.39 in9.9 mm
07:22 AM 40.0°F4.4°C 39.5°F4.2°C 98% 12.0 mph NNW19.3 kmh NNW 16.0 mph25.7 kmh 29.25 in990.5 mb 0.00 in0.0 mm 0.00 in0.0 mm 0.39 in9.9 mm
07:23 AM 40.0°F4.4°C 39.5°F4.2°C 98% 13.0 mph NNE20.9 kmh NNE 16.0 mph25.7 kmh 29.24 in990.2 mb 0.00 in0.0 mm 0.00 in0.0 mm 0.39 in9.9 mm
07:24 AM 40.0°F4.4°C 39.5°F4.2°C 98% 14.0 mph NNW22.5 kmh NNW 16.0 mph25.7 kmh 29.24 in990.2 mb 0.00 in0.0 mm 0.00 in0.0 mm 0.39 in9.9 mm
07:25 AM 40.0°F4.4°C 39.5°F4.2°C 98% 4.0 mph NNW6.4 kmh NNW 16.0 mph25.7 kmh 29.25 in990.5 mb 0.00 in0.0 mm 0.00 in0.0 mm 0.39 in9.9 mm
07:26 AM 40.0°F4.4°C 39.5°F4.2°C 98% 8.0 mph NNW12.9 kmh NNW 15.0 mph24.1 kmh 29.25 in990.5 mb 0.00 in0.0 mm 0.00 in0.0 mm 0.39 in9.9 mm
07:27 AM 40.0°F4.4°C 39.5°F4.2°C 98% 16.0 mph WNW25.7 kmh WNW 16.0 mph25.7 kmh 29.25 in990.5 mb 0.00 in0.0 mm 0.00 in0.0 mm 0.39 in9.9 mm
07:28 AM 40.0°F4.4°C 39.5°F4.2°C 98% 8.0 mph NE12.9 kmh NE 16.0 mph25.7 kmh 29.25 in990.5 mb 0.00 in0.0 mm 0.00 in0.0 mm 0.39 in9.9 mm
07:29 AM 40.0°F4.4°C 39.5°F4.2°C 98% 17.0 mph 27.4 kmh 17.0 mph27.4 kmh 29.24 in990.2 mb 0.00 in0.0 mm 0.00 in0.0 mm 0.39 in9.9 mm
07:30 AM 40.0°F4.4°C 39.5°F4.2°C 98% 9.0 mph NNW14.5 kmh NNW 17.0 mph27.4 kmh 29.24 in990.2 mb 0.00 in0.0 mm 0.00 in0.0 mm 0.39 in9.9 mm
07:31 AM 40.0°F4.4°C 39.5°F4.2°C 98% 4.0 mph WSW6.4 kmh WSW 17.0 mph27.4 kmh 29.25 in990.5 mb 0.00 in0.0 mm 0.00 in0.0 mm 0.39 in9.9 mm
07:32 AM 40.0°F4.4°C 39.5°F4.2°C 98% 18.0 mph 29.0 kmh 18.0 mph29.0 kmh 29.25 in990.5 mb 0.01 in0.3 mm 0.60 in15.2 mm 0.40 in10.2 mm
07:33 AM 40.0°F4.4°C 39.5°F4.2°C 98% 12.0 mph NNE19.3 kmh NNE 18.0 mph29.0 kmh 29.24 in990.2 mb 0.01 in0.3 mm 0.00 in0.0 mm 0.40 in10.2 mm
07:34 AM 40.0°F4.4°C 39.5°F4.2°C 98% 8.0 mph NNW12.9 kmh NNW 18.0 mph29.0 kmh 29.24 in990.2 mb 0.01 in0.3 mm 0.00 in0.0 mm 0.40 in10.2 mm
07:35 AM 40.0°F4.4°C 39.5°F4.2°C 98% 7.0 mph NE11.3 kmh NE 18.0 mph29.0 kmh 29.25 in990.5 mb 0.01 in0.3 mm 0.00 in0.0 mm 0.40 in10.2 mm
07:36 AM 40.0°F4.4°C 39.5°F4.2°C 98% 16.0 mph NW25.7 kmh NW 18.0 mph29.0 kmh 29.25 in990.5 mb 0.01 in0.3 mm 0.00 in0.0 mm 0.40 in10.2 mm
07:37 AM 40.0°F4.4°C 39.5°F4.2°C 98% 7.0 mph 11.3 kmh 18.0 mph29.0 kmh 29.25 in990.5 mb 0.01 in0.3 mm 0.00 in0.0 mm 0.40 in10.2 mm
07:38 AM 40.0°F4.4°C 39.5°F4.2°C 98% 15.0 mph 24.1 kmh 18.0 mph29.0 kmh 29.25 in990.5 mb 0.01 in0.3 mm 0.00 in0.0 mm 0.40 in10.2 mm
07:39 AM 40.0°F4.4°C 39.5°F4.2°C 98% 7.0 mph 11.3 kmh 18.0 mph29.0 kmh 29.24 in990.2 mb 0.01 in0.3 mm 0.00 in0.0 mm 0.40 in10.2 mm
07:40 AM 40.0°F4.4°C 39.5°F4.2°C 98% 14.0 mph 22.5 kmh 18.0 mph29.0 kmh 29.24 in990.2 mb 0.01 in0.3 mm 0.00 in0.0 mm 0.40 in10.2 mm
07:41 AM 40.0°F4.4°C 39.5°F4.2°C 98% 6.0 mph NNW9.7 kmh NNW 18.0 mph29.0 kmh 29.24 in990.2 mb 0.01 in0.3 mm 0.00 in0.0 mm 0.40 in10.2 mm
07:42 AM 40.0°F4.4°C 39.5°F4.2°C 98% 11.0 mph NNW17.7 kmh NNW 18.0 mph29.0 kmh 29.24 in990.2 mb 0.01 in0.3 mm 0.00 in0.0 mm 0.40 in10.2 mm
07:43 AM 40.0°F4.4°C 39.5°F4.2°C 98% 13.0 mph 20.9 kmh 18.0 mph29.0 kmh 29.24 in990.2 mb 0.02 in0.5 mm 0.60 in15.2 mm 0.41 in10.4 mm
07:44 AM 40.0°F4.4°C 39.5°F4.2°C 98% 11.0 mph 17.7 kmh 18.0 mph29.0 kmh 29.24 in990.2 mb 0.02 in0.5 mm 0.00 in0.0 mm 0.41 in10.4 mm
07:45 AM 40.0°F4.4°C 39.5°F4.2°C 98% 9.0 mph ENE14.5 kmh ENE 18.0 mph29.0 kmh 29.24 in990.2 mb 0.02 in0.5 mm 0.00 in0.0 mm 0.41 in10.4 mm
07:46 AM 40.0°F4.4°C 39.5°F4.2°C 98% 6.0 mph NNE9.7 kmh NNE 18.0 mph29.0 kmh 29.24 in990.2 mb 0.02 in0.5 mm 0.00 in0.0 mm 0.41 in10.4 mm
07:47 AM 40.0°F4.4°C 39.5°F4.2°C 98% 8.0 mph NNE12.9 kmh NNE 15.0 mph24.1 kmh 29.24 in990.2 mb 0.02 in0.5 mm 0.00 in0.0 mm 0.41 in10.4 mm
07:48 AM 40.0°F4.4°C 39.5°F4.2°C 98% 9.0 mph NNW14.5 kmh NNW 15.0 mph24.1 kmh 29.24 in990.2 mb 0.02 in0.5 mm 0.00 in0.0 mm 0.41 in10.4 mm
07:49 AM 40.0°F4.4°C 39.5°F4.2°C 98% 9.0 mph NW14.5 kmh NW 14.0 mph22.5 kmh 29.24 in990.2 mb 0.02 in0.5 mm 0.00 in0.0 mm 0.41 in10.4 mm
07:50 AM 40.0°F4.4°C 39.5°F4.2°C 98% 7.0 mph 11.3 kmh 15.0 mph24.1 kmh 29.24 in990.2 mb 0.02 in0.5 mm 0.00 in0.0 mm 0.41 in10.4 mm
07:51 AM 40.0°F4.4°C 39.5°F4.2°C 98% 14.0 mph NE22.5 kmh NE 15.0 mph24.1 kmh 29.24 in990.2 mb 0.03 in0.8 mm 0.60 in15.2 mm 0.42 in10.7 mm
07:52 AM 40.0°F4.4°C 39.5°F4.2°C 98% 7.0 mph NNW11.3 kmh NNW 15.0 mph24.1 kmh 29.24 in990.2 mb 0.03 in0.8 mm 0.00 in0.0 mm 0.42 in10.7 mm
07:53 AM 40.0°F4.4°C 39.5°F4.2°C 98% 6.0 mph E9.7 kmh E 20.0 mph32.2 kmh 29.24 in990.2 mb 0.03 in0.8 mm 0.00 in0.0 mm 0.42 in10.7 mm
07:54 AM 40.0°F4.4°C 39.5°F4.2°C 98% 9.0 mph NE14.5 kmh NE 20.0 mph32.2 kmh 29.24 in990.2 mb 0.03 in0.8 mm 0.00 in0.0 mm 0.42 in10.7 mm
07:55 AM 40.0°F4.4°C 39.5°F4.2°C 98% 10.0 mph NNE16.1 kmh NNE 20.0 mph32.2 kmh 29.25 in990.5 mb 0.03 in0.8 mm 0.00 in0.0 mm 0.42 in10.7 mm
07:56 AM 40.0°F4.4°C 39.5°F4.2°C 98% 10.0 mph NW16.1 kmh NW 20.0 mph32.2 kmh 29.25 in990.5 mb 0.03 in0.8 mm 0.00 in0.0 mm 0.42 in10.7 mm
07:57 AM 40.0°F4.4°C 39.5°F4.2°C 98% 7.0 mph NNW11.3 kmh NNW 20.0 mph32.2 kmh 29.24 in990.2 mb 0.04 in1.0 mm 0.60 in15.2 mm 0.43 in10.9 mm
07:58 AM 40.0°F4.4°C 39.5°F4.2°C 98% 7.0 mph NNW11.3 kmh NNW 20.0 mph32.2 kmh 29.24 in990.2 mb 0.04 in1.0 mm 0.00 in0.0 mm 0.43 in10.9 mm
07:59 AM 40.0°F4.4°C 39.5°F4.2°C 98% 11.0 mph 17.7 kmh 20.0 mph32.2 kmh 29.24 in990.2 mb 0.04 in1.0 mm 0.00 in0.0 mm 0.43 in10.9 mm
08:00 AM 40.0°F4.4°C 39.5°F4.2°C 98% 11.0 mph NNW17.7 kmh NNW 20.0 mph32.2 kmh 29.24 in990.2 mb 0.04 in1.0 mm 0.00 in0.0 mm 0.43 in10.9 mm
08:01 AM 40.0°F4.4°C 39.5°F4.2°C 98% 6.0 mph WNW9.7 kmh WNW 20.0 mph32.2 kmh 29.24 in990.2 mb 0.04 in1.0 mm 0.00 in0.0 mm 0.43 in10.9 mm
08:02 AM 40.0°F4.4°C 39.5°F4.2°C 98% 8.0 mph NE12.9 kmh NE 20.0 mph32.2 kmh 29.24 in990.2 mb 0.05 in1.3 mm 0.60 in15.2 mm 0.44 in11.2 mm
08:03 AM 40.0°F4.4°C 39.5°F4.2°C 98% 12.0 mph NW19.3 kmh NW 18.0 mph29.0 kmh 29.24 in990.2 mb 0.05 in1.3 mm 0.00 in0.0 mm 0.44 in11.2 mm
08:04 AM 40.0°F4.4°C 39.5°F4.2°C 98% 9.0 mph NE14.5 kmh NE 18.0 mph29.0 kmh 29.24 in990.2 mb 0.05 in1.3 mm 0.00 in0.0 mm 0.44 in11.2 mm
08:05 AM 40.0°F4.4°C 39.5°F4.2°C 98% 11.0 mph 17.7 kmh 14.0 mph22.5 kmh 29.24 in990.2 mb 0.06 in1.5 mm 0.60 in15.2 mm 0.45 in11.4 mm
08:06 AM 40.0°F4.4°C 39.5°F4.2°C 98% 6.0 mph NE9.7 kmh NE 14.0 mph22.5 kmh 29.24 in990.2 mb 0.06 in1.5 mm 0.00 in0.0 mm 0.45 in11.4 mm
08:07 AM 40.0°F4.4°C 39.5°F4.2°C 98% 17.0 mph NNW27.4 kmh NNW 17.0 mph27.4 kmh 29.24 in990.2 mb 0.00 in0.0 mm 0.00 in0.0 mm 0.45 in11.4 mm
08:08 AM 40.0°F4.4°C 39.5°F4.2°C 98% 13.0 mph NNE20.9 kmh NNE 17.0 mph27.4 kmh 29.23 in989.8 mb 0.00 in0.0 mm 0.00 in0.0 mm 0.45 in11.4 mm
08:09 AM 40.0°F4.4°C 39.5°F4.2°C 98% 9.0 mph NNE14.5 kmh NNE 17.0 mph27.4 kmh 29.23 in989.8 mb 0.00 in0.0 mm 0.00 in0.0 mm 0.45 in11.4 mm
08:10 AM 40.0°F4.4°C 39.5°F4.2°C 98% 8.0 mph NNE12.9 kmh NNE 17.0 mph27.4 kmh 29.23 in989.8 mb 0.00 in0.0 mm 0.00 in0.0 mm 0.45 in11.4 mm
08:11 AM 40.0°F4.4°C 39.5°F4.2°C 98% 9.0 mph 14.5 kmh 17.0 mph27.4 kmh 29.23 in989.8 mb 0.00 in0.0 mm 0.00 in0.0 mm 0.45 in11.4 mm
08:12 AM 40.0°F4.4°C 39.5°F4.2°C 98% 11.0 mph NNE17.7 kmh NNE 17.0 mph27.4 kmh 29.23 in989.8 mb 0.01 in0.3 mm 0.60 in15.2 mm 0.46 in11.7 mm
08:13 AM 40.0°F4.4°C 39.5°F4.2°C 98% 8.0 mph NNE12.9 kmh NNE 17.0 mph27.4 kmh 29.23 in989.8 mb 0.01 in0.3 mm 0.00 in0.0 mm 0.46 in11.7 mm
08:14 AM 40.0°F4.4°C 39.5°F4.2°C 98% 8.0 mph 12.9 kmh 22.0 mph35.4 kmh 29.22 in989.5 mb 0.01 in0.3 mm 0.00 in0.0 mm 0.46 in11.7 mm
08:15 AM 40.0°F4.4°C 39.5°F4.2°C 98% 8.0 mph E12.9 kmh E 22.0 mph35.4 kmh 29.23 in989.8 mb 0.01 in0.3 mm 0.00 in0.0 mm 0.46 in11.7 mm
08:16 AM 40.0°F4.4°C 39.5°F4.2°C 98% 10.0 mph NNW16.1 kmh NNW 22.0 mph35.4 kmh 29.23 in989.8 mb 0.01 in0.3 mm 0.00 in0.0 mm 0.46 in11.7 mm
08:17 AM 40.0°F4.4°C 39.5°F4.2°C 98% 7.0 mph NNE11.3 kmh NNE 22.0 mph35.4 kmh 29.22 in989.5 mb 0.01 in0.3 mm 0.00 in0.0 mm 0.46 in11.7 mm
08:18 AM 40.0°F4.4°C 39.5°F4.2°C 98% 11.0 mph NNE17.7 kmh NNE 22.0 mph35.4 kmh 29.22 in989.5 mb 0.01 in0.3 mm 0.00 in0.0 mm 0.46 in11.7 mm
08:19 AM 40.0°F4.4°C 39.5°F4.2°C 98% 11.0 mph 17.7 kmh 22.0 mph35.4 kmh 29.22 in989.5 mb 0.02 in0.5 mm 0.60 in15.2 mm 0.47 in11.9 mm
08:20 AM 40.0°F4.4°C 39.5°F4.2°C 98% 10.0 mph NNE16.1 kmh NNE 22.0 mph35.4 kmh 29.22 in989.5 mb 0.02 in0.5 mm 0.00 in0.0 mm 0.47 in11.9 mm
08:21 AM 40.0°F4.4°C 39.5°F4.2°C 98% 16.0 mph NNW25.7 kmh NNW 22.0 mph35.4 kmh 29.22 in989.5 mb 0.02 in0.5 mm 0.00 in0.0 mm 0.47 in11.9 mm
08:22 AM 40.2°F4.6°C 39.7°F4.3°C 98% 12.0 mph NNE19.3 kmh NNE 22.0 mph35.4 kmh 29.22 in989.5 mb 0.02 in0.5 mm 0.00 in0.0 mm 0.47 in11.9 mm
08:23 AM 40.2°F4.6°C 39.7°F4.3°C 98% 10.0 mph NE16.1 kmh NE 22.0 mph35.4 kmh 29.22 in989.5 mb 0.02 in0.5 mm 0.00 in0.0 mm 0.47 in11.9 mm
08:24 AM 40.2°F4.6°C 39.7°F4.3°C 98% 8.0 mph NNE12.9 kmh NNE 20.0 mph32.2 kmh 29.22 in989.5 mb 0.02 in0.5 mm 0.00 in0.0 mm 0.47 in11.9 mm
08:25 AM 40.2°F4.6°C 39.7°F4.3°C 98% 9.0 mph NNW14.5 kmh NNW 20.0 mph32.2 kmh 29.21 in989.2 mb 0.02 in0.5 mm 0.00 in0.0 mm 0.47 in11.9 mm
08:26 AM 40.2°F4.6°C 39.7°F4.3°C 98% 11.0 mph NE17.7 kmh NE 20.0 mph32.2 kmh 29.22 in989.5 mb 0.03 in0.8 mm 0.60 in15.2 mm 0.48 in12.2 mm
08:27 AM 40.2°F4.6°C 39.7°F4.3°C 98% 9.0 mph 14.5 kmh 20.0 mph32.2 kmh 29.21 in989.2 mb 0.03 in0.8 mm 0.00 in0.0 mm 0.48 in12.2 mm
08:29 AM 40.2°F4.6°C 39.7°F4.3°C 98% 5.0 mph 8.0 kmh 18.0 mph29.0 kmh 29.21 in989.2 mb 0.03 in0.8 mm 0.00 in0.0 mm 0.48 in12.2 mm
08:30 AM 40.2°F4.6°C 39.7°F4.3°C 98% 9.0 mph 14.5 kmh 18.0 mph29.0 kmh 29.21 in989.2 mb 0.03 in0.8 mm 0.00 in0.0 mm 0.48 in12.2 mm
08:31 AM 40.2°F4.6°C 39.7°F4.3°C 98% 9.0 mph NNE14.5 kmh NNE 18.0 mph29.0 kmh 29.21 in989.2 mb 0.03 in0.8 mm 0.00 in0.0 mm 0.48 in12.2 mm
08:32 AM 40.2°F4.6°C 39.7°F4.3°C 98% 12.0 mph E19.3 kmh E 18.0 mph29.0 kmh 29.21 in989.2 mb 0.04 in1.0 mm 0.60 in15.2 mm 0.49 in12.4 mm
08:33 AM 40.2°F4.6°C 39.7°F4.3°C 98% 14.0 mph SW22.5 kmh SW 18.0 mph29.0 kmh 29.21 in989.2 mb 0.04 in1.0 mm 0.00 in0.0 mm 0.49 in12.4 mm
08:34 AM 40.2°F4.6°C 39.7°F4.3°C 98% 19.0 mph W30.6 kmh W 19.0 mph30.6 kmh 29.21 in989.2 mb 0.04 in1.0 mm 0.00 in0.0 mm 0.49 in12.4 mm
08:35 AM 40.2°F4.6°C 39.7°F4.3°C 98% 7.0 mph NNW11.3 kmh NNW 19.0 mph30.6 kmh 29.20 in988.8 mb 0.04 in1.0 mm 0.00 in0.0 mm 0.49 in12.4 mm
08:36 AM 40.2°F4.6°C 39.7°F4.3°C 98% 19.0 mph NNE30.6 kmh NNE 19.0 mph30.6 kmh 29.20 in988.8 mb 0.04 in1.0 mm 0.00 in0.0 mm 0.49 in12.4 mm
08:37 AM 40.2°F4.6°C 39.7°F4.3°C 98% 10.0 mph ENE16.1 kmh ENE 19.0 mph30.6 kmh 29.20 in988.8 mb 0.04 in1.0 mm 0.00 in0.0 mm 0.49 in12.4 mm
08:38 AM 40.2°F4.6°C 39.7°F4.3°C 98% 12.0 mph NNE19.3 kmh NNE 19.0 mph30.6 kmh 29.20 in988.8 mb 0.05 in1.3 mm 0.60 in15.2 mm 0.50 in12.7 mm
08:39 AM 40.0°F4.4°C 39.5°F4.2°C 98% 12.0 mph 19.3 kmh 19.0 mph30.6 kmh 29.20 in988.8 mb 0.05 in1.3 mm 0.00 in0.0 mm 0.50 in12.7 mm
08:40 AM 40.0°F4.4°C 39.5°F4.2°C 98% 20.0 mph NE32.2 kmh NE 20.0 mph32.2 kmh 29.20 in988.8 mb 0.05 in1.3 mm 0.00 in0.0 mm 0.50 in12.7 mm
08:41 AM 40.0°F4.4°C 39.5°F4.2°C 98% 12.0 mph W19.3 kmh W 20.0 mph32.2 kmh 29.19 in988.5 mb 0.06 in1.5 mm 0.60 in15.2 mm 0.51 in13.0 mm
08:42 AM 40.0°F4.4°C 39.5°F4.2°C 98% 15.0 mph NNW24.1 kmh NNW 20.0 mph32.2 kmh 29.19 in988.5 mb 0.07 in1.8 mm 0.60 in15.2 mm 0.52 in13.2 mm
08:43 AM 40.0°F4.4°C 39.5°F4.2°C 98% 12.0 mph 19.3 kmh 20.0 mph32.2 kmh 29.20 in988.8 mb 0.07 in1.8 mm 0.00 in0.0 mm 0.52 in13.2 mm
08:44 AM 40.0°F4.4°C 39.5°F4.2°C 98% 7.0 mph NNE11.3 kmh NNE 20.0 mph32.2 kmh 29.20 in988.8 mb 0.07 in1.8 mm 0.00 in0.0 mm 0.52 in13.2 mm
08:45 AM 40.0°F4.4°C 39.5°F4.2°C 98% 13.0 mph W20.9 kmh W 20.0 mph32.2 kmh 29.19 in988.5 mb 0.08 in2.0 mm 0.60 in15.2 mm 0.53 in13.5 mm
08:46 AM 40.0°F4.4°C 39.5°F4.2°C 98% 6.0 mph NE9.7 kmh NE 20.0 mph32.2 kmh 29.19 in988.5 mb 0.09 in2.3 mm 0.60 in15.2 mm 0.54 in13.7 mm
08:47 AM 40.0°F4.4°C 39.5°F4.2°C 98% 8.0 mph NNE12.9 kmh NNE 20.0 mph32.2 kmh 29.20 in988.8 mb 0.09 in2.3 mm 0.00 in0.0 mm 0.54 in13.7 mm
08:48 AM 40.0°F4.4°C 39.5°F4.2°C 98% 18.0 mph NE29.0 kmh NE 20.0 mph32.2 kmh 29.19 in988.5 mb 0.10 in2.5 mm 0.60 in15.2 mm 0.55 in14.0 mm
08:49 AM 40.0°F4.4°C 39.5°F4.2°C 98% 17.0 mph 27.4 kmh 20.0 mph32.2 kmh 29.19 in988.5 mb 0.10 in2.5 mm 0.00 in0.0 mm 0.55 in14.0 mm
08:50 AM 40.0°F4.4°C 39.5°F4.2°C 98% 16.0 mph NNE25.7 kmh NNE 19.0 mph30.6 kmh 29.19 in988.5 mb 0.11 in2.8 mm 0.60 in15.2 mm 0.56 in14.2 mm
08:51 AM 40.0°F4.4°C 39.5°F4.2°C 98% 7.0 mph NE11.3 kmh NE 19.0 mph30.6 kmh 29.19 in988.5 mb 0.11 in2.8 mm 0.00 in0.0 mm 0.56 in14.2 mm
08:52 AM 40.0°F4.4°C 39.5°F4.2°C 98% 12.0 mph NNE19.3 kmh NNE 19.0 mph30.6 kmh 29.19 in988.5 mb 0.11 in2.8 mm 0.00 in0.0 mm 0.56 in14.2 mm
08:53 AM 40.0°F4.4°C 39.5°F4.2°C 98% 10.0 mph NNE16.1 kmh NNE 19.0 mph30.6 kmh 29.18 in988.1 mb 0.12 in3.0 mm 0.60 in15.2 mm 0.57 in14.5 mm
08:54 AM 40.0°F4.4°C 39.5°F4.2°C 98% 9.0 mph NNE14.5 kmh NNE 19.0 mph30.6 kmh 29.18 in988.1 mb 0.12 in3.0 mm 0.00 in0.0 mm 0.57 in14.5 mm
08:55 AM 40.0°F4.4°C 39.5°F4.2°C 98% 11.0 mph NNE17.7 kmh NNE 18.0 mph29.0 kmh 29.19 in988.5 mb 0.13 in3.3 mm 0.60 in15.2 mm 0.58 in14.7 mm
08:56 AM 40.0°F4.4°C 39.5°F4.2°C 98% 10.0 mph NNE16.1 kmh NNE 18.0 mph29.0 kmh 29.19 in988.5 mb 0.13 in3.3 mm 0.00 in0.0 mm 0.58 in14.7 mm
08:57 AM 40.0°F4.4°C 39.5°F4.2°C 98% 11.0 mph NNE17.7 kmh NNE 18.0 mph29.0 kmh 29.20 in988.8 mb 0.13 in3.3 mm 0.00 in0.0 mm 0.58 in14.7 mm
08:58 AM 40.0°F4.4°C 39.5°F4.2°C 98% 13.0 mph NNW20.9 kmh NNW 18.0 mph29.0 kmh 29.20 in988.8 mb 0.14 in3.6 mm 0.60 in15.2 mm 0.59 in15.0 mm
08:59 AM 40.0°F4.4°C 39.5°F4.2°C 98% 9.0 mph NNW14.5 kmh NNW 18.0 mph29.0 kmh 29.19 in988.5 mb 0.14 in3.6 mm 0.00 in0.0 mm 0.59 in15.0 mm
09:00 AM 40.0°F4.4°C 39.5°F4.2°C 98% 12.0 mph NNW19.3 kmh NNW 18.0 mph29.0 kmh 29.19 in988.5 mb 0.14 in3.6 mm 0.00 in0.0 mm 0.59 in15.0 mm
09:01 AM 40.0°F4.4°C 39.5°F4.2°C 98% 7.0 mph 11.3 kmh 18.0 mph29.0 kmh 29.19 in988.5 mb 0.15 in3.8 mm 0.60 in15.2 mm 0.60 in15.2 mm
09:02 AM 40.0°F4.4°C 39.5°F4.2°C 98% 9.0 mph 14.5 kmh 18.0 mph29.0 kmh 29.19 in988.5 mb 0.15 in3.8 mm 0.00 in0.0 mm 0.60 in15.2 mm
09:03 AM 39.9°F4.4°C 39.4°F4.1°C 98% 9.0 mph NNE14.5 kmh NNE 18.0 mph29.0 kmh 29.18 in988.1 mb 0.15 in3.8 mm 0.00 in0.0 mm 0.60 in15.2 mm
09:04 AM 39.9°F4.4°C 39.4°F4.1°C 98% 5.0 mph NNE8.0 kmh NNE 18.0 mph29.0 kmh 29.18 in988.1 mb 0.16 in4.1 mm 0.60 in15.2 mm 0.61 in15.5 mm
09:05 AM 39.9°F4.4°C 39.4°F4.1°C 98% 11.0 mph NNE17.7 kmh NNE 19.0 mph30.6 kmh 29.19 in988.5 mb 0.16 in4.1 mm 0.00 in0.0 mm 0.61 in15.5 mm
09:06 AM 39.9°F4.4°C 39.4°F4.1°C 98% 15.0 mph 24.1 kmh 19.0 mph30.6 kmh 29.19 in988.5 mb 0.16 in4.1 mm 0.00 in0.0 mm 0.61 in15.5 mm
09:07 AM 39.9°F4.4°C 39.4°F4.1°C 98% 14.0 mph NNE22.5 kmh NNE 19.0 mph30.6 kmh 29.19 in988.5 mb 0.00 in0.0 mm 0.00 in0.0 mm 0.62 in15.7 mm
09:08 AM 39.9°F4.4°C 39.4°F4.1°C 98% 12.0 mph NNE19.3 kmh NNE 19.0 mph30.6 kmh 29.19 in988.5 mb 0.00 in0.0 mm 0.00 in0.0 mm 0.62 in15.7 mm
09:09 AM 39.9°F4.4°C 39.4°F4.1°C 98% 4.0 mph NNW6.4 kmh NNW 19.0 mph30.6 kmh 29.18 in988.1 mb 0.00 in0.0 mm 0.00 in0.0 mm 0.62 in15.7 mm
09:10 AM 39.9°F4.4°C 39.4°F4.1°C 98% 4.0 mph NE6.4 kmh NE 19.0 mph30.6 kmh 29.18 in988.1 mb 0.01 in0.3 mm 0.60 in15.2 mm 0.63 in16.0 mm
09:11 AM 39.9°F4.4°C 39.4°F4.1°C 98% 9.0 mph NNE14.5 kmh NNE 19.0 mph30.6 kmh 29.18 in988.1 mb 0.01 in0.3 mm 0.00 in0.0 mm 0.63 in16.0 mm
09:12 AM 39.9°F4.4°C 39.4°F4.1°C 98% 8.0 mph NNW12.9 kmh NNW 19.0 mph30.6 kmh 29.18 in988.1 mb 0.01 in0.3 mm 0.00 in0.0 mm 0.63 in16.0 mm
09:13 AM 39.9°F4.4°C 39.4°F4.1°C 98% 7.0 mph 11.3 kmh 19.0 mph30.6 kmh 29.18 in988.1 mb 0.02 in0.5 mm 0.60 in15.2 mm 0.64 in16.3 mm
09:14 AM 39.9°F4.4°C 39.4°F4.1°C 98% 5.0 mph 8.0 kmh 19.0 mph30.6 kmh 29.18 in988.1 mb 0.02 in0.5 mm 0.00 in0.0 mm 0.64 in16.3 mm
09:15 AM 39.9°F4.4°C 39.4°F4.1°C 98% 11.0 mph NE17.7 kmh NE 16.0 mph25.7 kmh 29.18 in988.1 mb 0.02 in0.5 mm 0.00 in0.0 mm 0.64 in16.3 mm
09:16 AM 39.9°F4.4°C 39.4°F4.1°C 98% 10.0 mph NNW16.1 kmh NNW 16.0 mph25.7 kmh 29.19 in988.5 mb 0.03 in0.8 mm 0.60 in15.2 mm 0.65 in16.5 mm
09:17 AM 39.9°F4.4°C 39.4°F4.1°C 98% 15.0 mph 24.1 kmh 16.0 mph25.7 kmh 29.18 in988.1 mb 0.03 in0.8 mm 0.00 in0.0 mm 0.65 in16.5 mm
09:18 AM 39.9°F4.4°C 39.4°F4.1°C 98% 17.0 mph E27.4 kmh E 17.0 mph27.4 kmh 29.18 in988.1 mb 0.03 in0.8 mm 0.00 in0.0 mm 0.65 in16.5 mm
09:19 AM 39.9°F4.4°C 39.4°F4.1°C 98% 16.0 mph E25.7 kmh E 17.0 mph27.4 kmh 29.17 in987.8 mb 0.03 in0.8 mm 0.00 in0.0 mm 0.65 in16.5 mm
09:20 AM 39.9°F4.4°C 39.4°F4.1°C 98% 13.0 mph NW20.9 kmh NW 17.0 mph27.4 kmh 29.17 in987.8 mb 0.04 in1.0 mm 0.60 in15.2 mm 0.66 in16.8 mm
09:21 AM 39.9°F4.4°C 39.4°F4.1°C 98% 11.0 mph NNE17.7 kmh NNE 17.0 mph27.4 kmh 29.18 in988.1 mb 0.04 in1.0 mm 0.00 in0.0 mm 0.66 in16.8 mm
09:22 AM 39.9°F4.4°C 39.4°F4.1°C 98% 7.0 mph NNE11.3 kmh NNE 17.0 mph27.4 kmh 29.18 in988.1 mb 0.05 in1.3 mm 0.60 in15.2 mm 0.67 in17.0 mm
09:23 AM 39.7°F4.3°C 39.2°F4.0°C 98% 20.0 mph NE32.2 kmh NE 20.0 mph32.2 kmh 29.18 in988.1 mb 0.07 in1.8 mm 1.20 in30.5 mm 0.69 in17.5 mm
09:24 AM 39.7°F4.3°C 39.2°F4.0°C 98% 6.0 mph NNE9.7 kmh NNE 20.0 mph32.2 kmh 29.17 in987.8 mb 0.07 in1.8 mm 0.00 in0.0 mm 0.69 in17.5 mm
09:25 AM 39.7°F4.3°C 39.2°F4.0°C 98% 20.0 mph NNE32.2 kmh NNE 20.0 mph32.2 kmh 29.16 in987.5 mb 0.07 in1.8 mm 0.00 in0.0 mm 0.69 in17.5 mm
09:26 AM 39.7°F4.3°C 39.2°F4.0°C 98% 7.0 mph NW11.3 kmh NW 20.0 mph32.2 kmh 29.16 in987.5 mb 0.13 in3.3 mm 3.60 in91.4 mm 0.75 in19.1 mm
09:27 AM 39.7°F4.3°C 39.2°F4.0°C 98% 6.0 mph NW9.7 kmh NW 20.0 mph32.2 kmh 29.16 in987.5 mb 0.14 in3.6 mm 0.60 in15.2 mm 0.76 in19.3 mm
09:28 AM 39.7°F4.3°C 39.2°F4.0°C 98% 15.0 mph 24.1 kmh 20.0 mph32.2 kmh 29.16 in987.5 mb 0.16 in4.1 mm 1.20 in30.5 mm 0.78 in19.8 mm
09:29 AM 39.7°F4.3°C 39.2°F4.0°C 98% 16.0 mph NNW25.7 kmh NNW 20.0 mph32.2 kmh 29.16 in987.5 mb 0.17 in4.3 mm 0.60 in15.2 mm 0.79 in20.1 mm
09:30 AM 39.7°F4.3°C 39.2°F4.0°C 98% 16.0 mph NNW25.7 kmh NNW 20.0 mph32.2 kmh 29.16 in987.5 mb 0.17 in4.3 mm 0.00 in0.0 mm 0.79 in20.1 mm
09:31 AM 39.7°F4.3°C 39.2°F4.0°C 98% 6.0 mph NNE9.7 kmh NNE 20.0 mph32.2 kmh 29.16 in987.5 mb 0.23 in5.8 mm 3.60 in91.4 mm 0.85 in21.6 mm
09:32 AM 39.7°F4.3°C 39.2°F4.0°C 98% 4.0 mph NNW6.4 kmh NNW 20.0 mph32.2 kmh 29.16 in987.5 mb 0.27 in6.9 mm 2.40 in61.0 mm 0.89 in22.6 mm
09:33 AM 39.7°F4.3°C 39.2°F4.0°C 98% 9.0 mph NE14.5 kmh NE 20.0 mph32.2 kmh 29.16 in987.5 mb 0.30 in7.6 mm 1.80 in45.7 mm 0.92 in23.4 mm
09:34 AM 39.7°F4.3°C 39.2°F4.0°C 98% 15.0 mph ENE24.1 kmh ENE 20.0 mph32.2 kmh 29.16 in987.5 mb 0.30 in7.6 mm 0.00 in0.0 mm 0.92 in23.4 mm
09:35 AM 39.7°F4.3°C 39.2°F4.0°C 98% 11.0 mph NW17.7 kmh NW 20.0 mph32.2 kmh 29.16 in987.5 mb 0.33 in8.4 mm 1.80 in45.7 mm 0.95 in24.1 mm
09:36 AM 39.5°F4.2°C 39.0°F3.9°C 98% 13.0 mph NW20.9 kmh NW 20.0 mph32.2 kmh 29.16 in987.5 mb 0.33 in8.4 mm 0.00 in0.0 mm 0.95 in24.1 mm
09:37 AM 39.5°F4.2°C 39.0°F3.9°C 98% 9.0 mph 14.5 kmh 20.0 mph32.2 kmh 29.16 in987.5 mb 0.37 in9.4 mm 2.40 in61.0 mm 0.99 in25.1 mm
09:38 AM 39.5°F4.2°C 39.0°F3.9°C 98% 6.0 mph NNE9.7 kmh NNE 20.0 mph32.2 kmh 29.16 in987.5 mb 0.39 in9.9 mm 1.20 in30.5 mm 1.01 in25.7 mm
09:39 AM 39.5°F4.2°C 39.0°F3.9°C 98% 18.0 mph NNE29.0 kmh NNE 20.0 mph32.2 kmh 29.16 in987.5 mb 0.40 in10.2 mm 0.60 in15.2 mm 1.02 in25.9 mm
09:40 AM 39.5°F4.2°C 39.0°F3.9°C 98% 7.0 mph 11.3 kmh 20.0 mph32.2 kmh 29.16 in987.5 mb 0.43 in10.9 mm 1.80 in45.7 mm 1.05 in26.7 mm
09:41 AM 39.5°F4.2°C 39.0°F3.9°C 98% 14.0 mph 22.5 kmh 20.0 mph32.2 kmh 29.16 in987.5 mb 0.43 in10.9 mm 0.00 in0.0 mm 1.05 in26.7 mm
09:42 AM 39.5°F4.2°C 39.0°F3.9°C 98% 12.0 mph NNE19.3 kmh NNE 20.0 mph32.2 kmh 29.16 in987.5 mb 0.51 in13.0 mm 4.80 in121.9 mm 1.13 in28.7 mm
09:43 AM 39.5°F4.2°C 39.0°F3.9°C 98% 5.0 mph NE8.0 kmh NE 18.0 mph29.0 kmh 29.16 in987.5 mb 0.51 in13.0 mm 0.00 in0.0 mm 1.13 in28.7 mm
09:44 AM 39.5°F4.2°C 39.0°F3.9°C 98% 14.0 mph NNE22.5 kmh NNE 18.0 mph29.0 kmh 29.16 in987.5 mb 0.52 in13.2 mm 0.60 in15.2 mm 1.14 in29.0 mm
09:45 AM 39.5°F4.2°C 39.0°F3.9°C 98% 6.0 mph WNW9.7 kmh WNW 18.0 mph29.0 kmh 29.14 in986.8 mb 0.55 in14.0 mm 1.80 in45.7 mm 1.17 in29.7 mm
09:46 AM 39.5°F4.2°C 39.0°F3.9°C 98% 9.0 mph WNW14.5 kmh WNW 20.0 mph32.2 kmh 29.14 in986.8 mb 0.55 in14.0 mm 0.00 in0.0 mm 1.17 in29.7 mm
09:47 AM 39.5°F4.2°C 39.0°F3.9°C 98% 7.0 mph NNE11.3 kmh NNE 20.0 mph32.2 kmh 29.16 in987.5 mb 0.55 in14.0 mm 0.00 in0.0 mm 1.17 in29.7 mm
09:48 AM 39.5°F4.2°C 39.0°F3.9°C 98% 4.0 mph S6.4 kmh S 20.0 mph32.2 kmh 29.16 in987.5 mb 0.55 in14.0 mm 0.00 in0.0 mm 1.17 in29.7 mm
09:49 AM 39.5°F4.2°C 39.0°F3.9°C 98% 10.0 mph NNW16.1 kmh NNW 22.0 mph35.4 kmh 29.16 in987.5 mb 0.55 in14.0 mm 0.00 in0.0 mm 1.17 in29.7 mm
09:50 AM 39.5°F4.2°C 39.0°F3.9°C 98% 9.0 mph W14.5 kmh W 22.0 mph35.4 kmh 29.16 in987.5 mb 0.55 in14.0 mm 0.00 in0.0 mm 1.17 in29.7 mm
09:51 AM 39.5°F4.2°C 39.0°F3.9°C 98% 18.0 mph NW29.0 kmh NW 22.0 mph35.4 kmh 29.14 in986.8 mb 0.55 in14.0 mm 0.00 in0.0 mm 1.17 in29.7 mm
09:52 AM 39.7°F4.3°C 39.2°F4.0°C 98% 18.0 mph NW29.0 kmh NW 22.0 mph35.4 kmh 29.14 in986.8 mb 0.56 in14.2 mm 0.60 in15.2 mm 1.18 in30.0 mm
09:53 AM 39.7°F4.3°C 39.2°F4.0°C 98% 9.0 mph NE14.5 kmh NE 22.0 mph35.4 kmh 29.15 in987.1 mb 0.56 in14.2 mm 0.00 in0.0 mm 1.18 in30.0 mm
09:54 AM 39.7°F4.3°C 39.2°F4.0°C 98% 18.0 mph NW29.0 kmh NW 22.0 mph35.4 kmh 29.15 in987.1 mb 0.56 in14.2 mm 0.00 in0.0 mm 1.18 in30.0 mm
09:55 AM 39.7°F4.3°C 39.2°F4.0°C 98% 16.0 mph WSW25.7 kmh WSW 22.0 mph35.4 kmh 29.15 in987.1 mb 0.56 in14.2 mm 0.00 in0.0 mm 1.18 in30.0 mm
09:56 AM 39.7°F4.3°C 39.2°F4.0°C 98% 9.0 mph NNE14.5 kmh NNE 22.0 mph35.4 kmh 29.15 in987.1 mb 0.56 in14.2 mm 0.00 in0.0 mm 1.18 in30.0 mm
09:57 AM 39.7°F4.3°C 39.2°F4.0°C 98% 5.0 mph NNE8.0 kmh NNE 22.0 mph35.4 kmh 29.15 in987.1 mb 0.56 in14.2 mm 0.00 in0.0 mm 1.18 in30.0 mm
09:58 AM 39.7°F4.3°C 39.2°F4.0°C 98% 17.0 mph 27.4 kmh 22.0 mph35.4 kmh 29.15 in987.1 mb 0.56 in14.2 mm 0.00 in0.0 mm 1.18 in30.0 mm
09:59 AM 39.9°F4.4°C 39.4°F4.1°C 98% 13.0 mph 20.9 kmh 21.0 mph33.8 kmh 29.15 in987.1 mb 0.57 in14.5 mm 0.60 in15.2 mm 1.19 in30.2 mm
10:00 AM 39.9°F4.4°C 39.4°F4.1°C 98% 17.0 mph NNE27.4 kmh NNE 21.0 mph33.8 kmh 29.15 in987.1 mb 0.57 in14.5 mm 0.00 in0.0 mm 1.19 in30.2 mm
10:01 AM 39.9°F4.4°C 39.4°F4.1°C 98% 10.0 mph NNE16.1 kmh NNE 21.0 mph33.8 kmh 29.15 in987.1 mb 0.57 in14.5 mm 0.00 in0.0 mm 1.19 in30.2 mm
10:02 AM 39.9°F4.4°C 39.4°F4.1°C 98% 8.0 mph 12.9 kmh 19.0 mph30.6 kmh 29.15 in987.1 mb 0.57 in14.5 mm 0.00 in0.0 mm 1.19 in30.2 mm
10:03 AM 39.9°F4.4°C 39.4°F4.1°C 98% 10.0 mph 16.1 kmh 19.0 mph30.6 kmh 29.14 in986.8 mb 0.57 in14.5 mm 0.00 in0.0 mm 1.19 in30.2 mm
10:04 AM 39.9°F4.4°C 39.4°F4.1°C 98% 17.0 mph ESE27.4 kmh ESE 19.0 mph30.6 kmh 29.14 in986.8 mb 0.58 in14.7 mm 0.60 in15.2 mm 1.20 in30.5 mm
10:05 AM 39.9°F4.4°C 39.4°F4.1°C 98% 15.0 mph NNE24.1 kmh NNE 17.0 mph27.4 kmh 29.15 in987.1 mb 0.58 in14.7 mm 0.00 in0.0 mm 1.20 in30.5 mm
10:06 AM 39.9°F4.4°C 39.4°F4.1°C 98% 9.0 mph NE14.5 kmh NE 17.0 mph27.4 kmh 29.15 in987.1 mb 0.58 in14.7 mm 0.00 in0.0 mm 1.20 in30.5 mm
10:07 AM 39.9°F4.4°C 39.4°F4.1°C 98% 6.0 mph NNE9.7 kmh NNE 17.0 mph27.4 kmh 29.15 in987.1 mb 0.00 in0.0 mm 0.00 in0.0 mm 1.21 in30.7 mm
10:08 AM 40.0°F4.4°C 39.5°F4.2°C 98% 15.0 mph NNE24.1 kmh NNE 17.0 mph27.4 kmh 29.15 in987.1 mb 0.00 in0.0 mm 0.00 in0.0 mm 1.21 in30.7 mm
10:09 AM 40.0°F4.4°C 39.5°F4.2°C 98% 7.0 mph NNW11.3 kmh NNW 17.0 mph27.4 kmh 29.15 in987.1 mb 0.01 in0.3 mm 0.60 in15.2 mm 1.22 in31.0 mm
10:10 AM 40.0°F4.4°C 39.5°F4.2°C 98% 17.0 mph NNE27.4 kmh NNE 17.0 mph27.4 kmh 29.15 in987.1 mb 0.01 in0.3 mm 0.00 in0.0 mm 1.22 in31.0 mm
10:11 AM 40.0°F4.4°C 39.5°F4.2°C 98% 9.0 mph NE14.5 kmh NE 17.0 mph27.4 kmh 29.15 in987.1 mb 0.02 in0.5 mm 0.60 in15.2 mm 1.23 in31.2 mm
10:12 AM 40.0°F4.4°C 39.5°F4.2°C 98% 8.0 mph NNE12.9 kmh NNE 17.0 mph27.4 kmh 29.15 in987.1 mb 0.03 in0.8 mm 0.60 in15.2 mm 1.24 in31.5 mm
10:13 AM 40.0°F4.4°C 39.5°F4.2°C 98% 16.0 mph NNE25.7 kmh NNE 17.0 mph27.4 kmh 29.14 in986.8 mb 0.03 in0.8 mm 0.00 in0.0 mm 1.24 in31.5 mm
10:14 AM 40.0°F4.4°C 39.5°F4.2°C 98% 23.0 mph NNE37.0 kmh NNE 23.0 mph37.0 kmh 29.14 in986.8 mb 0.04 in1.0 mm 0.60 in15.2 mm 1.25 in31.8 mm
10:15 AM 40.0°F4.4°C 39.5°F4.2°C 98% 21.0 mph NNE33.8 kmh NNE 23.0 mph37.0 kmh 29.14 in986.8 mb 0.04 in1.0 mm 0.00 in0.0 mm 1.25 in31.8 mm
10:16 AM 40.0°F4.4°C 39.5°F4.2°C 98% 11.0 mph 17.7 kmh 23.0 mph37.0 kmh 29.14 in986.8 mb 0.04 in1.0 mm 0.00 in0.0 mm 1.25 in31.8 mm
10:17 AM 40.0°F4.4°C 39.5°F4.2°C 98% 15.0 mph NNE24.1 kmh NNE 23.0 mph37.0 kmh 29.14 in986.8 mb 0.05 in1.3 mm 0.60 in15.2 mm 1.26 in32.0 mm
10:18 AM 40.0°F4.4°C 39.5°F4.2°C 98% 11.0 mph E17.7 kmh E 23.0 mph37.0 kmh 29.14 in986.8 mb 0.05 in1.3 mm 0.00 in0.0 mm 1.26 in32.0 mm
10:19 AM 40.2°F4.6°C 39.7°F4.3°C 98% 16.0 mph 25.7 kmh 23.0 mph37.0 kmh 29.14 in986.8 mb 0.06 in1.5 mm 0.60 in15.2 mm 1.27 in32.3 mm
10:20 AM 40.2°F4.6°C 39.7°F4.3°C 98% 20.0 mph NNE32.2 kmh NNE 23.0 mph37.0 kmh 29.14 in986.8 mb 0.07 in1.8 mm 0.60 in15.2 mm 1.28 in32.5 mm
10:21 AM 40.2°F4.6°C 39.7°F4.3°C 98% 11.0 mph NW17.7 kmh NW 23.0 mph37.0 kmh 29.14 in986.8 mb 0.08 in2.0 mm 0.60 in15.2 mm 1.29 in32.8 mm
10:22 AM 40.2°F4.6°C 39.7°F4.3°C 98% 9.0 mph ESE14.5 kmh ESE 23.0 mph37.0 kmh 29.14 in986.8 mb 0.09 in2.3 mm 0.60 in15.2 mm 1.30 in33.0 mm
10:23 AM 40.2°F4.6°C 39.7°F4.3°C 98% 10.0 mph NE16.1 kmh NE 23.0 mph37.0 kmh 29.14 in986.8 mb 0.09 in2.3 mm 0.00 in0.0 mm 1.30 in33.0 mm
10:24 AM 40.2°F4.6°C 39.7°F4.3°C 98% 11.0 mph ESE17.7 kmh ESE 23.0 mph37.0 kmh 29.14 in986.8 mb 0.10 in2.5 mm 0.60 in15.2 mm 1.31 in33.3 mm
10:25 AM 40.2°F4.6°C 39.7°F4.3°C 98% 14.0 mph ESE22.5 kmh ESE 21.0 mph33.8 kmh 29.14 in986.8 mb 0.10 in2.5 mm 0.00 in0.0 mm 1.31 in33.3 mm
10:26 AM 40.2°F4.6°C 39.7°F4.3°C 98% 10.0 mph NNE16.1 kmh NNE 21.0 mph33.8 kmh 29.14 in986.8 mb 0.11 in2.8 mm 0.60 in15.2 mm 1.32 in33.5 mm
10:27 AM 40.2°F4.6°C 39.7°F4.3°C 98% 14.0 mph NE22.5 kmh NE 21.0 mph33.8 kmh 29.14 in986.8 mb 0.12 in3.0 mm 0.60 in15.2 mm 1.33 in33.8 mm
10:28 AM 40.2°F4.6°C 39.7°F4.3°C 98% 7.0 mph ENE11.3 kmh ENE 21.0 mph33.8 kmh 29.14 in986.8 mb 0.13 in3.3 mm 0.60 in15.2 mm 1.34 in34.0 mm
10:29 AM 40.2°F4.6°C 39.7°F4.3°C 98% 8.0 mph NE12.9 kmh NE 21.0 mph33.8 kmh 29.13 in986.5 mb 0.13 in3.3 mm 0.00 in0.0 mm 1.34 in34.0 mm
10:30 AM 40.2°F4.6°C 39.7°F4.3°C 98% 14.0 mph NE22.5 kmh NE 21.0 mph33.8 kmh 29.13 in986.5 mb 0.13 in3.3 mm 0.00 in0.0 mm 1.34 in34.0 mm
10:31 AM 40.2°F4.6°C 39.7°F4.3°C 98% 7.0 mph NE11.3 kmh NE 16.0 mph25.7 kmh 29.13 in986.5 mb 0.14 in3.6 mm 0.60 in15.2 mm 1.35 in34.3 mm
10:32 AM 40.2°F4.6°C 39.7°F4.3°C 98% 17.0 mph NNW27.4 kmh NNW 17.0 mph27.4 kmh 29.13 in986.5 mb 0.15 in3.8 mm 0.60 in15.2 mm 1.36 in34.5 mm
10:33 AM 40.2°F4.6°C 39.7°F4.3°C 98% 11.0 mph 17.7 kmh 17.0 mph27.4 kmh 29.13 in986.5 mb 0.16 in4.1 mm 0.60 in15.2 mm 1.37 in34.8 mm
10:34 AM 40.2°F4.6°C 39.7°F4.3°C 98% 6.0 mph 9.7 kmh 17.0 mph27.4 kmh 29.13 in986.5 mb 0.17 in4.3 mm 0.60 in15.2 mm 1.38 in35.1 mm
10:35 AM 40.2°F4.6°C 39.7°F4.3°C 98% 8.0 mph NNE12.9 kmh NNE 17.0 mph27.4 kmh 29.13 in986.5 mb 0.17 in4.3 mm 0.00 in0.0 mm 1.38 in35.1 mm
10:36 AM 40.2°F4.6°C 39.7°F4.3°C 98% 15.0 mph 24.1 kmh 17.0 mph27.4 kmh 29.13 in986.5 mb 0.18 in4.6 mm 0.60 in15.2 mm 1.39 in35.3 mm
10:37 AM 40.2°F4.6°C 39.7°F4.3°C 98% 7.0 mph NNW11.3 kmh NNW 17.0 mph27.4 kmh 29.12 in986.1 mb 0.19 in4.8 mm 0.60 in15.2 mm 1.40 in35.6 mm
10:38 AM 40.2°F4.6°C 39.7°F4.3°C 98% 4.0 mph NNE6.4 kmh NNE 17.0 mph27.4 kmh 29.12 in986.1 mb 0.20 in5.1 mm 0.60 in15.2 mm 1.41 in35.8 mm
10:39 AM 40.2°F4.6°C 39.7°F4.3°C 98% 7.0 mph NE11.3 kmh NE 17.0 mph27.4 kmh 29.13 in986.5 mb 0.21 in5.3 mm 0.60 in15.2 mm 1.42 in36.1 mm
10:40 AM 40.2°F4.6°C 39.7°F4.3°C 98% 6.0 mph 9.7 kmh 17.0 mph27.4 kmh 29.13 in986.5 mb 0.22 in5.6 mm 0.60 in15.2 mm 1.43 in36.3 mm
10:41 AM 40.2°F4.6°C 39.7°F4.3°C 98% 9.0 mph NE14.5 kmh NE 18.0 mph29.0 kmh 29.13 in986.5 mb 0.23 in5.8 mm 0.60 in15.2 mm 1.44 in36.6 mm
10:42 AM 40.2°F4.6°C 39.7°F4.3°C 98% 24.0 mph NNE38.6 kmh NNE 24.0 mph38.6 kmh 29.13 in986.5 mb 0.24 in6.1 mm 0.60 in15.2 mm 1.45 in36.8 mm
10:43 AM 40.2°F4.6°C 39.7°F4.3°C 98% 10.0 mph NNE16.1 kmh NNE 24.0 mph38.6 kmh 29.12 in986.1 mb 0.25 in6.4 mm 0.60 in15.2 mm 1.46 in37.1 mm
10:44 AM 40.2°F4.6°C 39.7°F4.3°C 98% 19.0 mph NE30.6 kmh NE 24.0 mph38.6 kmh 29.12 in986.1 mb 0.27 in6.9 mm 1.20 in30.5 mm 1.48 in37.6 mm
10:45 AM 40.2°F4.6°C 39.7°F4.3°C 98% 14.0 mph NNE22.5 kmh NNE 24.0 mph38.6 kmh 29.12 in986.1 mb 0.28 in7.1 mm 0.60 in15.2 mm 1.49 in37.8 mm
10:46 AM 40.2°F4.6°C 39.7°F4.3°C 98% 10.0 mph NNE16.1 kmh NNE 24.0 mph38.6 kmh 29.12 in986.1 mb 0.29 in7.4 mm 0.60 in15.2 mm 1.50 in38.1 mm
10:47 AM 40.2°F4.6°C 39.7°F4.3°C 98% 8.0 mph NNE12.9 kmh NNE 24.0 mph38.6 kmh 29.13 in986.5 mb 0.29 in7.4 mm 0.00 in0.0 mm 1.50 in38.1 mm
10:48 AM 40.2°F4.6°C 39.7°F4.3°C 98% 7.0 mph 11.3 kmh 24.0 mph38.6 kmh 29.13 in986.5 mb 0.31 in7.9 mm 1.20 in30.5 mm 1.52 in38.6 mm
10:49 AM 40.2°F4.6°C 39.7°F4.3°C 98% 8.0 mph NNE12.9 kmh NNE 24.0 mph38.6 kmh 29.13 in986.5 mb 0.32 in8.1 mm 0.60 in15.2 mm 1.53 in38.9 mm
10:50 AM 40.2°F4.6°C 39.7°F4.3°C 98% 9.0 mph NNE14.5 kmh NNE 24.0 mph38.6 kmh 29.13 in986.5 mb 0.33 in8.4 mm 0.60 in15.2 mm 1.54 in39.1 mm
10:51 AM 40.2°F4.6°C 39.7°F4.3°C 98% 20.0 mph NNE32.2 kmh NNE 24.0 mph38.6 kmh 29.13 in986.5 mb 0.34 in8.6 mm 0.60 in15.2 mm 1.55 in39.4 mm
10:52 AM 40.2°F4.6°C 39.7°F4.3°C 98% 12.0 mph NNW19.3 kmh NNW 20.0 mph32.2 kmh 29.12 in986.1 mb 0.35 in8.9 mm 0.60 in15.2 mm 1.56 in39.6 mm
10:53 AM 40.2°F4.6°C 39.7°F4.3°C 98% 8.0 mph NNW12.9 kmh NNW 24.0 mph38.6 kmh 29.13 in986.5 mb 0.35 in8.9 mm 0.00 in0.0 mm 1.56 in39.6 mm
10:54 AM 40.2°F4.6°C 39.7°F4.3°C 98% 8.0 mph NNW12.9 kmh NNW 24.0 mph38.6 kmh 29.13 in986.5 mb 0.36 in9.1 mm 0.60 in15.2 mm 1.57 in39.9 mm
10:55 AM 40.2°F4.6°C 39.7°F4.3°C 98% 10.0 mph NW16.1 kmh NW 24.0 mph38.6 kmh 29.13 in986.5 mb 0.37 in9.4 mm 0.60 in15.2 mm 1.58 in40.1 mm
10:56 AM 40.2°F4.6°C 39.7°F4.3°C 98% 10.0 mph 16.1 kmh 24.0 mph38.6 kmh 29.13 in986.5 mb 0.37 in9.4 mm 0.00 in0.0 mm 1.58 in40.1 mm
10:57 AM 40.2°F4.6°C 39.7°F4.3°C 98% 12.0 mph NNW19.3 kmh NNW 24.0 mph38.6 kmh 29.13 in986.5 mb 0.38 in9.7 mm 0.60 in15.2 mm 1.59 in40.4 mm
10:58 AM 40.2°F4.6°C 39.7°F4.3°C 98% 8.0 mph NNE12.9 kmh NNE 24.0 mph38.6 kmh 29.13 in986.5 mb 0.38 in9.7 mm 0.00 in0.0 mm 1.59 in40.4 mm
10:59 AM 40.2°F4.6°C 39.7°F4.3°C 98% 10.0 mph NNE16.1 kmh NNE 24.0 mph38.6 kmh 29.13 in986.5 mb 0.39 in9.9 mm 0.60 in15.2 mm 1.60 in40.6 mm
11:00 AM 40.0°F4.4°C 39.5°F4.2°C 98% 7.0 mph 11.3 kmh 24.0 mph38.6 kmh 29.13 in986.5 mb 0.39 in9.9 mm 0.00 in0.0 mm 1.60 in40.6 mm
11:01 AM 40.0°F4.4°C 39.5°F4.2°C 98% 16.0 mph NW25.7 kmh NW 24.0 mph38.6 kmh 29.12 in986.1 mb 0.39 in9.9 mm 0.00 in0.0 mm 1.60 in40.6 mm
11:02 AM 40.0°F4.4°C 39.5°F4.2°C 98% 11.0 mph NE17.7 kmh NE 24.0 mph38.6 kmh 29.12 in986.1 mb 0.40 in10.2 mm 0.60 in15.2 mm 1.61 in40.9 mm
11:03 AM 40.0°F4.4°C 39.5°F4.2°C 98% 8.0 mph NNE12.9 kmh NNE 18.0 mph29.0 kmh 29.13 in986.5 mb 0.40 in10.2 mm 0.00 in0.0 mm 1.61 in40.9 mm
11:04 AM 40.0°F4.4°C 39.5°F4.2°C 98% 18.0 mph NNW29.0 kmh NNW 18.0 mph29.0 kmh 29.13 in986.5 mb 0.41 in10.4 mm 0.60 in15.2 mm 1.62 in41.1 mm
11:05 AM 40.2°F4.6°C 39.7°F4.3°C 98% 5.0 mph WNW8.0 kmh WNW 18.0 mph29.0 kmh 29.14 in986.8 mb 0.41 in10.4 mm 0.00 in0.0 mm 1.62 in41.1 mm
11:06 AM 40.2°F4.6°C 39.7°F4.3°C 98% 11.0 mph NNE17.7 kmh NNE 18.0 mph29.0 kmh 29.14 in986.8 mb 0.41 in10.4 mm 0.00 in0.0 mm 1.62 in41.1 mm
11:07 AM 40.2°F4.6°C 39.7°F4.3°C 98% 16.0 mph 25.7 kmh 18.0 mph29.0 kmh 29.13 in986.5 mb 0.00 in0.0 mm 0.00 in0.0 mm 1.63 in41.4 mm
11:08 AM 40.2°F4.6°C 39.7°F4.3°C 98% 6.0 mph 9.7 kmh 19.0 mph30.6 kmh 29.13 in986.5 mb 0.00 in0.0 mm 0.00 in0.0 mm 1.63 in41.4 mm
11:09 AM 40.2°F4.6°C 39.7°F4.3°C 98% 6.0 mph WNW9.7 kmh WNW 19.0 mph30.6 kmh 29.12 in986.1 mb 0.01 in0.3 mm 0.60 in15.2 mm 1.64 in41.7 mm
11:10 AM 40.2°F4.6°C 39.7°F4.3°C 98% 18.0 mph NE29.0 kmh NE 19.0 mph30.6 kmh 29.12 in986.1 mb 0.01 in0.3 mm 0.00 in0.0 mm 1.64 in41.7 mm
11:11 AM 40.2°F4.6°C 39.7°F4.3°C 98% 16.0 mph 25.7 kmh 19.0 mph30.6 kmh 29.12 in986.1 mb 0.01 in0.3 mm 0.00 in0.0 mm 1.64 in41.7 mm
11:12 AM 40.2°F4.6°C 39.7°F4.3°C 98% 10.0 mph NNW16.1 kmh NNW 19.0 mph30.6 kmh 29.13 in986.5 mb 0.02 in0.5 mm 0.60 in15.2 mm 1.65 in41.9 mm
11:13 AM 40.2°F4.6°C 39.7°F4.3°C 98% 16.0 mph NNE25.7 kmh NNE 23.0 mph37.0 kmh 29.12 in986.1 mb 0.02 in0.5 mm 0.00 in0.0 mm 1.65 in41.9 mm
11:14 AM 40.2°F4.6°C 39.7°F4.3°C 98% 4.0 mph NNE6.4 kmh NNE 23.0 mph37.0 kmh 29.12 in986.1 mb 0.02 in0.5 mm 0.00 in0.0 mm 1.65 in41.9 mm
11:15 AM 40.2°F4.6°C 39.7°F4.3°C 98% 12.0 mph NNE19.3 kmh NNE 23.0 mph37.0 kmh 29.13 in986.5 mb 0.03 in0.8 mm 0.60 in15.2 mm 1.66 in42.2 mm
11:16 AM 40.2°F4.6°C 39.7°F4.3°C 98% 11.0 mph NNE17.7 kmh NNE 23.0 mph37.0 kmh 29.12 in986.1 mb 0.03 in0.8 mm 0.00 in0.0 mm 1.66 in42.2 mm
11:17 AM 40.2°F4.6°C 39.7°F4.3°C 98% 24.0 mph ESE38.6 kmh ESE 24.0 mph38.6 kmh 29.13 in986.5 mb 0.03 in0.8 mm 0.00 in0.0 mm 1.66 in42.2 mm
11:18 AM 40.2°F4.6°C 39.7°F4.3°C 98% 14.0 mph NNE22.5 kmh NNE 25.0 mph40.2 kmh 29.13 in986.5 mb 0.04 in1.0 mm 0.60 in15.2 mm 1.67 in42.4 mm
11:19 AM 40.5°F4.7°C 40.0°F4.4°C 98% 12.0 mph NE19.3 kmh NE 25.0 mph40.2 kmh 29.12 in986.1 mb 0.04 in1.0 mm 0.00 in0.0 mm 1.67 in42.4 mm
11:20 AM 40.5°F4.7°C 40.0°F4.4°C 98% 22.0 mph NNW35.4 kmh NNW 25.0 mph40.2 kmh 29.12 in986.1 mb 0.04 in1.0 mm 0.00 in0.0 mm 1.67 in42.4 mm
11:21 AM 40.5°F4.7°C 40.0°F4.4°C 98% 7.0 mph NE11.3 kmh NE 25.0 mph40.2 kmh 29.12 in986.1 mb 0.05 in1.3 mm 0.60 in15.2 mm 1.68 in42.7 mm
11:22 AM 40.5°F4.7°C 40.0°F4.4°C 98% 11.0 mph NNW17.7 kmh NNW 25.0 mph40.2 kmh 29.12 in986.1 mb 0.05 in1.3 mm 0.00 in0.0 mm 1.68 in42.7 mm
11:23 AM 40.5°F4.7°C 40.0°F4.4°C 98% 16.0 mph NW25.7 kmh NW 25.0 mph40.2 kmh 29.11 in985.8 mb 0.05 in1.3 mm 0.00 in0.0 mm 1.68 in42.7 mm
11:24 AM 40.5°F4.7°C 40.0°F4.4°C 98% 15.0 mph NNE24.1 kmh NNE 25.0 mph40.2 kmh 29.11 in985.8 mb 0.05 in1.3 mm 0.00 in0.0 mm 1.68 in42.7 mm
11:25 AM 40.5°F4.7°C 40.0°F4.4°C 98% 5.0 mph E8.0 kmh E 25.0 mph40.2 kmh 29.12 in986.1 mb 0.05 in1.3 mm 0.00 in0.0 mm 1.68 in42.7 mm
11:26 AM 40.5°F4.7°C 40.0°F4.4°C 98% 21.0 mph NNE33.8 kmh NNE 25.0 mph40.2 kmh 29.12 in986.1 mb 0.06 in1.5 mm 0.60 in15.2 mm 1.69 in42.9 mm
11:27 AM 40.5°F4.7°C 40.0°F4.4°C 98% 10.0 mph E16.1 kmh E 26.0 mph41.8 kmh 29.12 in986.1 mb 0.07 in1.8 mm 0.60 in15.2 mm 1.70 in43.2 mm
11:28 AM 40.5°F4.7°C 40.0°F4.4°C 98% 9.0 mph W14.5 kmh W 26.0 mph41.8 kmh 29.12 in986.1 mb 0.07 in1.8 mm 0.00 in0.0 mm 1.70 in43.2 mm
11:29 AM 40.5°F4.7°C 40.0°F4.4°C 98% 13.0 mph NNE20.9 kmh NNE 26.0 mph41.8 kmh 29.12 in986.1 mb 0.07 in1.8 mm 0.00 in0.0 mm 1.70 in43.2 mm
11:30 AM 40.5°F4.7°C 40.0°F4.4°C 98% 12.0 mph 19.3 kmh 26.0 mph41.8 kmh 29.12 in986.1 mb 0.08 in2.0 mm 0.60 in15.2 mm 1.71 in43.4 mm
11:31 AM 40.5°F4.7°C 40.0°F4.4°C 98% 15.0 mph NNE24.1 kmh NNE 26.0 mph41.8 kmh 29.13 in986.5 mb 0.09 in2.3 mm 0.60 in15.2 mm 1.72 in43.7 mm
11:32 AM 40.5°F4.7°C 40.0°F4.4°C 98% 11.0 mph W17.7 kmh W 26.0 mph41.8 kmh 29.13 in986.5 mb 0.09 in2.3 mm 0.00 in0.0 mm 1.72 in43.7 mm
11:33 AM 40.5°F4.7°C 40.0°F4.4°C 98% 10.0 mph NNE16.1 kmh NNE 26.0 mph41.8 kmh 29.12 in986.1 mb 0.09 in2.3 mm 0.00 in0.0 mm 1.72 in43.7 mm
11:34 AM 40.5°F4.7°C 40.0°F4.4°C 98% 11.0 mph NE17.7 kmh NE 26.0 mph41.8 kmh 29.12 in986.1 mb 0.10 in2.5 mm 0.60 in15.2 mm 1.73 in43.9 mm
11:35 AM 40.5°F4.7°C 40.0°F4.4°C 98% 12.0 mph NE19.3 kmh NE 26.0 mph41.8 kmh 29.12 in986.1 mb 0.11 in2.8 mm 0.60 in15.2 mm 1.74 in44.2 mm
11:36 AM 40.5°F4.7°C 40.0°F4.4°C 98% 12.0 mph NNE19.3 kmh NNE 26.0 mph41.8 kmh 29.12 in986.1 mb 0.11 in2.8 mm 0.00 in0.0 mm 1.74 in44.2 mm
11:37 AM 40.5°F4.7°C 40.0°F4.4°C 98% 15.0 mph W24.1 kmh W 23.0 mph37.0 kmh 29.12 in986.1 mb 0.11 in2.8 mm 0.00 in0.0 mm 1.74 in44.2 mm
11:38 AM 40.5°F4.7°C 40.0°F4.4°C 98% 15.0 mph NNE24.1 kmh NNE 23.0 mph37.0 kmh 29.12 in986.1 mb 0.12 in3.0 mm 0.60 in15.2 mm 1.75 in44.5 mm
11:39 AM 40.5°F4.7°C 40.0°F4.4°C 98% 6.0 mph E9.7 kmh E 23.0 mph37.0 kmh 29.12 in986.1 mb 0.12 in3.0 mm 0.00 in0.0 mm 1.75 in44.5 mm
11:40 AM 40.5°F4.7°C 40.0°F4.4°C 98% 13.0 mph NNE20.9 kmh NNE 23.0 mph37.0 kmh 29.12 in986.1 mb 0.13 in3.3 mm 0.60 in15.2 mm 1.76 in44.7 mm
11:41 AM 40.5°F4.7°C 40.0°F4.4°C 98% 10.0 mph 16.1 kmh 21.0 mph33.8 kmh 29.12 in986.1 mb 0.13 in3.3 mm 0.00 in0.0 mm 1.76 in44.7 mm
11:42 AM 40.5°F4.7°C 40.0°F4.4°C 98% 13.0 mph NE20.9 kmh NE 21.0 mph33.8 kmh 29.13 in986.5 mb 0.14 in3.6 mm 0.60 in15.2 mm 1.77 in45.0 mm
11:43 AM 40.5°F4.7°C 40.0°F4.4°C 98% 9.0 mph NW14.5 kmh NW 21.0 mph33.8 kmh 29.12 in986.1 mb 0.14 in3.6 mm 0.00 in0.0 mm 1.77 in45.0 mm
11:44 AM 40.5°F4.7°C 40.0°F4.4°C 98% 20.0 mph NW32.2 kmh NW 20.0 mph32.2 kmh 29.12 in986.1 mb 0.14 in3.6 mm 0.00 in0.0 mm 1.77 in45.0 mm
11:45 AM 40.5°F4.7°C 40.0°F4.4°C 98% 15.0 mph ENE24.1 kmh ENE 20.0 mph32.2 kmh 29.12 in986.1 mb 0.15 in3.8 mm 0.60 in15.2 mm 1.78 in45.2 mm
11:46 AM 40.7°F4.8°C 40.2°F4.6°C 98% 10.0 mph NNW16.1 kmh NNW 20.0 mph32.2 kmh 29.12 in986.1 mb 0.16 in4.1 mm 0.60 in15.2 mm 1.79 in45.5 mm
11:47 AM 40.7°F4.8°C 40.2°F4.6°C 98% 11.0 mph NW17.7 kmh NW 20.0 mph32.2 kmh 29.12 in986.1 mb 0.16 in4.1 mm 0.00 in0.0 mm 1.79 in45.5 mm
11:48 AM 40.7°F4.8°C 40.2°F4.6°C 98% 10.0 mph NNW16.1 kmh NNW 20.0 mph32.2 kmh 29.12 in986.1 mb 0.17 in4.3 mm 0.60 in15.2 mm 1.80 in45.7 mm
11:49 AM 40.7°F4.8°C 40.2°F4.6°C 98% 14.0 mph NNW22.5 kmh NNW 20.0 mph32.2 kmh 29.11 in985.8 mb 0.18 in4.6 mm 0.60 in15.2 mm 1.81 in46.0 mm
11:50 AM 40.7°F4.8°C 40.2°F4.6°C 98% 12.0 mph NNW19.3 kmh NNW 20.0 mph32.2 kmh 29.11 in985.8 mb 0.18 in4.6 mm 0.00 in0.0 mm 1.81 in46.0 mm
11:51 AM 40.7°F4.8°C 40.2°F4.6°C 98% 14.0 mph NNE22.5 kmh NNE 20.0 mph32.2 kmh 29.11 in985.8 mb 0.18 in4.6 mm 0.00 in0.0 mm 1.81 in46.0 mm
11:52 AM 40.7°F4.8°C 40.2°F4.6°C 98% 7.0 mph NNW11.3 kmh NNW 20.0 mph32.2 kmh 29.11 in985.8 mb 0.19 in4.8 mm 0.60 in15.2 mm 1.82 in46.2 mm
11:53 AM 40.7°F4.8°C 40.2°F4.6°C 98% 6.0 mph 9.7 kmh 20.0 mph32.2 kmh 29.12 in986.1 mb 0.19 in4.8 mm 0.00 in0.0 mm 1.82 in46.2 mm
11:54 AM 40.7°F4.8°C 40.2°F4.6°C 98% 8.0 mph 12.9 kmh 20.0 mph32.2 kmh 29.12 in986.1 mb 0.19 in4.8 mm 0.00 in0.0 mm 1.82 in46.2 mm
11:55 AM 40.7°F4.8°C 40.2°F4.6°C 98% 8.0 mph 12.9 kmh 20.0 mph32.2 kmh 29.12 in986.1 mb 0.19 in4.8 mm 0.00 in0.0 mm 1.82 in46.2 mm
11:56 AM 40.9°F4.9°C 40.4°F4.7°C 98% 8.0 mph W12.9 kmh W 20.0 mph32.2 kmh 29.13 in986.5 mb 0.20 in5.1 mm 0.60 in15.2 mm 1.83 in46.5 mm
11:57 AM 40.9°F4.9°C 40.4°F4.7°C 98% 10.0 mph NNE16.1 kmh NNE 20.0 mph32.2 kmh 29.12 in986.1 mb 0.20 in5.1 mm 0.00 in0.0 mm 1.83 in46.5 mm
11:58 AM 40.9°F4.9°C 40.4°F4.7°C 98% 10.0 mph NE16.1 kmh NE 20.0 mph32.2 kmh 29.12 in986.1 mb 0.21 in5.3 mm 0.60 in15.2 mm 1.84 in46.7 mm
11:59 AM 40.9°F4.9°C 40.4°F4.7°C 98% 18.0 mph WNW29.0 kmh WNW 18.0 mph29.0 kmh 29.12 in986.1 mb 0.22 in5.6 mm 0.60 in15.2 mm 1.85 in47.0 mm
12:00 PM 40.9°F4.9°C 40.4°F4.7°C 98% 9.0 mph 14.5 kmh 18.0 mph29.0 kmh 29.12 in986.1 mb 0.22 in5.6 mm 0.00 in0.0 mm 1.85 in47.0 mm
12:01 PM 40.9°F4.9°C 40.4°F4.7°C 98% 17.0 mph 27.4 kmh 18.0 mph29.0 kmh 29.11 in985.8 mb 0.23 in5.8 mm 0.60 in15.2 mm 1.86 in47.2 mm
12:02 PM 40.9°F4.9°C 40.4°F4.7°C 98% 8.0 mph NW12.9 kmh NW 18.0 mph29.0 kmh 29.11 in985.8 mb 0.23 in5.8 mm 0.00 in0.0 mm 1.86 in47.2 mm
12:03 PM 40.9°F4.9°C 40.4°F4.7°C 98% 8.0 mph NE12.9 kmh NE 18.0 mph29.0 kmh 29.10 in985.4 mb 0.23 in5.8 mm 0.00 in0.0 mm 1.86 in47.2 mm
12:04 PM 40.9°F4.9°C 40.4°F4.7°C 98% 7.0 mph NNE11.3 kmh NNE 18.0 mph29.0 kmh 29.10 in985.4 mb 0.24 in6.1 mm 0.60 in15.2 mm 1.87 in47.5 mm
12:05 PM 40.9°F4.9°C 40.4°F4.7°C 98% 15.0 mph NE24.1 kmh NE 18.0 mph29.0 kmh 29.11 in985.8 mb 0.24 in6.1 mm 0.00 in0.0 mm 1.87 in47.5 mm
12:06 PM 41.1°F5.1°C 40.6°F4.8°C 98% 19.0 mph NNE30.6 kmh NNE 19.0 mph30.6 kmh 29.11 in985.8 mb 0.00 in0.0 mm 0.00 in0.0 mm 1.88 in47.8 mm
12:07 PM 41.1°F5.1°C 40.6°F4.8°C 98% 13.0 mph 20.9 kmh 19.0 mph30.6 kmh 29.11 in985.8 mb 0.00 in0.0 mm 0.00 in0.0 mm 1.88 in47.8 mm
12:08 PM 41.1°F5.1°C 40.6°F4.8°C 98% 19.0 mph NNE30.6 kmh NNE 19.0 mph30.6 kmh 29.11 in985.8 mb 0.00 in0.0 mm 0.00 in0.0 mm 1.88 in47.8 mm
12:09 PM 41.1°F5.1°C 40.6°F4.8°C 98% 26.0 mph NE41.8 kmh NE 26.0 mph41.8 kmh 29.12 in986.1 mb 0.01 in0.3 mm 0.60 in15.2 mm 1.89 in48.0 mm
12:10 PM 41.1°F5.1°C 40.6°F4.8°C 98% 15.0 mph NE24.1 kmh NE 26.0 mph41.8 kmh 29.12 in986.1 mb 0.01 in0.3 mm 0.00 in0.0 mm 1.89 in48.0 mm
12:11 PM 41.4°F5.2°C 40.9°F4.9°C 98% 13.0 mph NNW20.9 kmh NNW 26.0 mph41.8 kmh 29.11 in985.8 mb 0.01 in0.3 mm 0.00 in0.0 mm 1.89 in48.0 mm
12:12 PM 41.4°F5.2°C 40.9°F4.9°C 98% 22.0 mph NW35.4 kmh NW 26.0 mph41.8 kmh 29.11 in985.8 mb 0.01 in0.3 mm 0.00 in0.0 mm 1.89 in48.0 mm
12:13 PM 41.4°F5.2°C 40.9°F4.9°C 98% 15.0 mph 24.1 kmh 26.0 mph41.8 kmh 29.12 in986.1 mb 0.02 in0.5 mm 0.60 in15.2 mm 1.90 in48.3 mm
12:14 PM 41.4°F5.2°C 40.9°F4.9°C 98% 12.0 mph 19.3 kmh 26.0 mph41.8 kmh 29.12 in986.1 mb 0.02 in0.5 mm 0.00 in0.0 mm 1.90 in48.3 mm
12:15 PM 41.4°F5.2°C 40.9°F4.9°C 98% 16.0 mph NNE25.7 kmh NNE 26.0 mph41.8 kmh 29.11 in985.8 mb 0.03 in0.8 mm 0.60 in15.2 mm 1.91 in48.5 mm
12:16 PM 41.5°F5.3°C 41.0°F5.0°C 98% 12.0 mph NNW19.3 kmh NNW 26.0 mph41.8 kmh 29.11 in985.8 mb 0.03 in0.8 mm 0.00 in0.0 mm 1.91 in48.5 mm
12:17 PM 41.5°F5.3°C 41.0°F5.0°C 98% 14.0 mph NNW22.5 kmh NNW 26.0 mph41.8 kmh 29.11 in985.8 mb 0.03 in0.8 mm 0.00 in0.0 mm 1.91 in48.5 mm
12:18 PM 41.5°F5.3°C 41.0°F5.0°C 98% 8.0 mph 12.9 kmh 26.0 mph41.8 kmh 29.11 in985.8 mb 0.03 in0.8 mm 0.00 in0.0 mm 1.91 in48.5 mm
12:19 PM 41.7°F5.4°C 41.2°F5.1°C 98% 13.0 mph ENE20.9 kmh ENE 22.0 mph35.4 kmh 29.12 in986.1 mb 0.04 in1.0 mm 0.60 in15.2 mm 1.92 in48.8 mm
12:20 PM 41.7°F5.4°C 41.2°F5.1°C 98% 21.0 mph NNW33.8 kmh NNW 22.0 mph35.4 kmh 29.12 in986.1 mb 0.04 in1.0 mm 0.00 in0.0 mm 1.92 in48.8 mm
12:21 PM 41.7°F5.4°C 41.2°F5.1°C 98% 20.0 mph NNW32.2 kmh NNW 22.0 mph35.4 kmh 29.12 in986.1 mb 0.05 in1.3 mm 0.60 in15.2 mm 1.93 in49.0 mm
12:22 PM 41.7°F5.4°C 41.2°F5.1°C 98% 7.0 mph NNW11.3 kmh NNW 21.0 mph33.8 kmh 29.12 in986.1 mb 0.05 in1.3 mm 0.00 in0.0 mm 1.93 in49.0 mm
12:23 PM 41.7°F5.4°C 41.2°F5.1°C 98% 9.0 mph NNE14.5 kmh NNE 21.0 mph33.8 kmh 29.11 in985.8 mb 0.05 in1.3 mm 0.00 in0.0 mm 1.93 in49.0 mm
12:24 PM 41.9°F5.5°C 41.4°F5.2°C 98% 13.0 mph NW20.9 kmh NW 21.0 mph33.8 kmh 29.11 in985.8 mb 0.05 in1.3 mm 0.00 in0.0 mm 1.93 in49.0 mm
12:25 PM 41.9°F5.5°C 41.4°F5.2°C 98% 18.0 mph W29.0 kmh W 26.0 mph41.8 kmh 29.11 in985.8 mb 0.05 in1.3 mm 0.00 in0.0 mm 1.93 in49.0 mm
12:26 PM 41.9°F5.5°C 41.4°F5.2°C 98% 8.0 mph NNW12.9 kmh NNW 26.0 mph41.8 kmh 29.12 in986.1 mb 0.06 in1.5 mm 0.60 in15.2 mm 1.94 in49.3 mm
12:27 PM 41.9°F5.5°C 41.4°F5.2°C 98% 6.0 mph NW9.7 kmh NW 26.0 mph41.8 kmh 29.12 in986.1 mb 0.06 in1.5 mm 0.00 in0.0 mm 1.94 in49.3 mm
12:28 PM 41.9°F5.5°C 41.4°F5.2°C 98% 13.0 mph NNW20.9 kmh NNW 26.0 mph41.8 kmh 29.12 in986.1 mb 0.06 in1.5 mm 0.00 in0.0 mm 1.94 in49.3 mm
12:29 PM 41.9°F5.5°C 41.4°F5.2°C 98% 14.0 mph NW22.5 kmh NW 26.0 mph41.8 kmh 29.10 in985.4 mb 0.07 in1.8 mm 0.60 in15.2 mm 1.95 in49.5 mm
12:30 PM 41.9°F5.5°C 41.4°F5.2°C 98% 7.0 mph NE11.3 kmh NE 26.0 mph41.8 kmh 29.10 in985.4 mb 0.07 in1.8 mm 0.00 in0.0 mm 1.95 in49.5 mm
12:31 PM 42.1°F5.6°C 41.6°F5.3°C 98% 8.0 mph NNE12.9 kmh NNE 26.0 mph41.8 kmh 29.11 in985.8 mb 0.07 in1.8 mm 0.00 in0.0 mm 1.95 in49.5 mm
12:32 PM 42.1°F5.6°C 41.6°F5.3°C 98% 10.0 mph 16.1 kmh 26.0 mph41.8 kmh 29.11 in985.8 mb 0.07 in1.8 mm 0.00 in0.0 mm 1.95 in49.5 mm
12:33 PM 42.1°F5.6°C 41.6°F5.3°C 98% 12.0 mph NNE19.3 kmh NNE 26.0 mph41.8 kmh 29.11 in985.8 mb 0.08 in2.0 mm 0.60 in15.2 mm 1.96 in49.8 mm
12:34 PM 42.1°F5.6°C 41.6°F5.3°C 98% 8.0 mph NNE12.9 kmh NNE 26.0 mph41.8 kmh 29.11 in985.8 mb 0.08 in2.0 mm 0.00 in0.0 mm 1.96 in49.8 mm
12:35 PM 42.1°F5.6°C 41.6°F5.3°C 98% 9.0 mph NNE14.5 kmh NNE 24.0 mph38.6 kmh 29.10 in985.4 mb 0.09 in2.3 mm 0.60 in15.2 mm 1.97 in50.0 mm
12:36 PM 42.1°F5.6°C 41.6°F5.3°C 98% 9.0 mph NNE14.5 kmh NNE 24.0 mph38.6 kmh 29.10 in985.4 mb 0.09 in2.3 mm 0.00 in0.0 mm 1.97 in50.0 mm
12:37 PM 42.1°F5.6°C 41.6°F5.3°C 98% 18.0 mph NNW29.0 kmh NNW 24.0 mph38.6 kmh 29.10 in985.4 mb 0.10 in2.5 mm 0.60 in15.2 mm 1.98 in50.3 mm
12:38 PM 42.1°F5.6°C 41.6°F5.3°C 98% 19.0 mph NNW30.6 kmh NNW 24.0 mph38.6 kmh 29.10 in985.4 mb 0.10 in2.5 mm 0.00 in0.0 mm 1.98 in50.3 mm
12:39 PM 42.1°F5.6°C 41.6°F5.3°C 98% 15.0 mph NNW24.1 kmh NNW 24.0 mph38.6 kmh 29.09 in985.1 mb 0.10 in2.5 mm 0.00 in0.0 mm 1.98 in50.3 mm
12:40 PM 42.1°F5.6°C 41.6°F5.3°C 98% 5.0 mph NE8.0 kmh NE 24.0 mph38.6 kmh 29.09 in985.1 mb 0.10 in2.5 mm 0.00 in0.0 mm 1.98 in50.3 mm
12:41 PM 42.1°F5.6°C 41.6°F5.3°C 98% 7.0 mph NNE11.3 kmh NNE 24.0 mph38.6 kmh 29.10 in985.4 mb 0.11 in2.8 mm 0.60 in15.2 mm 1.99 in50.5 mm
12:42 PM 42.1°F5.6°C 41.6°F5.3°C 98% 14.0 mph ENE22.5 kmh ENE 24.0 mph38.6 kmh 29.10 in985.4 mb 0.11 in2.8 mm 0.00 in0.0 mm 1.99 in50.5 mm
12:43 PM 42.1°F5.6°C 41.6°F5.3°C 98% 6.0 mph NNE9.7 kmh NNE 24.0 mph38.6 kmh 29.10 in985.4 mb 0.12 in3.0 mm 0.60 in15.2 mm 2.00 in50.8 mm
12:44 PM 42.1°F5.6°C 41.6°F5.3°C 98% 6.0 mph NNE9.7 kmh NNE 24.0 mph38.6 kmh 29.09 in985.1 mb 0.12 in3.0 mm 0.00 in0.0 mm 2.00 in50.8 mm
12:45 PM 42.1°F5.6°C 41.6°F5.3°C 98% 16.0 mph NNW25.7 kmh NNW 24.0 mph38.6 kmh 29.09 in985.1 mb 0.13 in3.3 mm 0.60 in15.2 mm 2.01 in51.1 mm
12:46 PM 42.1°F5.6°C 41.6°F5.3°C 98% 6.0 mph E9.7 kmh E 24.0 mph38.6 kmh 29.09 in985.1 mb 0.13 in3.3 mm 0.00 in0.0 mm 2.01 in51.1 mm
12:47 PM 42.1°F5.6°C 41.6°F5.3°C 98% 14.0 mph NNE22.5 kmh NNE 24.0 mph38.6 kmh 29.09 in985.1 mb 0.14 in3.6 mm 0.60 in15.2 mm 2.02 in51.3 mm
12:48 PM 42.1°F5.6°C 41.6°F5.3°C 98% 8.0 mph 12.9 kmh 21.0 mph33.8 kmh 29.09 in985.1 mb 0.15 in3.8 mm 0.60 in15.2 mm 2.03 in51.6 mm
12:49 PM 42.1°F5.6°C 41.6°F5.3°C 98% 14.0 mph NNE22.5 kmh NNE 21.0 mph33.8 kmh 29.09 in985.1 mb 0.15 in3.8 mm 0.00 in0.0 mm 2.03 in51.6 mm
12:50 PM 42.1°F5.6°C 41.6°F5.3°C 98% 15.0 mph NNW24.1 kmh NNW 24.0 mph38.6 kmh 29.09 in985.1 mb 0.16 in4.1 mm 0.60 in15.2 mm 2.04 in51.8 mm
12:51 PM 42.1°F5.6°C 41.6°F5.3°C 98% 22.0 mph NW35.4 kmh NW 24.0 mph38.6 kmh 29.08 in984.8 mb 0.16 in4.1 mm 0.00 in0.0 mm 2.04 in51.8 mm
12:52 PM 42.1°F5.6°C 41.6°F5.3°C 98% 18.0 mph NNE29.0 kmh NNE 24.0 mph38.6 kmh 29.08 in984.8 mb 0.17 in4.3 mm 0.60 in15.2 mm 2.05 in52.1 mm
12:53 PM 42.1°F5.6°C 41.6°F5.3°C 98% 18.0 mph NNW29.0 kmh NNW 24.0 mph38.6 kmh 29.08 in984.8 mb 0.18 in4.6 mm 0.60 in15.2 mm 2.06 in52.3 mm
12:54 PM 42.1°F5.6°C 41.6°F5.3°C 98% 27.0 mph NW43.5 kmh NW 27.0 mph43.5 kmh 29.08 in984.8 mb 0.18 in4.6 mm 0.00 in0.0 mm 2.06 in52.3 mm
12:55 PM 42.1°F5.6°C 41.6°F5.3°C 98% 17.0 mph NNW27.4 kmh NNW 27.0 mph43.5 kmh 29.09 in985.1 mb 0.19 in4.8 mm 0.60 in15.2 mm 2.07 in52.6 mm
12:56 PM 42.1°F5.6°C 41.6°F5.3°C 98% 15.0 mph NNE24.1 kmh NNE 27.0 mph43.5 kmh 29.08 in984.8 mb 0.19 in4.8 mm 0.00 in0.0 mm 2.07 in52.6 mm
12:57 PM 42.1°F5.6°C 41.6°F5.3°C 98% 10.0 mph W16.1 kmh W 27.0 mph43.5 kmh 29.08 in984.8 mb 0.20 in5.1 mm 0.60 in15.2 mm 2.08 in52.8 mm
12:58 PM 42.1°F5.6°C 41.6°F5.3°C 98% 21.0 mph NNW33.8 kmh NNW 27.0 mph43.5 kmh 29.08 in984.8 mb 0.20 in5.1 mm 0.00 in0.0 mm 2.08 in52.8 mm
12:59 PM 42.1°F5.6°C 41.6°F5.3°C 98% 13.0 mph NNE20.9 kmh NNE 27.0 mph43.5 kmh 29.08 in984.8 mb 0.20 in5.1 mm 0.00 in0.0 mm 2.08 in52.8 mm
01:00 PM 42.1°F5.6°C 41.6°F5.3°C 98% 17.0 mph NNW27.4 kmh NNW 27.0 mph43.5 kmh 29.07 in984.4 mb 0.21 in5.3 mm 0.01 in0.3 mm 2.09 in53.1 mm
01:01 PM 42.1°F5.6°C 41.6°F5.3°C 98% 12.0 mph NE19.3 kmh NE 27.0 mph43.5 kmh 29.08 in984.8 mb 0.21 in5.3 mm 0.00 in0.0 mm 2.09 in53.1 mm
01:02 PM 42.1°F5.6°C 41.6°F5.3°C 98% 5.0 mph NNE8.0 kmh NNE 27.0 mph43.5 kmh 29.08 in984.8 mb 0.22 in5.6 mm 0.60 in15.2 mm 2.10 in53.3 mm
01:03 PM 42.1°F5.6°C 41.6°F5.3°C 98% 13.0 mph NE20.9 kmh NE 27.0 mph43.5 kmh 29.08 in984.8 mb 0.22 in5.6 mm 0.00 in0.0 mm 2.10 in53.3 mm
01:04 PM 42.1°F5.6°C 41.6°F5.3°C 98% 12.0 mph ENE19.3 kmh ENE 24.0 mph38.6 kmh 29.08 in984.8 mb 0.23 in5.8 mm 0.60 in15.2 mm 2.11 in53.6 mm
01:05 PM 42.1°F5.6°C 41.6°F5.3°C 98% 13.0 mph 20.9 kmh 24.0 mph38.6 kmh 29.07 in984.4 mb 0.23 in5.8 mm 0.00 in0.0 mm 2.11 in53.6 mm
01:06 PM 42.1°F5.6°C 41.6°F5.3°C 98% 4.0 mph NE6.4 kmh NE 24.0 mph38.6 kmh 29.07 in984.4 mb 0.24 in6.1 mm 0.60 in15.2 mm 2.12 in53.8 mm
01:07 PM 42.1°F5.6°C 41.6°F5.3°C 98% 13.0 mph NNE20.9 kmh NNE 24.0 mph38.6 kmh 29.07 in984.4 mb 0.00 in0.0 mm 0.00 in0.0 mm 2.12 in53.8 mm
01:08 PM 42.1°F5.6°C 41.6°F5.3°C 98% 22.0 mph NNE35.4 kmh NNE 24.0 mph38.6 kmh 29.07 in984.4 mb 0.00 in0.0 mm 0.00 in0.0 mm 2.12 in53.8 mm
01:09 PM 42.1°F5.6°C 41.6°F5.3°C 98% 25.0 mph NNE40.2 kmh NNE 25.0 mph40.2 kmh 29.08 in984.8 mb 0.01 in0.3 mm 0.60 in15.2 mm 2.13 in54.1 mm
01:10 PM 42.1°F5.6°C 41.6°F5.3°C 98% 16.0 mph NNE25.7 kmh NNE 25.0 mph40.2 kmh 29.08 in984.8 mb 0.02 in0.5 mm 0.60 in15.2 mm 2.14 in54.4 mm
01:11 PM 42.1°F5.6°C 41.6°F5.3°C 98% 18.0 mph NNE29.0 kmh NNE 25.0 mph40.2 kmh 29.07 in984.4 mb 0.02 in0.5 mm 0.00 in0.0 mm 2.14 in54.4 mm
01:12 PM 42.1°F5.6°C 41.6°F5.3°C 98% 13.0 mph NNW20.9 kmh NNW 25.0 mph40.2 kmh 29.07 in984.4 mb 0.03 in0.8 mm 0.60 in15.2 mm 2.15 in54.6 mm
01:13 PM 42.1°F5.6°C 41.6°F5.3°C 98% 9.0 mph NNW14.5 kmh NNW 25.0 mph40.2 kmh 29.07 in984.4 mb 0.03 in0.8 mm 0.00 in0.0 mm 2.15 in54.6 mm
01:14 PM 42.1°F5.6°C 41.6°F5.3°C 98% 13.0 mph NNE20.9 kmh NNE 25.0 mph40.2 kmh 29.07 in984.4 mb 0.03 in0.8 mm 0.00 in0.0 mm 2.15 in54.6 mm
01:15 PM 42.1°F5.6°C 41.6°F5.3°C 98% 17.0 mph NNE27.4 kmh NNE 25.0 mph40.2 kmh 29.08 in984.8 mb 0.04 in1.0 mm 0.60 in15.2 mm 2.16 in54.9 mm
01:16 PM 42.3°F5.7°C 41.8°F5.4°C 98% 11.0 mph NNE17.7 kmh NNE 25.0 mph40.2 kmh 29.08 in984.8 mb 0.05 in1.3 mm 0.60 in15.2 mm 2.17 in55.1 mm
01:17 PM 42.3°F5.7°C 41.8°F5.4°C 98% 22.0 mph 35.4 kmh 25.0 mph40.2 kmh 29.08 in984.8 mb 0.05 in1.3 mm 0.00 in0.0 mm 2.17 in55.1 mm
01:18 PM 42.3°F5.7°C 41.8°F5.4°C 98% 17.0 mph NNW27.4 kmh NNW 25.0 mph40.2 kmh 29.08 in984.8 mb 0.06 in1.5 mm 0.60 in15.2 mm 2.18 in55.4 mm
01:19 PM 42.3°F5.7°C 41.8°F5.4°C 98% 17.0 mph NNE27.4 kmh NNE 25.0 mph40.2 kmh 29.08 in984.8 mb 0.06 in1.5 mm 0.00 in0.0 mm 2.18 in55.4 mm
01:20 PM 42.3°F5.7°C 41.8°F5.4°C 98% 15.0 mph NNW24.1 kmh NNW 24.0 mph38.6 kmh 29.07 in984.4 mb 0.06 in1.5 mm 0.00 in0.0 mm 2.18 in55.4 mm
01:21 PM 42.3°F5.7°C 41.8°F5.4°C 98% 15.0 mph W24.1 kmh W 24.0 mph38.6 kmh 29.07 in984.4 mb 0.06 in1.5 mm 0.00 in0.0 mm 2.18 in55.4 mm
01:22 PM 42.3°F5.7°C 41.8°F5.4°C 98% 16.0 mph NNE25.7 kmh NNE 25.0 mph40.2 kmh 29.07 in984.4 mb 0.07 in1.8 mm 0.60 in15.2 mm 2.19 in55.6 mm
01:23 PM 42.3°F5.7°C 41.8°F5.4°C 98% 15.0 mph NNW24.1 kmh NNW 25.0 mph40.2 kmh 29.08 in984.8 mb 0.07 in1.8 mm 0.00 in0.0 mm 2.19 in55.6 mm
01:24 PM 42.3°F5.7°C 41.8°F5.4°C 98% 9.0 mph NNE14.5 kmh NNE 25.0 mph40.2 kmh 29.08 in984.8 mb 0.07 in1.8 mm 0.00 in0.0 mm 2.19 in55.6 mm
01:25 PM 42.3°F5.7°C 41.8°F5.4°C 98% 13.0 mph ENE20.9 kmh ENE 25.0 mph40.2 kmh 29.07 in984.4 mb 0.08 in2.0 mm 0.60 in15.2 mm 2.20 in55.9 mm
01:26 PM 42.3°F5.7°C 41.8°F5.4°C 98% 15.0 mph WNW24.1 kmh WNW 25.0 mph40.2 kmh 29.07 in984.4 mb 0.08 in2.0 mm 0.00 in0.0 mm 2.20 in55.9 mm
01:27 PM 42.3°F5.7°C 41.8°F5.4°C 98% 17.0 mph NNW27.4 kmh NNW 25.0 mph40.2 kmh 29.07 in984.4 mb 0.09 in2.3 mm 0.60 in15.2 mm 2.21 in56.1 mm
01:28 PM 42.4°F5.8°C 41.9°F5.5°C 98% 17.0 mph WNW27.4 kmh WNW 25.0 mph40.2 kmh 29.07 in984.4 mb 0.09 in2.3 mm 0.00 in0.0 mm 2.21 in56.1 mm
01:29 PM 42.4°F5.8°C 41.9°F5.5°C 98% 11.0 mph ENE17.7 kmh ENE 25.0 mph40.2 kmh 29.08 in984.8 mb 0.10 in2.5 mm 0.60 in15.2 mm 2.22 in56.4 mm
01:30 PM 42.4°F5.8°C 41.9°F5.5°C 98% 9.0 mph ENE14.5 kmh ENE 25.0 mph40.2 kmh 29.08 in984.8 mb 0.10 in2.5 mm 0.00 in0.0 mm 2.22 in56.4 mm
01:31 PM 42.4°F5.8°C 41.9°F5.5°C 98% 19.0 mph NNW30.6 kmh NNW 25.0 mph40.2 kmh 29.07 in984.4 mb 0.10 in2.5 mm 0.00 in0.0 mm 2.22 in56.4 mm
01:32 PM 42.4°F5.8°C 41.9°F5.5°C 98% 10.0 mph NNE16.1 kmh NNE 20.0 mph32.2 kmh 29.07 in984.4 mb 0.11 in2.8 mm 0.60 in15.2 mm 2.23 in56.6 mm
01:33 PM 42.4°F5.8°C 41.9°F5.5°C 98% 20.0 mph 32.2 kmh 25.0 mph40.2 kmh 29.07 in984.4 mb 0.12 in3.0 mm 0.60 in15.2 mm 2.24 in56.9 mm
01:34 PM 42.5°F5.8°C 42.0°F5.6°C 98% 15.0 mph WNW24.1 kmh WNW 25.0 mph40.2 kmh 29.07 in984.4 mb 0.12 in3.0 mm 0.00 in0.0 mm 2.24 in56.9 mm
01:35 PM 42.5°F5.8°C 42.0°F5.6°C 98% 11.0 mph WNW17.7 kmh WNW 25.0 mph40.2 kmh 29.07 in984.4 mb 0.12 in3.0 mm 0.00 in0.0 mm 2.24 in56.9 mm
01:36 PM 42.5°F5.8°C 42.0°F5.6°C 98% 20.0 mph NNE32.2 kmh NNE 25.0 mph40.2 kmh 29.07 in984.4 mb 0.13 in3.3 mm 0.60 in15.2 mm 2.25 in57.2 mm
01:37 PM 42.5°F5.8°C 42.0°F5.6°C 98% 16.0 mph ENE25.7 kmh ENE 25.0 mph40.2 kmh 29.06 in984.1 mb 0.13 in3.3 mm 0.00 in0.0 mm 2.25 in57.2 mm
01:38 PM 42.7°F5.9°C 42.2°F5.7°C 98% 16.0 mph WNW25.7 kmh WNW 25.0 mph40.2 kmh 29.07 in984.4 mb 0.14 in3.6 mm 0.60 in15.2 mm 2.26 in57.4 mm
01:39 PM 42.7°F5.9°C 42.2°F5.7°C 98% 18.0 mph NE29.0 kmh NE 25.0 mph40.2 kmh 29.06 in984.1 mb 0.14 in3.6 mm 0.00 in0.0 mm 2.26 in57.4 mm
01:40 PM 42.7°F5.9°C 42.2°F5.7°C 98% 19.0 mph WNW30.6 kmh WNW 25.0 mph40.2 kmh 29.05 in983.7 mb 0.14 in3.6 mm 0.00 in0.0 mm 2.26 in57.4 mm
01:41 PM 43.0°F6.1°C 42.5°F5.8°C 98% 15.0 mph 24.1 kmh 25.0 mph40.2 kmh 29.05 in983.7 mb 0.15 in3.8 mm 0.60 in15.2 mm 2.27 in57.7 mm
01:42 PM 43.0°F6.1°C 42.5°F5.8°C 98% 14.0 mph NNE22.5 kmh NNE 25.0 mph40.2 kmh 29.06 in984.1 mb 0.16 in4.1 mm 0.60 in15.2 mm 2.28 in57.9 mm
01:43 PM 43.0°F6.1°C 42.5°F5.8°C 98% 12.0 mph 19.3 kmh 24.0 mph38.6 kmh 29.06 in984.1 mb 0.16 in4.1 mm 0.00 in0.0 mm 2.28 in57.9 mm
01:44 PM 43.0°F6.1°C 42.5°F5.8°C 98% 18.0 mph NNW29.0 kmh NNW 24.0 mph38.6 kmh 29.06 in984.1 mb 0.16 in4.1 mm 0.00 in0.0 mm 2.28 in57.9 mm
01:45 PM 43.0°F6.1°C 42.5°F5.8°C 98% 15.0 mph NNW24.1 kmh NNW 24.0 mph38.6 kmh 29.05 in983.7 mb 0.17 in4.3 mm 0.60 in15.2 mm 2.29 in58.2 mm
01:46 PM 43.2°F6.2°C 42.7°F5.9°C 98% 15.0 mph NNE24.1 kmh NNE 24.0 mph38.6 kmh 29.05 in983.7 mb 0.17 in4.3 mm 0.00 in0.0 mm 2.29 in58.2 mm
01:47 PM 43.2°F6.2°C 42.7°F5.9°C 98% 12.0 mph NNW19.3 kmh NNW 24.0 mph38.6 kmh 29.06 in984.1 mb 0.18 in4.6 mm 0.60 in15.2 mm 2.30 in58.4 mm
01:48 PM 43.2°F6.2°C 42.7°F5.9°C 98% 7.0 mph 11.3 kmh 24.0 mph38.6 kmh 29.06 in984.1 mb 0.18 in4.6 mm 0.00 in0.0 mm 2.30 in58.4 mm
01:49 PM 43.2°F6.2°C 42.7°F5.9°C 98% 10.0 mph NE16.1 kmh NE 24.0 mph38.6 kmh 29.06 in984.1 mb 0.18 in4.6 mm 0.00 in0.0 mm 2.30 in58.4 mm
01:50 PM 43.2°F6.2°C 42.7°F5.9°C 98% 18.0 mph NNW29.0 kmh NNW 24.0 mph38.6 kmh 29.06 in984.1 mb 0.19 in4.8 mm 0.60 in15.2 mm 2.31 in58.7 mm
01:51 PM 43.2°F6.2°C 42.7°F5.9°C 98% 22.0 mph WNW35.4 kmh WNW 29.0 mph46.7 kmh 29.05 in983.7 mb 0.19 in4.8 mm 0.00 in0.0 mm 2.31 in58.7 mm
01:52 PM 43.2°F6.2°C 42.7°F5.9°C 98% 18.0 mph NW29.0 kmh NW 29.0 mph46.7 kmh 29.05 in983.7 mb 0.19 in4.8 mm 0.00 in0.0 mm 2.31 in58.7 mm
01:54 PM 43.4°F6.3°C 42.8°F6.0°C 98% 21.0 mph NNW33.8 kmh NNW 29.0 mph46.7 kmh 29.05 in983.7 mb 0.19 in4.8 mm 0.00 in0.0 mm 2.31 in58.7 mm
01:55 PM 43.4°F6.3°C 42.8°F6.0°C 98% 10.0 mph NNE16.1 kmh NNE 29.0 mph46.7 kmh 29.05 in983.7 mb 0.21 in5.3 mm 1.20 in30.5 mm 2.33 in59.2 mm
01:56 PM 43.4°F6.3°C 42.8°F6.0°C 98% 12.0 mph NNW19.3 kmh NNW 29.0 mph46.7 kmh 29.05 in983.7 mb 0.21 in5.3 mm 0.00 in0.0 mm 2.33 in59.2 mm
01:57 PM 43.4°F6.3°C 42.8°F6.0°C 98% 18.0 mph NNW29.0 kmh NNW 29.0 mph46.7 kmh 29.06 in984.1 mb 0.21 in5.3 mm 0.00 in0.0 mm 2.33 in59.2 mm
01:58 PM 43.4°F6.3°C 42.8°F6.0°C 98% 15.0 mph NNW24.1 kmh NNW 29.0 mph46.7 kmh 29.06 in984.1 mb 0.22 in5.6 mm 0.60 in15.2 mm 2.34 in59.4 mm
01:59 PM 43.4°F6.3°C 42.8°F6.0°C 98% 10.0 mph E16.1 kmh E 29.0 mph46.7 kmh 29.05 in983.7 mb 0.22 in5.6 mm 0.00 in0.0 mm 2.34 in59.4 mm
02:00 PM 43.6°F6.4°C 43.0°F6.1°C 98% 18.0 mph WNW29.0 kmh WNW 29.0 mph46.7 kmh 29.05 in983.7 mb 0.22 in5.6 mm 0.00 in0.0 mm 2.34 in59.4 mm
02:01 PM 43.6°F6.4°C 43.0°F6.1°C 98% 12.0 mph NNE19.3 kmh NNE 28.0 mph45.1 kmh 29.05 in983.7 mb 0.22 in5.6 mm 0.00 in0.0 mm 2.34 in59.4 mm
02:02 PM 43.6°F6.4°C 43.0°F6.1°C 98% 20.0 mph SE32.2 kmh SE 28.0 mph45.1 kmh 29.05 in983.7 mb 0.22 in5.6 mm 0.00 in0.0 mm 2.34 in59.4 mm
02:03 PM 43.6°F6.4°C 43.0°F6.1°C 98% 15.0 mph NNW24.1 kmh NNW 24.0 mph38.6 kmh 29.05 in983.7 mb 0.23 in5.8 mm 0.60 in15.2 mm 2.35 in59.7 mm
02:04 PM 43.6°F6.4°C 43.0°F6.1°C 98% 17.0 mph NNE27.4 kmh NNE 24.0 mph38.6 kmh 29.05 in983.7 mb 0.24 in6.1 mm 0.60 in15.2 mm 2.36 in59.9 mm
02:05 PM 43.9°F6.6°C 43.3°F6.3°C 98% 24.0 mph NNW38.6 kmh NNW 34.0 mph54.7 kmh 29.04 in983.4 mb 0.24 in6.1 mm 0.00 in0.0 mm 2.36 in59.9 mm
02:06 PM 43.9°F6.6°C 43.3°F6.3°C 98% 19.0 mph NNE30.6 kmh NNE 34.0 mph54.7 kmh 29.05 in983.7 mb 0.24 in6.1 mm 0.00 in0.0 mm 2.36 in59.9 mm
02:07 PM 43.9°F6.6°C 43.3°F6.3°C 98% 17.0 mph 27.4 kmh 34.0 mph54.7 kmh 29.05 in983.7 mb 0.00 in0.0 mm 0.00 in0.0 mm 2.37 in60.2 mm
02:08 PM 43.9°F6.6°C 43.3°F6.3°C 98% 14.0 mph NNW22.5 kmh NNW 34.0 mph54.7 kmh 29.05 in983.7 mb 0.00 in0.0 mm 0.00 in0.0 mm 2.37 in60.2 mm
02:09 PM 43.9°F6.6°C 43.3°F6.3°C 98% 15.0 mph W24.1 kmh W 34.0 mph54.7 kmh 29.05 in983.7 mb 0.00 in0.0 mm 0.00 in0.0 mm 2.37 in60.2 mm
02:10 PM 43.9°F6.6°C 43.3°F6.3°C 98% 20.0 mph WNW32.2 kmh WNW 34.0 mph54.7 kmh 29.05 in983.7 mb 0.01 in0.3 mm 0.60 in15.2 mm 2.38 in60.5 mm
02:11 PM 43.9°F6.6°C 43.3°F6.3°C 98% 11.0 mph NNW17.7 kmh NNW 34.0 mph54.7 kmh 29.05 in983.7 mb 0.01 in0.3 mm 0.00 in0.0 mm 2.38 in60.5 mm
02:12 PM 43.9°F6.6°C 43.3°F6.3°C 98% 15.0 mph NW24.1 kmh NW 34.0 mph54.7 kmh 29.05 in983.7 mb 0.01 in0.3 mm 0.00 in0.0 mm 2.38 in60.5 mm
02:13 PM 43.9°F6.6°C 43.3°F6.3°C 98% 17.0 mph NNE27.4 kmh NNE 34.0 mph54.7 kmh 29.05 in983.7 mb 0.01 in0.3 mm 0.00 in0.0 mm 2.38 in60.5 mm
02:14 PM 43.9°F6.6°C 43.3°F6.3°C 98% 12.0 mph NNW19.3 kmh NNW 34.0 mph54.7 kmh 29.05 in983.7 mb 0.02 in0.5 mm 0.60 in15.2 mm 2.39 in60.7 mm
02:15 PM 43.9°F6.6°C 43.3°F6.3°C 98% 21.0 mph NNE33.8 kmh NNE 29.0 mph46.7 kmh 29.05 in983.7 mb 0.02 in0.5 mm 0.00 in0.0 mm 2.39 in60.7 mm
02:16 PM 43.9°F6.6°C 43.3°F6.3°C 98% 15.0 mph 24.1 kmh 29.0 mph46.7 kmh 29.05 in983.7 mb 0.02 in0.5 mm 0.00 in0.0 mm 2.39 in60.7 mm
02:17 PM 43.9°F6.6°C 43.3°F6.3°C 98% 15.0 mph NNE24.1 kmh NNE 29.0 mph46.7 kmh 29.05 in983.7 mb 0.02 in0.5 mm 0.00 in0.0 mm 2.39 in60.7 mm
02:18 PM 44.0°F6.7°C 43.4°F6.3°C 98% 25.0 mph NNW40.2 kmh NNW 29.0 mph46.7 kmh 29.05 in983.7 mb 0.03 in0.8 mm 0.60 in15.2 mm 2.40 in61.0 mm
02:19 PM 44.0°F6.7°C 43.4°F6.3°C 98% 12.0 mph NNE19.3 kmh NNE 29.0 mph46.7 kmh 29.05 in983.7 mb 0.03 in0.8 mm 0.00 in0.0 mm 2.40 in61.0 mm
02:20 PM 44.0°F6.7°C 43.4°F6.3°C 98% 12.0 mph 19.3 kmh 27.0 mph43.5 kmh 29.05 in983.7 mb 0.03 in0.8 mm 0.00 in0.0 mm 2.40 in61.0 mm
02:21 PM 44.0°F6.7°C 43.4°F6.3°C 98% 16.0 mph 25.7 kmh 27.0 mph43.5 kmh 29.06 in984.1 mb 0.03 in0.8 mm 0.00 in0.0 mm 2.40 in61.0 mm
02:22 PM 44.0°F6.7°C 43.4°F6.3°C 98% 15.0 mph ESE24.1 kmh ESE 27.0 mph43.5 kmh 29.06 in984.1 mb 0.03 in0.8 mm 0.00 in0.0 mm 2.40 in61.0 mm
02:23 PM 44.0°F6.7°C 43.4°F6.3°C 98% 12.0 mph NNE19.3 kmh NNE 27.0 mph43.5 kmh 29.05 in983.7 mb 0.03 in0.8 mm 0.00 in0.0 mm 2.40 in61.0 mm
02:24 PM 44.2°F6.8°C 43.6°F6.4°C 98% 8.0 mph 12.9 kmh 27.0 mph43.5 kmh 29.06 in984.1 mb 0.04 in1.0 mm 0.60 in15.2 mm 2.41 in61.2 mm
02:25 PM 44.2°F6.8°C 43.6°F6.4°C 98% 25.0 mph 40.2 kmh 27.0 mph43.5 kmh 29.06 in984.1 mb 0.04 in1.0 mm 0.00 in0.0 mm 2.41 in61.2 mm
02:26 PM 44.2°F6.8°C 43.6°F6.4°C 98% 21.0 mph NNE33.8 kmh NNE 27.0 mph43.5 kmh 29.06 in984.1 mb 0.05 in1.3 mm 0.60 in15.2 mm 2.42 in61.5 mm
02:27 PM 44.2°F6.8°C 43.6°F6.4°C 98% 16.0 mph NNW25.7 kmh NNW 27.0 mph43.5 kmh 29.06 in984.1 mb 0.05 in1.3 mm 0.00 in0.0 mm 2.42 in61.5 mm
02:28 PM 44.2°F6.8°C 43.6°F6.4°C 98% 13.0 mph NNE20.9 kmh NNE 27.0 mph43.5 kmh 29.06 in984.1 mb 0.05 in1.3 mm 0.00 in0.0 mm 2.42 in61.5 mm
02:29 PM 44.2°F6.8°C 43.6°F6.4°C 98% 12.0 mph NNE19.3 kmh NNE 27.0 mph43.5 kmh 29.06 in984.1 mb 0.06 in1.5 mm 0.60 in15.2 mm 2.43 in61.7 mm
02:30 PM 44.2°F6.8°C 43.6°F6.4°C 98% 13.0 mph NW20.9 kmh NW 25.0 mph40.2 kmh 29.06 in984.1 mb 0.06 in1.5 mm 0.00 in0.0 mm 2.43 in61.7 mm
02:31 PM 44.2°F6.8°C 43.6°F6.4°C 98% 17.0 mph 27.4 kmh 25.0 mph40.2 kmh 29.05 in983.7 mb 0.06 in1.5 mm 0.00 in0.0 mm 2.43 in61.7 mm
02:32 PM 44.2°F6.8°C 43.6°F6.4°C 98% 15.0 mph NNE24.1 kmh NNE 25.0 mph40.2 kmh 29.05 in983.7 mb 0.06 in1.5 mm 0.00 in0.0 mm 2.43 in61.7 mm
02:33 PM 44.2°F6.8°C 43.6°F6.4°C 98% 19.0 mph NNE30.6 kmh NNE 25.0 mph40.2 kmh 29.06 in984.1 mb 0.06 in1.5 mm 0.00 in0.0 mm 2.43 in61.7 mm
02:34 PM 44.2°F6.8°C 43.6°F6.4°C 98% 13.0 mph NNE20.9 kmh NNE 25.0 mph40.2 kmh 29.07 in984.4 mb 0.07 in1.8 mm 0.60 in15.2 mm 2.44 in62.0 mm
02:35 PM 44.2°F6.8°C 43.6°F6.4°C 98% 26.0 mph NNW41.8 kmh NNW 26.0 mph41.8 kmh 29.05 in983.7 mb 0.07 in1.8 mm 0.00 in0.0 mm 2.44 in62.0 mm
02:36 PM 44.2°F6.8°C 43.6°F6.4°C 98% 8.0 mph NNW12.9 kmh NNW 26.0 mph41.8 kmh 29.05 in983.7 mb 0.07 in1.8 mm 0.00 in0.0 mm 2.44 in62.0 mm
02:37 PM 44.2°F6.8°C 43.6°F6.4°C 98% 21.0 mph NNW33.8 kmh NNW 26.0 mph41.8 kmh 29.07 in984.4 mb 0.07 in1.8 mm 0.00 in0.0 mm 2.44 in62.0 mm
02:38 PM 44.2°F6.8°C 43.6°F6.4°C 98% 11.0 mph NNW17.7 kmh NNW 26.0 mph41.8 kmh 29.06 in984.1 mb 0.07 in1.8 mm 0.00 in0.0 mm 2.44 in62.0 mm
02:39 PM 44.2°F6.8°C 43.6°F6.4°C 98% 5.0 mph NNE8.0 kmh NNE 26.0 mph41.8 kmh 29.06 in984.1 mb 0.07 in1.8 mm 0.00 in0.0 mm 2.44 in62.0 mm
02:40 PM 44.2°F6.8°C 43.6°F6.4°C 98% 11.0 mph NE17.7 kmh NE 26.0 mph41.8 kmh 29.06 in984.1 mb 0.08 in2.0 mm 0.60 in15.2 mm 2.45 in62.2 mm
02:41 PM 44.2°F6.8°C 43.6°F6.4°C 98% 12.0 mph NNE19.3 kmh NNE 26.0 mph41.8 kmh 29.05 in983.7 mb 0.08 in2.0 mm 0.00 in0.0 mm 2.45 in62.2 mm
02:42 PM 44.2°F6.8°C 43.6°F6.4°C 98% 18.0 mph NNE29.0 kmh NNE 26.0 mph41.8 kmh 29.06 in984.1 mb 0.08 in2.0 mm 0.00 in0.0 mm 2.45 in62.2 mm
02:43 PM 44.2°F6.8°C 43.6°F6.4°C 98% 16.0 mph 25.7 kmh 26.0 mph41.8 kmh 29.07 in984.4 mb 0.08 in2.0 mm 0.00 in0.0 mm 2.45 in62.2 mm
02:44 PM 44.2°F6.8°C 43.6°F6.4°C 98% 8.0 mph 12.9 kmh 26.0 mph41.8 kmh 29.07 in984.4 mb 0.08 in2.0 mm 0.00 in0.0 mm 2.45 in62.2 mm
02:45 PM 44.2°F6.8°C 43.6°F6.4°C 98% 15.0 mph NE24.1 kmh NE 25.0 mph40.2 kmh 29.07 in984.4 mb 0.09 in2.3 mm 0.60 in15.2 mm 2.46 in62.5 mm
02:46 PM 44.2°F6.8°C 43.6°F6.4°C 98% 19.0 mph NNW30.6 kmh NNW 27.0 mph43.5 kmh 29.07 in984.4 mb 0.09 in2.3 mm 0.00 in0.0 mm 2.46 in62.5 mm
02:47 PM 44.2°F6.8°C 43.6°F6.4°C 98% 24.0 mph NNE38.6 kmh NNE 27.0 mph43.5 kmh 29.07 in984.4 mb 0.10 in2.5 mm 0.60 in15.2 mm 2.47 in62.7 mm
02:48 PM 44.2°F6.8°C 43.6°F6.4°C 98% 22.0 mph NNE35.4 kmh NNE 27.0 mph43.5 kmh 29.06 in984.1 mb 0.10 in2.5 mm 0.00 in0.0 mm 2.47 in62.7 mm
02:49 PM 44.2°F6.8°C 43.6°F6.4°C 98% 16.0 mph NNW25.7 kmh NNW 27.0 mph43.5 kmh 29.07 in984.4 mb 0.10 in2.5 mm 0.00 in0.0 mm 2.47 in62.7 mm
02:50 PM 44.2°F6.8°C 43.6°F6.4°C 98% 19.0 mph 30.6 kmh 27.0 mph43.5 kmh 29.07 in984.4 mb 0.10 in2.5 mm 0.00 in0.0 mm 2.47 in62.7 mm
02:51 PM 44.2°F6.8°C 43.6°F6.4°C 98% 9.0 mph NE14.5 kmh NE 27.0 mph43.5 kmh 29.07 in984.4 mb 0.10 in2.5 mm 0.00 in0.0 mm 2.47 in62.7 mm
02:52 PM 44.2°F6.8°C 43.6°F6.4°C 98% 17.0 mph NE27.4 kmh NE 27.0 mph43.5 kmh 29.07 in984.4 mb 0.10 in2.5 mm 0.00 in0.0 mm 2.47 in62.7 mm
02:53 PM 44.2°F6.8°C 43.6°F6.4°C 98% 21.0 mph NE33.8 kmh NE 27.0 mph43.5 kmh 29.07 in984.4 mb 0.10 in2.5 mm 0.00 in0.0 mm 2.47 in62.7 mm
02:54 PM 44.2°F6.8°C 43.6°F6.4°C 98% 17.0 mph NNE27.4 kmh NNE 27.0 mph43.5 kmh 29.07 in984.4 mb 0.11 in2.8 mm 0.60 in15.2 mm 2.48 in63.0 mm
02:55 PM 44.4°F6.9°C 43.8°F6.6°C 98% 12.0 mph NNE19.3 kmh NNE 27.0 mph43.5 kmh 29.07 in984.4 mb 0.11 in2.8 mm 0.00 in0.0 mm 2.48 in63.0 mm
02:56 PM 44.4°F6.9°C 43.8°F6.6°C 98% 13.0 mph 20.9 kmh 24.0 mph38.6 kmh 29.07 in984.4 mb 0.11 in2.8 mm 0.00 in0.0 mm 2.48 in63.0 mm
02:57 PM 44.4°F6.9°C 43.8°F6.6°C 98% 10.0 mph NNE16.1 kmh NNE 24.0 mph38.6 kmh 29.07 in984.4 mb 0.11 in2.8 mm 0.00 in0.0 mm 2.48 in63.0 mm
02:58 PM 44.4°F6.9°C 43.8°F6.6°C 98% 13.0 mph NE20.9 kmh NE 23.0 mph37.0 kmh 29.07 in984.4 mb 0.12 in3.0 mm 0.60 in15.2 mm 2.49 in63.2 mm
02:59 PM 44.4°F6.9°C 43.8°F6.6°C 98% 11.0 mph NNW17.7 kmh NNW 23.0 mph37.0 kmh 29.07 in984.4 mb 0.12 in3.0 mm 0.00 in0.0 mm 2.49 in63.2 mm
03:00 PM 44.4°F6.9°C 43.8°F6.6°C 98% 23.0 mph NNE37.0 kmh NNE 23.0 mph37.0 kmh 29.07 in984.4 mb 0.13 in3.3 mm 0.01 in0.3 mm 2.50 in63.5 mm
03:01 PM 44.4°F6.9°C 43.8°F6.6°C 98% 7.0 mph NNE11.3 kmh NNE 23.0 mph37.0 kmh 29.08 in984.8 mb 0.13 in3.3 mm 0.00 in0.0 mm 2.50 in63.5 mm
03:02 PM 44.4°F6.9°C 43.8°F6.6°C 98% 18.0 mph NNE29.0 kmh NNE 23.0 mph37.0 kmh 29.08 in984.8 mb 0.13 in3.3 mm 0.00 in0.0 mm 2.50 in63.5 mm
03:03 PM 44.4°F6.9°C 43.8°F6.6°C 98% 15.0 mph NE24.1 kmh NE 23.0 mph37.0 kmh 29.08 in984.8 mb 0.14 in3.6 mm 0.60 in15.2 mm 2.51 in63.8 mm
03:04 PM 44.4°F6.9°C 43.8°F6.6°C 98% 10.0 mph WNW16.1 kmh WNW 23.0 mph37.0 kmh 29.08 in984.8 mb 0.14 in3.6 mm 0.00 in0.0 mm 2.51 in63.8 mm
03:05 PM 44.4°F6.9°C 43.8°F6.6°C 98% 25.0 mph ENE40.2 kmh ENE 25.0 mph40.2 kmh 29.08 in984.8 mb 0.15 in3.8 mm 0.60 in15.2 mm 2.52 in64.0 mm
03:06 PM 44.4°F6.9°C 43.8°F6.6°C 98% 19.0 mph NW30.6 kmh NW 25.0 mph40.2 kmh 29.08 in984.8 mb 0.15 in3.8 mm 0.00 in0.0 mm 2.52 in64.0 mm
03:07 PM 44.4°F6.9°C 43.8°F6.6°C 98% 12.0 mph NNW19.3 kmh NNW 25.0 mph40.2 kmh 29.09 in985.1 mb 0.00 in0.0 mm 0.00 in0.0 mm 2.52 in64.0 mm
03:08 PM 44.4°F6.9°C 43.8°F6.6°C 98% 21.0 mph NNE33.8 kmh NNE 25.0 mph40.2 kmh 29.09 in985.1 mb 0.00 in0.0 mm 0.00 in0.0 mm 2.52 in64.0 mm
03:09 PM 44.4°F6.9°C 43.8°F6.6°C 98% 12.0 mph NNE19.3 kmh NNE 25.0 mph40.2 kmh 29.09 in985.1 mb 0.00 in0.0 mm 0.00 in0.0 mm 2.52 in64.0 mm
03:10 PM 44.4°F6.9°C 43.8°F6.6°C 98% 16.0 mph E25.7 kmh E 25.0 mph40.2 kmh 29.09 in985.1 mb 0.00 in0.0 mm 0.00 in0.0 mm 2.52 in64.0 mm
03:11 PM 44.4°F6.9°C 43.8°F6.6°C 98% 15.0 mph NNE24.1 kmh NNE 28.0 mph45.1 kmh 29.08 in984.8 mb 0.02 in0.5 mm 1.20 in30.5 mm 2.54 in64.5 mm
03:12 PM 44.4°F6.9°C 43.8°F6.6°C 98% 13.0 mph NNW20.9 kmh NNW 28.0 mph45.1 kmh 29.08 in984.8 mb 0.02 in0.5 mm 0.00 in0.0 mm 2.54 in64.5 mm
03:13 PM 44.4°F6.9°C 43.8°F6.6°C 98% 9.0 mph NE14.5 kmh NE 28.0 mph45.1 kmh 29.09 in985.1 mb 0.02 in0.5 mm 0.00 in0.0 mm 2.54 in64.5 mm
03:14 PM 44.4°F6.9°C 43.8°F6.6°C 98% 11.0 mph WNW17.7 kmh WNW 28.0 mph45.1 kmh 29.09 in985.1 mb 0.02 in0.5 mm 0.00 in0.0 mm 2.54 in64.5 mm
03:15 PM 44.4°F6.9°C 43.8°F6.6°C 98% 5.0 mph SE8.0 kmh SE 28.0 mph45.1 kmh 29.09 in985.1 mb 0.02 in0.5 mm 0.00 in0.0 mm 2.54 in64.5 mm
03:16 PM 44.4°F6.9°C 43.8°F6.6°C 98% 14.0 mph NNE22.5 kmh NNE 28.0 mph45.1 kmh 29.09 in985.1 mb 0.02 in0.5 mm 0.00 in0.0 mm 2.54 in64.5 mm
03:17 PM 44.4°F6.9°C 43.8°F6.6°C 98% 13.0 mph NNW20.9 kmh NNW 28.0 mph45.1 kmh 29.10 in985.4 mb 0.03 in0.8 mm 0.60 in15.2 mm 2.55 in64.8 mm
03:18 PM 44.4°F6.9°C 43.8°F6.6°C 98% 7.0 mph NNE11.3 kmh NNE 28.0 mph45.1 kmh 29.10 in985.4 mb 0.03 in0.8 mm 0.00 in0.0 mm 2.55 in64.8 mm
03:19 PM 44.4°F6.9°C 43.8°F6.6°C 98% 13.0 mph NNE20.9 kmh NNE 28.0 mph45.1 kmh 29.09 in985.1 mb 0.03 in0.8 mm 0.00 in0.0 mm 2.55 in64.8 mm
03:20 PM 44.2°F6.8°C 43.6°F6.4°C 98% 13.0 mph NE20.9 kmh NE 28.0 mph45.1 kmh 29.09 in985.1 mb 0.04 in1.0 mm 0.60 in15.2 mm 2.56 in65.0 mm
03:21 PM 44.2°F6.8°C 43.6°F6.4°C 98% 12.0 mph NNE19.3 kmh NNE 24.0 mph38.6 kmh 29.09 in985.1 mb 0.05 in1.3 mm 0.60 in15.2 mm 2.57 in65.3 mm
03:22 PM 44.2°F6.8°C 43.6°F6.4°C 98% 13.0 mph WNW20.9 kmh WNW 24.0 mph38.6 kmh 29.09 in985.1 mb 0.05 in1.3 mm 0.00 in0.0 mm 2.57 in65.3 mm
03:23 PM 44.2°F6.8°C 43.6°F6.4°C 98% 20.0 mph NNE32.2 kmh NNE 24.0 mph38.6 kmh 29.09 in985.1 mb 0.06 in1.5 mm 0.60 in15.2 mm 2.58 in65.5 mm
03:24 PM 44.2°F6.8°C 43.6°F6.4°C 98% 13.0 mph 20.9 kmh 22.0 mph35.4 kmh 29.09 in985.1 mb 0.06 in1.5 mm 0.00 in0.0 mm 2.58 in65.5 mm
03:25 PM 44.0°F6.7°C 43.4°F6.3°C 98% 16.0 mph NNE25.7 kmh NNE 22.0 mph35.4 kmh 29.09 in985.1 mb 0.06 in1.5 mm 0.00 in0.0 mm 2.58 in65.5 mm
03:26 PM 44.0°F6.7°C 43.4°F6.3°C 98% 10.0 mph ENE16.1 kmh ENE 22.0 mph35.4 kmh 29.09 in985.1 mb 0.06 in1.5 mm 0.00 in0.0 mm 2.58 in65.5 mm
03:27 PM 44.0°F6.7°C 43.4°F6.3°C 98% 16.0 mph NNE25.7 kmh NNE 22.0 mph35.4 kmh 29.09 in985.1 mb 0.06 in1.5 mm 0.00 in0.0 mm 2.58 in65.5 mm
03:28 PM 44.0°F6.7°C 43.4°F6.3°C 98% 17.0 mph 27.4 kmh 23.0 mph37.0 kmh 29.09 in985.1 mb 0.07 in1.8 mm 0.60 in15.2 mm 2.59 in65.8 mm
03:29 PM 44.0°F6.7°C 43.4°F6.3°C 98% 9.0 mph NE14.5 kmh NE 23.0 mph37.0 kmh 29.09 in985.1 mb 0.07 in1.8 mm 0.00 in0.0 mm 2.59 in65.8 mm
03:30 PM 44.0°F6.7°C 43.4°F6.3°C 98% 14.0 mph NNW22.5 kmh NNW 23.0 mph37.0 kmh 29.09 in985.1 mb 0.07 in1.8 mm 0.00 in0.0 mm 2.59 in65.8 mm
03:31 PM 43.9°F6.6°C 43.3°F6.3°C 98% 18.0 mph NE29.0 kmh NE 23.0 mph37.0 kmh 29.09 in985.1 mb 0.07 in1.8 mm 0.00 in0.0 mm 2.59 in65.8 mm
03:32 PM 43.9°F6.6°C 43.3°F6.3°C 98% 11.0 mph 17.7 kmh 23.0 mph37.0 kmh 29.09 in985.1 mb 0.07 in1.8 mm 0.00 in0.0 mm 2.59 in65.8 mm
03:33 PM 43.9°F6.6°C 43.3°F6.3°C 98% 11.0 mph WNW17.7 kmh WNW 24.0 mph38.6 kmh 29.09 in985.1 mb 0.08 in2.0 mm 0.60 in15.2 mm 2.60 in66.0 mm
03:34 PM 43.9°F6.6°C 43.3°F6.3°C 98% 13.0 mph WNW20.9 kmh WNW 24.0 mph38.6 kmh 29.09 in985.1 mb 0.08 in2.0 mm 0.00 in0.0 mm 2.60 in66.0 mm
03:35 PM 43.9°F6.6°C 43.3°F6.3°C 98% 11.0 mph NE17.7 kmh NE 24.0 mph38.6 kmh 29.10 in985.4 mb 0.08 in2.0 mm 0.00 in0.0 mm 2.60 in66.0 mm
03:36 PM 43.9°F6.6°C 43.3°F6.3°C 98% 16.0 mph NE25.7 kmh NE 24.0 mph38.6 kmh 29.10 in985.4 mb 0.08 in2.0 mm 0.00 in0.0 mm 2.60 in66.0 mm
03:37 PM 43.9°F6.6°C 43.3°F6.3°C 98% 15.0 mph NNW24.1 kmh NNW 28.0 mph45.1 kmh 29.10 in985.4 mb 0.09 in2.3 mm 0.60 in15.2 mm 2.61 in66.3 mm
03:38 PM 43.9°F6.6°C 43.3°F6.3°C 98% 21.0 mph NNW33.8 kmh NNW 28.0 mph45.1 kmh 29.11 in985.8 mb 0.09 in2.3 mm 0.00 in0.0 mm 2.61 in66.3 mm
03:39 PM 43.9°F6.6°C 43.3°F6.3°C 98% 14.0 mph NNW22.5 kmh NNW 28.0 mph45.1 kmh 29.11 in985.8 mb 0.09 in2.3 mm 0.00 in0.0 mm 2.61 in66.3 mm
03:40 PM 43.9°F6.6°C 43.3°F6.3°C 98% 15.0 mph WNW24.1 kmh WNW 28.0 mph45.1 kmh 29.11 in985.8 mb 0.09 in2.3 mm 0.00 in0.0 mm 2.61 in66.3 mm
03:41 PM 43.9°F6.6°C 43.3°F6.3°C 98% 8.0 mph WNW12.9 kmh WNW 28.0 mph45.1 kmh 29.11 in985.8 mb 0.09 in2.3 mm 0.00 in0.0 mm 2.61 in66.3 mm
03:42 PM 43.9°F6.6°C 43.3°F6.3°C 98% 14.0 mph E22.5 kmh E 28.0 mph45.1 kmh 29.11 in985.8 mb 0.10 in2.5 mm 0.60 in15.2 mm 2.62 in66.5 mm
03:43 PM 43.9°F6.6°C 43.3°F6.3°C 98% 18.0 mph NNE29.0 kmh NNE 28.0 mph45.1 kmh 29.11 in985.8 mb 0.10 in2.5 mm 0.00 in0.0 mm 2.62 in66.5 mm
03:44 PM 43.9°F6.6°C 43.3°F6.3°C 98% 10.0 mph NW16.1 kmh NW 28.0 mph45.1 kmh 29.11 in985.8 mb 0.10 in2.5 mm 0.00 in0.0 mm 2.62 in66.5 mm
03:45 PM 43.9°F6.6°C 43.3°F6.3°C 98% 12.0 mph NE19.3 kmh NE 28.0 mph45.1 kmh 29.11 in985.8 mb 0.10 in2.5 mm 0.00 in0.0 mm 2.62 in66.5 mm
03:46 PM 43.6°F6.4°C 43.0°F6.1°C 98% 29.0 mph NNW46.7 kmh NNW 29.0 mph46.7 kmh 29.11 in985.8 mb 0.10 in2.5 mm 0.00 in0.0 mm 2.62 in66.5 mm
03:47 PM 43.6°F6.4°C 43.0°F6.1°C 98% 9.0 mph NE14.5 kmh NE 29.0 mph46.7 kmh 29.11 in985.8 mb 0.11 in2.8 mm 0.60 in15.2 mm 2.63 in66.8 mm
03:48 PM 43.6°F6.4°C 43.0°F6.1°C 98% 15.0 mph 24.1 kmh 29.0 mph46.7 kmh 29.11 in985.8 mb 0.11 in2.8 mm 0.00 in0.0 mm 2.63 in66.8 mm
03:49 PM 43.6°F6.4°C 43.0°F6.1°C 98% 11.0 mph NE17.7 kmh NE 29.0 mph46.7 kmh 29.12 in986.1 mb 0.11 in2.8 mm 0.00 in0.0 mm 2.63 in66.8 mm
03:50 PM 43.6°F6.4°C 43.0°F6.1°C 98% 24.0 mph NE38.6 kmh NE 29.0 mph46.7 kmh 29.12 in986.1 mb 0.12 in3.0 mm 0.60 in15.2 mm 2.64 in67.1 mm
03:51 PM 43.6°F6.4°C 43.0°F6.1°C 98% 14.0 mph NNW22.5 kmh NNW 29.0 mph46.7 kmh 29.13 in986.5 mb 0.12 in3.0 mm 0.00 in0.0 mm 2.64 in67.1 mm
03:52 PM 43.6°F6.4°C 43.0°F6.1°C 98% 16.0 mph 25.7 kmh 29.0 mph46.7 kmh 29.12 in986.1 mb 0.12 in3.0 mm 0.00 in0.0 mm 2.64 in67.1 mm
03:53 PM 43.6°F6.4°C 43.0°F6.1°C 98% 16.0 mph 25.7 kmh 29.0 mph46.7 kmh 29.12 in986.1 mb 0.12 in3.0 mm 0.00 in0.0 mm 2.64 in67.1 mm
03:54 PM 43.6°F6.4°C 43.0°F6.1°C 98% 12.0 mph NNE19.3 kmh NNE 29.0 mph46.7 kmh 29.12 in986.1 mb 0.12 in3.0 mm 0.00 in0.0 mm 2.64 in67.1 mm
03:55 PM 43.6°F6.4°C 43.0°F6.1°C 98% 9.0 mph NNE14.5 kmh NNE 29.0 mph46.7 kmh 29.14 in986.8 mb 0.12 in3.0 mm 0.00 in0.0 mm 2.64 in67.1 mm
03:56 PM 43.6°F6.4°C 43.0°F6.1°C 98% 16.0 mph NW25.7 kmh NW 27.0 mph43.5 kmh 29.14 in986.8 mb 0.12 in3.0 mm 0.00 in0.0 mm 2.64 in67.1 mm
03:57 PM 43.6°F6.4°C 43.0°F6.1°C 98% 13.0 mph WNW20.9 kmh WNW 25.0 mph40.2 kmh 29.13 in986.5 mb 0.12 in3.0 mm 0.00 in0.0 mm 2.64 in67.1 mm
03:58 PM 43.6°F6.4°C 43.0°F6.1°C 98% 14.0 mph NNW22.5 kmh NNW 25.0 mph40.2 kmh 29.13 in986.5 mb 0.12 in3.0 mm 0.00 in0.0 mm 2.64 in67.1 mm
03:59 PM 43.6°F6.4°C 43.0°F6.1°C 98% 23.0 mph NNE37.0 kmh NNE 25.0 mph40.2 kmh 29.13 in986.5 mb 0.14 in3.6 mm 1.20 in30.5 mm 2.66 in67.6 mm
04:00 PM 43.6°F6.4°C 43.0°F6.1°C 98% 6.0 mph NNE9.7 kmh NNE 25.0 mph40.2 kmh 29.13 in986.5 mb 0.14 in3.6 mm 0.00 in0.0 mm 2.66 in67.6 mm
04:01 PM 43.6°F6.4°C 43.0°F6.1°C 98% 20.0 mph NNW32.2 kmh NNW 25.0 mph40.2 kmh 29.15 in987.1 mb 0.14 in3.6 mm 0.00 in0.0 mm 2.66 in67.6 mm
04:02 PM 43.6°F6.4°C 43.0°F6.1°C 98% 11.0 mph NW17.7 kmh NW 25.0 mph40.2 kmh 29.15 in987.1 mb 0.14 in3.6 mm 0.00 in0.0 mm 2.66 in67.6 mm
04:03 PM 43.6°F6.4°C 43.0°F6.1°C 98% 8.0 mph NNE12.9 kmh NNE 25.0 mph40.2 kmh 29.14 in986.8 mb 0.14 in3.6 mm 0.00 in0.0 mm 2.66 in67.6 mm
04:04 PM 43.6°F6.4°C 43.0°F6.1°C 98% 11.0 mph NE17.7 kmh NE 25.0 mph40.2 kmh 29.14 in986.8 mb 0.15 in3.8 mm 0.60 in15.2 mm 2.67 in67.8 mm
04:05 PM 43.6°F6.4°C 43.0°F6.1°C 98% 15.0 mph NNW24.1 kmh NNW 25.0 mph40.2 kmh 29.14 in986.8 mb 0.15 in3.8 mm 0.00 in0.0 mm 2.67 in67.8 mm
04:06 PM 43.6°F6.4°C 43.0°F6.1°C 98% 19.0 mph 30.6 kmh 25.0 mph40.2 kmh 29.14 in986.8 mb 0.00 in0.0 mm 0.00 in0.0 mm 2.67 in67.8 mm
04:07 PM 43.6°F6.4°C 43.0°F6.1°C 98% 11.0 mph 17.7 kmh 24.0 mph38.6 kmh 29.14 in986.8 mb 0.00 in0.0 mm 0.00 in0.0 mm 2.67 in67.8 mm
04:08 PM 43.4°F6.3°C 42.8°F6.0°C 98% 16.0 mph NNE25.7 kmh NNE 24.0 mph38.6 kmh 29.14 in986.8 mb 0.01 in0.3 mm 0.60 in15.2 mm 2.68 in68.1 mm
04:09 PM 43.4°F6.3°C 42.8°F6.0°C 98% 12.0 mph 19.3 kmh 23.0 mph37.0 kmh 29.15 in987.1 mb 0.01 in0.3 mm 0.00 in0.0 mm 2.68 in68.1 mm
04:10 PM 43.4°F6.3°C 42.8°F6.0°C 98% 21.0 mph NNW33.8 kmh NNW 23.0 mph37.0 kmh 29.15 in987.1 mb 0.01 in0.3 mm 0.00 in0.0 mm 2.68 in68.1 mm
04:11 PM 43.4°F6.3°C 42.8°F6.0°C 98% 20.0 mph SW32.2 kmh SW 23.0 mph37.0 kmh 29.15 in987.1 mb 0.01 in0.3 mm 0.00 in0.0 mm 2.68 in68.1 mm
04:12 PM 43.4°F6.3°C 42.8°F6.0°C 98% 9.0 mph NNW14.5 kmh NNW 23.0 mph37.0 kmh 29.15 in987.1 mb 0.01 in0.3 mm 0.00 in0.0 mm 2.68 in68.1 mm
04:13 PM 43.4°F6.3°C 42.8°F6.0°C 98% 13.0 mph NNW20.9 kmh NNW 23.0 mph37.0 kmh 29.14 in986.8 mb 0.01 in0.3 mm 0.00 in0.0 mm 2.68 in68.1 mm
04:14 PM 43.4°F6.3°C 42.8°F6.0°C 98% 12.0 mph WNW19.3 kmh WNW 23.0 mph37.0 kmh 29.14 in986.8 mb 0.02 in0.5 mm 0.60 in15.2 mm 2.69 in68.3 mm
04:15 PM 43.4°F6.3°C 42.8°F6.0°C 98% 18.0 mph 29.0 kmh 23.0 mph37.0 kmh 29.16 in987.5 mb 0.02 in0.5 mm 0.00 in0.0 mm 2.69 in68.3 mm
04:16 PM 43.4°F6.3°C 42.8°F6.0°C 98% 18.0 mph NE29.0 kmh NE 23.0 mph37.0 kmh 29.16 in987.5 mb 0.02 in0.5 mm 0.00 in0.0 mm 2.69 in68.3 mm
04:17 PM 43.4°F6.3°C 42.8°F6.0°C 98% 17.0 mph 27.4 kmh 23.0 mph37.0 kmh 29.16 in987.5 mb 0.02 in0.5 mm 0.00 in0.0 mm 2.69 in68.3 mm
04:18 PM 43.4°F6.3°C 42.8°F6.0°C 98% 8.0 mph WNW12.9 kmh WNW 23.0 mph37.0 kmh 29.16 in987.5 mb 0.02 in0.5 mm 0.00 in0.0 mm 2.69 in68.3 mm
04:19 PM 43.4°F6.3°C 42.8°F6.0°C 98% 17.0 mph NNW27.4 kmh NNW 21.0 mph33.8 kmh 29.16 in987.5 mb 0.03 in0.8 mm 0.60 in15.2 mm 2.70 in68.6 mm
04:20 PM 43.4°F6.3°C 42.3°F5.7°C 96% 11.0 mph NNE17.7 kmh NNE 27.0 mph43.5 kmh 29.16 in987.5 mb 0.03 in0.8 mm 0.00 in0.0 mm 2.70 in68.6 mm
04:21 PM 43.4°F6.3°C 42.3°F5.7°C 96% 8.0 mph W12.9 kmh W 27.0 mph43.5 kmh 29.16 in987.5 mb 0.03 in0.8 mm 0.00 in0.0 mm 2.70 in68.6 mm
04:22 PM 43.4°F6.3°C 42.3°F5.7°C 96% 17.0 mph ESE27.4 kmh ESE 27.0 mph43.5 kmh 29.16 in987.5 mb 0.03 in0.8 mm 0.00 in0.0 mm 2.70 in68.6 mm
04:23 PM 43.4°F6.3°C 42.3°F5.7°C 96% 15.0 mph ESE24.1 kmh ESE 27.0 mph43.5 kmh 29.16 in987.5 mb 0.03 in0.8 mm 0.00 in0.0 mm 2.70 in68.6 mm
04:24 PM 43.2°F6.2°C 42.1°F5.6°C 96% 20.0 mph NNE32.2 kmh NNE 27.0 mph43.5 kmh 29.16 in987.5 mb 0.04 in1.0 mm 0.60 in15.2 mm 2.71 in68.8 mm
04:25 PM 43.2°F6.2°C 42.1°F5.6°C 96% 12.0 mph NNW19.3 kmh NNW 27.0 mph43.5 kmh 29.17 in987.8 mb 0.04 in1.0 mm 0.00 in0.0 mm 2.71 in68.8 mm
04:26 PM 43.2°F6.2°C 42.1°F5.6°C 96% 13.0 mph E20.9 kmh E 27.0 mph43.5 kmh 29.16 in987.5 mb 0.04 in1.0 mm 0.00 in0.0 mm 2.71 in68.8 mm
04:27 PM 43.2°F6.2°C 42.1°F5.6°C 96% 14.0 mph NE22.5 kmh NE 39.0 mph62.8 kmh 29.17 in987.8 mb 0.05 in1.3 mm 0.60 in15.2 mm 2.72 in69.1 mm
04:28 PM 43.2°F6.2°C 42.1°F5.6°C 96% 14.0 mph W22.5 kmh W 39.0 mph62.8 kmh 29.17 in987.8 mb 0.05 in1.3 mm 0.00 in0.0 mm 2.72 in69.1 mm
04:29 PM 43.2°F6.2°C 42.1°F5.6°C 96% 14.0 mph 22.5 kmh 39.0 mph62.8 kmh 29.17 in987.8 mb 0.05 in1.3 mm 0.00 in0.0 mm 2.72 in69.1 mm
04:30 PM 43.2°F6.2°C 42.1°F5.6°C 96% 25.0 mph NNE40.2 kmh NNE 39.0 mph62.8 kmh 29.17 in987.8 mb 0.05 in1.3 mm 0.00 in0.0 mm 2.72 in69.1 mm
04:31 PM 43.2°F6.2°C 42.1°F5.6°C 96% 21.0 mph NNW33.8 kmh NNW 39.0 mph62.8 kmh 29.17 in987.8 mb 0.05 in1.3 mm 0.00 in0.0 mm 2.72 in69.1 mm
04:32 PM 43.2°F6.2°C 42.1°F5.6°C 96% 12.0 mph ENE19.3 kmh ENE 39.0 mph62.8 kmh 29.17 in987.8 mb 0.06 in1.5 mm 0.60 in15.2 mm 2.73 in69.3 mm
04:33 PM 43.2°F6.2°C 42.1°F5.6°C 96% 8.0 mph NNW12.9 kmh NNW 39.0 mph62.8 kmh 29.18 in988.1 mb 0.06 in1.5 mm 0.00 in0.0 mm 2.73 in69.3 mm
04:34 PM 43.0°F6.1°C 41.9°F5.5°C 96% 19.0 mph NE30.6 kmh NE 39.0 mph62.8 kmh 29.18 in988.1 mb 0.07 in1.8 mm 0.60 in15.2 mm 2.74 in69.6 mm
04:35 PM 43.0°F6.1°C 41.9°F5.5°C 96% 18.0 mph NNE29.0 kmh NNE 39.0 mph62.8 kmh 29.18 in988.1 mb 0.07 in1.8 mm 0.00 in0.0 mm 2.74 in69.6 mm
04:36 PM 43.0°F6.1°C 41.9°F5.5°C 96% 9.0 mph NNE14.5 kmh NNE 39.0 mph62.8 kmh 29.18 in988.1 mb 0.07 in1.8 mm 0.00 in0.0 mm 2.74 in69.6 mm
04:37 PM 43.0°F6.1°C 41.9°F5.5°C 96% 20.0 mph 32.2 kmh 29.0 mph46.7 kmh 29.18 in988.1 mb 0.08 in2.0 mm 0.60 in15.2 mm 2.75 in69.9 mm
04:38 PM 42.7°F5.9°C 41.6°F5.3°C 96% 12.0 mph NNE19.3 kmh NNE 29.0 mph46.7 kmh 29.18 in988.1 mb 0.09 in2.3 mm 0.60 in15.2 mm 2.76 in70.1 mm
04:39 PM 42.7°F5.9°C 42.2°F5.7°C 98% 11.0 mph WNW17.7 kmh WNW 29.0 mph46.7 kmh 29.18 in988.1 mb 0.09 in2.3 mm 0.00 in0.0 mm 2.76 in70.1 mm
04:40 PM 42.7°F5.9°C 42.2°F5.7°C 98% 15.0 mph NNE24.1 kmh NNE 29.0 mph46.7 kmh 29.18 in988.1 mb 0.09 in2.3 mm 0.00 in0.0 mm 2.76 in70.1 mm
04:41 PM 42.5°F5.8°C 42.0°F5.6°C 98% 13.0 mph NNE20.9 kmh NNE 29.0 mph46.7 kmh 29.18 in988.1 mb 0.10 in2.5 mm 0.60 in15.2 mm 2.77 in70.4 mm
04:42 PM 42.5°F5.8°C 42.0°F5.6°C 98% 9.0 mph 14.5 kmh 29.0 mph46.7 kmh 29.18 in988.1 mb 0.10 in2.5 mm 0.00 in0.0 mm 2.77 in70.4 mm
04:43 PM 42.5°F5.8°C 42.0°F5.6°C 98% 12.0 mph SE19.3 kmh SE 29.0 mph46.7 kmh 29.18 in988.1 mb 0.11 in2.8 mm 0.60 in15.2 mm 2.78 in70.6 mm
04:44 PM 42.5°F5.8°C 42.0°F5.6°C 98% 27.0 mph E43.5 kmh E 29.0 mph46.7 kmh 29.18 in988.1 mb 0.11 in2.8 mm 0.00 in0.0 mm 2.78 in70.6 mm
04:45 PM 42.5°F5.8°C 42.0°F5.6°C 98% 17.0 mph W27.4 kmh W 29.0 mph46.7 kmh 29.18 in988.1 mb 0.12 in3.0 mm 0.60 in15.2 mm 2.79 in70.9 mm
04:46 PM 42.5°F5.8°C 42.0°F5.6°C 98% 17.0 mph 27.4 kmh 29.0 mph46.7 kmh 29.18 in988.1 mb 0.12 in3.0 mm 0.00 in0.0 mm 2.79 in70.9 mm
04:47 PM 42.4°F5.8°C 41.9°F5.5°C 98% 19.0 mph NNE30.6 kmh NNE 27.0 mph43.5 kmh 29.19 in988.5 mb 0.13 in3.3 mm 0.60 in15.2 mm 2.80 in71.1 mm
04:48 PM 42.4°F5.8°C 41.9°F5.5°C 98% 18.0 mph ESE29.0 kmh ESE 27.0 mph43.5 kmh 29.19 in988.5 mb 0.13 in3.3 mm 0.00 in0.0 mm 2.80 in71.1 mm
04:49 PM 42.4°F5.8°C 41.9°F5.5°C 98% 20.0 mph WNW32.2 kmh WNW 27.0 mph43.5 kmh 29.18 in988.1 mb 0.14 in3.6 mm 0.60 in15.2 mm 2.81 in71.4 mm
04:50 PM 42.4°F5.8°C 41.9°F5.5°C 98% 9.0 mph 14.5 kmh 27.0 mph43.5 kmh 29.18 in988.1 mb 0.14 in3.6 mm 0.00 in0.0 mm 2.81 in71.4 mm
04:51 PM 42.4°F5.8°C 41.9°F5.5°C 98% 13.0 mph NNE20.9 kmh NNE 27.0 mph43.5 kmh 29.20 in988.8 mb 0.14 in3.6 mm 0.00 in0.0 mm 2.81 in71.4 mm
04:52 PM 42.4°F5.8°C 41.9°F5.5°C 98% 8.0 mph NNW12.9 kmh NNW 27.0 mph43.5 kmh 29.20 in988.8 mb 0.15 in3.8 mm 0.60 in15.2 mm 2.82 in71.6 mm
04:53 PM 42.4°F5.8°C 41.9°F5.5°C 98% 7.0 mph NW11.3 kmh NW 27.0 mph43.5 kmh 29.20 in988.8 mb 0.15 in3.8 mm 0.00 in0.0 mm 2.82 in71.6 mm
04:54 PM 42.4°F5.8°C 41.9°F5.5°C 98% 18.0 mph NW29.0 kmh NW 27.0 mph43.5 kmh 29.20 in988.8 mb 0.15 in3.8 mm 0.00 in0.0 mm 2.82 in71.6 mm
04:55 PM 42.4°F5.8°C 41.9°F5.5°C 98% 22.0 mph NNW35.4 kmh NNW 22.0 mph35.4 kmh 29.20 in988.8 mb 0.15 in3.8 mm 0.00 in0.0 mm 2.82 in71.6 mm
04:56 PM 42.4°F5.8°C 41.9°F5.5°C 98% 13.0 mph NNW20.9 kmh NNW 22.0 mph35.4 kmh 29.21 in989.2 mb 0.18 in4.6 mm 1.80 in45.7 mm 2.85 in72.4 mm
04:57 PM 42.4°F5.8°C 41.9°F5.5°C 98% 13.0 mph NNW20.9 kmh NNW 22.0 mph35.4 kmh 29.20 in988.8 mb 0.18 in4.6 mm 0.00 in0.0 mm 2.85 in72.4 mm
04:58 PM 42.4°F5.8°C 41.9°F5.5°C 98% 19.0 mph ENE30.6 kmh ENE 22.0 mph35.4 kmh 29.19 in988.5 mb 0.18 in4.6 mm 0.00 in0.0 mm 2.85 in72.4 mm
04:59 PM 42.4°F5.8°C 41.9°F5.5°C 98% 13.0 mph NNE20.9 kmh NNE 22.0 mph35.4 kmh 29.20 in988.8 mb 0.18 in4.6 mm 0.00 in0.0 mm 2.85 in72.4 mm
05:00 PM 42.4°F5.8°C 41.9°F5.5°C 98% 13.0 mph NNE20.9 kmh NNE 22.0 mph35.4 kmh 29.20 in988.8 mb 0.18 in4.6 mm 0.00 in0.0 mm 2.85 in72.4 mm
05:01 PM 42.4°F5.8°C 41.9°F5.5°C 98% 9.0 mph NW14.5 kmh NW 22.0 mph35.4 kmh 29.21 in989.2 mb 0.20 in5.1 mm 1.20 in30.5 mm 2.87 in72.9 mm
05:02 PM 42.4°F5.8°C 41.9°F5.5°C 98% 9.0 mph NW14.5 kmh NW 22.0 mph35.4 kmh 29.21 in989.2 mb 0.20 in5.1 mm 0.00 in0.0 mm 2.87 in72.9 mm
05:03 PM 42.4°F5.8°C 41.9°F5.5°C 98% 18.0 mph WNW29.0 kmh WNW 23.0 mph37.0 kmh 29.22 in989.5 mb 0.21 in5.3 mm 0.60 in15.2 mm 2.88 in73.2 mm
05:04 PM 42.4°F5.8°C 41.9°F5.5°C 98% 19.0 mph WNW30.6 kmh WNW 23.0 mph37.0 kmh 29.22 in989.5 mb 0.21 in5.3 mm 0.00 in0.0 mm 2.88 in73.2 mm
05:05 PM 42.4°F5.8°C 41.9°F5.5°C 98% 10.0 mph NNE16.1 kmh NNE 23.0 mph37.0 kmh 29.22 in989.5 mb 0.21 in5.3 mm 0.00 in0.0 mm 2.88 in73.2 mm
05:06 PM 42.4°F5.8°C 41.9°F5.5°C 98% 10.0 mph NNE16.1 kmh NNE 23.0 mph37.0 kmh 29.22 in989.5 mb 0.21 in5.3 mm 0.00 in0.0 mm 2.88 in73.2 mm
05:07 PM 42.4°F5.8°C 41.9°F5.5°C 98% 10.0 mph NNE16.1 kmh NNE 23.0 mph37.0 kmh 29.22 in989.5 mb 0.21 in5.3 mm 0.00 in0.0 mm 2.88 in73.2 mm
05:08 PM 42.4°F5.8°C 41.9°F5.5°C 98% 16.0 mph NE25.7 kmh NE 23.0 mph37.0 kmh 29.22 in989.5 mb 0.00 in0.0 mm 0.00 in0.0 mm 2.88 in73.2 mm
05:09 PM 42.4°F5.8°C 41.9°F5.5°C 98% 15.0 mph NE24.1 kmh NE 23.0 mph37.0 kmh 29.22 in989.5 mb 0.00 in0.0 mm 0.00 in0.0 mm 2.88 in73.2 mm
05:10 PM 42.4°F5.8°C 41.9°F5.5°C 98% 10.0 mph NE16.1 kmh NE 23.0 mph37.0 kmh 29.22 in989.5 mb 0.01 in0.3 mm 0.60 in15.2 mm 2.89 in73.4 mm
05:11 PM 42.4°F5.8°C 41.9°F5.5°C 98% 17.0 mph NE27.4 kmh NE 23.0 mph37.0 kmh 29.22 in989.5 mb 0.01 in0.3 mm 0.00 in0.0 mm 2.89 in73.4 mm
05:12 PM 42.4°F5.8°C 41.9°F5.5°C 98% 15.0 mph NNE24.1 kmh NNE 23.0 mph37.0 kmh 29.22 in989.5 mb 0.01 in0.3 mm 0.00 in0.0 mm 2.89 in73.4 mm
05:13 PM 42.4°F5.8°C 41.9°F5.5°C 98% 9.0 mph 14.5 kmh 21.0 mph33.8 kmh 29.22 in989.5 mb 0.01 in0.3 mm 0.00 in0.0 mm 2.89 in73.4 mm
05:14 PM 42.4°F5.8°C 41.9°F5.5°C 98% 12.0 mph 19.3 kmh 21.0 mph33.8 kmh 29.22 in989.5 mb 0.01 in0.3 mm 0.00 in0.0 mm 2.89 in73.4 mm
05:15 PM 42.4°F5.8°C 41.9°F5.5°C 98% 15.0 mph NE24.1 kmh NE 21.0 mph33.8 kmh 29.22 in989.5 mb 0.02 in0.5 mm 0.60 in15.2 mm 2.90 in73.7 mm
05:16 PM 42.4°F5.8°C 41.9°F5.5°C 98% 11.0 mph NE17.7 kmh NE 21.0 mph33.8 kmh 29.22 in989.5 mb 0.02 in0.5 mm 0.00 in0.0 mm 2.90 in73.7 mm
05:17 PM 42.4°F5.8°C 41.9°F5.5°C 98% 20.0 mph NE32.2 kmh NE 21.0 mph33.8 kmh 29.22 in989.5 mb 0.02 in0.5 mm 0.00 in0.0 mm 2.90 in73.7 mm
05:18 PM 42.4°F5.8°C 41.9°F5.5°C 98% 11.0 mph NNW17.7 kmh NNW 21.0 mph33.8 kmh 29.22 in989.5 mb 0.02 in0.5 mm 0.00 in0.0 mm 2.90 in73.7 mm
05:19 PM 42.4°F5.8°C 41.9°F5.5°C 98% 12.0 mph NNW19.3 kmh NNW 21.0 mph33.8 kmh 29.23 in989.8 mb 0.02 in0.5 mm 0.00 in0.0 mm 2.90 in73.7 mm
05:20 PM 42.4°F5.8°C 41.9°F5.5°C 98% 10.0 mph ESE16.1 kmh ESE 21.0 mph33.8 kmh 29.23 in989.8 mb 0.03 in0.8 mm 0.60 in15.2 mm 2.91 in73.9 mm
05:21 PM 42.4°F5.8°C 41.9°F5.5°C 98% 16.0 mph 25.7 kmh 21.0 mph33.8 kmh 29.24 in990.2 mb 0.03 in0.8 mm 0.00 in0.0 mm 2.91 in73.9 mm
05:22 PM 42.4°F5.8°C 41.9°F5.5°C 98% 10.0 mph 16.1 kmh 21.0 mph33.8 kmh 29.24 in990.2 mb 0.03 in0.8 mm 0.00 in0.0 mm 2.91 in73.9 mm
05:23 PM 42.4°F5.8°C 41.9°F5.5°C 98% 31.0 mph NNE49.9 kmh NNE 31.0 mph49.9 kmh 29.23 in989.8 mb 0.04 in1.0 mm 0.60 in15.2 mm 2.92 in74.2 mm
05:24 PM 42.4°F5.8°C 41.9°F5.5°C 98% 15.0 mph NNE24.1 kmh NNE 31.0 mph49.9 kmh 29.23 in989.8 mb 0.04 in1.0 mm 0.00 in0.0 mm 2.92 in74.2 mm
05:25 PM 42.3°F5.7°C 41.8°F5.4°C 98% 11.0 mph W17.7 kmh W 31.0 mph49.9 kmh 29.24 in990.2 mb 0.04 in1.0 mm 0.00 in0.0 mm 2.92 in74.2 mm
05:26 PM 42.3°F5.7°C 41.8°F5.4°C 98% 13.0 mph NNW20.9 kmh NNW 31.0 mph49.9 kmh 29.25 in990.5 mb 0.04 in1.0 mm 0.00 in0.0 mm 2.92 in74.2 mm
05:27 PM 42.3°F5.7°C 41.8°F5.4°C 98% 20.0 mph 32.2 kmh 31.0 mph49.9 kmh 29.25 in990.5 mb 0.04 in1.0 mm 0.00 in0.0 mm 2.92 in74.2 mm
05:28 PM 42.3°F5.7°C 41.8°F5.4°C 98% 8.0 mph 12.9 kmh 31.0 mph49.9 kmh 29.24 in990.2 mb 0.05 in1.3 mm 0.60 in15.2 mm 2.93 in74.4 mm
05:29 PM 42.3°F5.7°C 41.2°F5.1°C 96% 11.0 mph NW17.7 kmh NW 31.0 mph49.9 kmh 29.24 in990.2 mb 0.05 in1.3 mm 0.00 in0.0 mm 2.93 in74.4 mm
05:30 PM 42.3°F5.7°C 41.2°F5.1°C 96% 9.0 mph NW14.5 kmh NW 31.0 mph49.9 kmh 29.24 in990.2 mb 0.05 in1.3 mm 0.00 in0.0 mm 2.93 in74.4 mm
05:31 PM 42.1°F5.6°C 41.0°F5.0°C 96% 9.0 mph 14.5 kmh 31.0 mph49.9 kmh 29.25 in990.5 mb 0.05 in1.3 mm 0.00 in0.0 mm 2.93 in74.4 mm
05:32 PM 42.1°F5.6°C 41.6°F5.3°C 98% 15.0 mph NNE24.1 kmh NNE 31.0 mph49.9 kmh 29.25 in990.5 mb 0.05 in1.3 mm 0.00 in0.0 mm 2.93 in74.4 mm
05:33 PM 42.1°F5.6°C 41.6°F5.3°C 98% 7.0 mph 11.3 kmh 31.0 mph49.9 kmh 29.25 in990.5 mb 0.06 in1.5 mm 0.60 in15.2 mm 2.94 in74.7 mm
05:34 PM 42.1°F5.6°C 41.6°F5.3°C 98% 11.0 mph NNE17.7 kmh NNE 26.0 mph41.8 kmh 29.25 in990.5 mb 0.06 in1.5 mm 0.00 in0.0 mm 2.94 in74.7 mm
05:35 PM 42.1°F5.6°C 41.6°F5.3°C 98% 18.0 mph NNE29.0 kmh NNE 26.0 mph41.8 kmh 29.25 in990.5 mb 0.06 in1.5 mm 0.00 in0.0 mm 2.94 in74.7 mm
05:36 PM 42.1°F5.6°C 41.6°F5.3°C 98% 20.0 mph NNE32.2 kmh NNE 23.0 mph37.0 kmh 29.25 in990.5 mb 0.07 in1.8 mm 0.60 in15.2 mm 2.95 in74.9 mm
05:37 PM 42.1°F5.6°C 41.6°F5.3°C 98% 5.0 mph ESE8.0 kmh ESE 23.0 mph37.0 kmh 29.25 in990.5 mb 0.07 in1.8 mm 0.00 in0.0 mm 2.95 in74.9 mm
05:38 PM 42.1°F5.6°C 41.6°F5.3°C 98% 17.0 mph NW27.4 kmh NW 23.0 mph37.0 kmh 29.25 in990.5 mb 0.07 in1.8 mm 0.00 in0.0 mm 2.95 in74.9 mm
05:39 PM 42.1°F5.6°C 41.0°F5.0°C 96% 16.0 mph NNW25.7 kmh NNW 22.0 mph35.4 kmh 29.25 in990.5 mb 0.07 in1.8 mm 0.00 in0.0 mm 2.95 in74.9 mm
05:40 PM 42.1°F5.6°C 41.0°F5.0°C 96% 12.0 mph NNE19.3 kmh NNE 22.0 mph35.4 kmh 29.25 in990.5 mb 0.07 in1.8 mm 0.00 in0.0 mm 2.95 in74.9 mm
05:41 PM 42.1°F5.6°C 41.0°F5.0°C 96% 13.0 mph NNE20.9 kmh NNE 22.0 mph35.4 kmh 29.26 in990.9 mb 0.08 in2.0 mm 0.60 in15.2 mm 2.96 in75.2 mm
05:42 PM 42.1°F5.6°C 41.0°F5.0°C 96% 12.0 mph W19.3 kmh W 22.0 mph35.4 kmh 29.26 in990.9 mb 0.08 in2.0 mm 0.00 in0.0 mm 2.96 in75.2 mm
05:43 PM 42.1°F5.6°C 41.0°F5.0°C 96% 10.0 mph NE16.1 kmh NE 22.0 mph35.4 kmh 29.25 in990.5 mb 0.08 in2.0 mm 0.00 in0.0 mm 2.96 in75.2 mm
05:44 PM 42.1°F5.6°C 41.0°F5.0°C 96% 19.0 mph NE30.6 kmh NE 28.0 mph45.1 kmh 29.25 in990.5 mb 0.09 in2.3 mm 0.60 in15.2 mm 2.97 in75.4 mm
05:45 PM 42.1°F5.6°C 41.0°F5.0°C 96% 15.0 mph 24.1 kmh 28.0 mph45.1 kmh 29.26 in990.9 mb 0.09 in2.3 mm 0.00 in0.0 mm 2.97 in75.4 mm
05:46 PM 42.1°F5.6°C 41.0°F5.0°C 96% 9.0 mph W14.5 kmh W 28.0 mph45.1 kmh 29.26 in990.9 mb 0.09 in2.3 mm 0.00 in0.0 mm 2.97 in75.4 mm
05:47 PM 42.1°F5.6°C 41.0°F5.0°C 96% 16.0 mph NE25.7 kmh NE 28.0 mph45.1 kmh 29.26 in990.9 mb 0.09 in2.3 mm 0.00 in0.0 mm 2.97 in75.4 mm
05:48 PM 42.1°F5.6°C 41.0°F5.0°C 96% 11.0 mph NNW17.7 kmh NNW 28.0 mph45.1 kmh 29.26 in990.9 mb 0.09 in2.3 mm 0.00 in0.0 mm 2.97 in75.4 mm
05:49 PM 42.1°F5.6°C 41.0°F5.0°C 96% 11.0 mph NNE17.7 kmh NNE 28.0 mph45.1 kmh 29.27 in991.2 mb 0.09 in2.3 mm 0.00 in0.0 mm 2.97 in75.4 mm
05:50 PM 42.1°F5.6°C 41.0°F5.0°C 96% 23.0 mph NNE37.0 kmh NNE 28.0 mph45.1 kmh 29.27 in991.2 mb 0.09 in2.3 mm 0.00 in0.0 mm 2.97 in75.4 mm
05:51 PM 42.1°F5.6°C 41.0°F5.0°C 96% 13.0 mph NNW20.9 kmh NNW 28.0 mph45.1 kmh 29.27 in991.2 mb 0.09 in2.3 mm 0.00 in0.0 mm 2.97 in75.4 mm
05:52 PM 42.1°F5.6°C 41.0°F5.0°C 96% 11.0 mph NNE17.7 kmh NNE 28.0 mph45.1 kmh 29.27 in991.2 mb 0.09 in2.3 mm 0.00 in0.0 mm 2.97 in75.4 mm
05:53 PM 42.1°F5.6°C 41.0°F5.0°C 96% 17.0 mph NNE27.4 kmh NNE 28.0 mph45.1 kmh 29.27 in991.2 mb 0.09 in2.3 mm 0.00 in0.0 mm 2.97 in75.4 mm
05:54 PM 42.3°F5.7°C 41.2°F5.1°C 96% 13.0 mph ENE20.9 kmh ENE 23.0 mph37.0 kmh 29.27 in991.2 mb 0.10 in2.5 mm 0.60 in15.2 mm 2.98 in75.7 mm
05:55 PM 42.3°F5.7°C 41.2°F5.1°C 96% 18.0 mph NNW29.0 kmh NNW 23.0 mph37.0 kmh 29.27 in991.2 mb 0.10 in2.5 mm 0.00 in0.0 mm 2.98 in75.7 mm
05:56 PM 42.3°F5.7°C 41.2°F5.1°C 96% 12.0 mph E19.3 kmh E 23.0 mph37.0 kmh 29.27 in991.2 mb 0.10 in2.5 mm 0.00 in0.0 mm 2.98 in75.7 mm
05:57 PM 42.3°F5.7°C 41.2°F5.1°C 96% 17.0 mph 27.4 kmh 23.0 mph37.0 kmh 29.27 in991.2 mb 0.10 in2.5 mm 0.00 in0.0 mm 2.98 in75.7 mm
05:58 PM 42.3°F5.7°C 41.2°F5.1°C 96% 14.0 mph ESE22.5 kmh ESE 23.0 mph37.0 kmh 29.27 in991.2 mb 0.10 in2.5 mm 0.00 in0.0 mm 2.98 in75.7 mm
05:59 PM 42.3°F5.7°C 41.2°F5.1°C 96% 19.0 mph WNW30.6 kmh WNW 23.0 mph37.0 kmh 29.27 in991.2 mb 0.10 in2.5 mm 0.00 in0.0 mm 2.98 in75.7 mm
06:00 PM 42.3°F5.7°C 41.2°F5.1°C 96% 18.0 mph ENE29.0 kmh ENE 23.0 mph37.0 kmh 29.27 in991.2 mb 0.11 in2.8 mm 0.01 in0.3 mm 2.99 in75.9 mm
06:01 PM 42.4°F5.8°C 41.3°F5.2°C 96% 9.0 mph NW14.5 kmh NW 19.0 mph30.6 kmh 29.28 in991.5 mb 0.11 in2.8 mm 0.00 in0.0 mm 2.99 in75.9 mm
06:02 PM 42.4°F5.8°C 41.3°F5.2°C 96% 10.0 mph NNE16.1 kmh NNE 21.0 mph33.8 kmh 29.28 in991.5 mb 0.11 in2.8 mm 0.00 in0.0 mm 2.99 in75.9 mm
06:03 PM 42.4°F5.8°C 41.3°F5.2°C 96% 13.0 mph NNE20.9 kmh NNE 21.0 mph33.8 kmh 29.28 in991.5 mb 0.11 in2.8 mm 0.00 in0.0 mm 2.99 in75.9 mm
06:04 PM 42.4°F5.8°C 41.3°F5.2°C 96% 12.0 mph NE19.3 kmh NE 21.0 mph33.8 kmh 29.28 in991.5 mb 0.11 in2.8 mm 0.00 in0.0 mm 2.99 in75.9 mm
06:05 PM 42.4°F5.8°C 41.3°F5.2°C 96% 21.0 mph NNE33.8 kmh NNE 21.0 mph33.8 kmh 29.29 in991.9 mb 0.11 in2.8 mm 0.00 in0.0 mm 2.99 in75.9 mm
06:06 PM 42.4°F5.8°C 41.3°F5.2°C 96% 14.0 mph NNE22.5 kmh NNE 21.0 mph33.8 kmh 29.29 in991.9 mb 0.11 in2.8 mm 0.00 in0.0 mm 2.99 in75.9 mm
06:07 PM 42.4°F5.8°C 41.3°F5.2°C 96% 14.0 mph NNE22.5 kmh NNE 21.0 mph33.8 kmh 29.29 in991.9 mb 0.00 in0.0 mm 0.00 in0.0 mm 2.99 in75.9 mm
06:08 PM 42.4°F5.8°C 41.3°F5.2°C 96% 17.0 mph NE27.4 kmh NE 21.0 mph33.8 kmh 29.29 in991.9 mb 0.00 in0.0 mm 0.00 in0.0 mm 2.99 in75.9 mm
06:09 PM 42.4°F5.8°C 41.3°F5.2°C 96% 15.0 mph 24.1 kmh 21.0 mph33.8 kmh 29.29 in991.9 mb 0.00 in0.0 mm 0.00 in0.0 mm 2.99 in75.9 mm
06:10 PM 42.4°F5.8°C 41.3°F5.2°C 96% 22.0 mph NNE35.4 kmh NNE 22.0 mph35.4 kmh 29.29 in991.9 mb 0.01 in0.3 mm 0.60 in15.2 mm 3.00 in76.2 mm
06:11 PM 42.5°F5.8°C 41.4°F5.2°C 96% 16.0 mph NNE25.7 kmh NNE 22.0 mph35.4 kmh 29.29 in991.9 mb 0.01 in0.3 mm 0.00 in0.0 mm 3.00 in76.2 mm
06:12 PM 42.5°F5.8°C 41.4°F5.2°C 96% 23.0 mph NNE37.0 kmh NNE 23.0 mph37.0 kmh 29.29 in991.9 mb 0.01 in0.3 mm 0.00 in0.0 mm 3.00 in76.2 mm
06:13 PM 42.5°F5.8°C 41.4°F5.2°C 96% 16.0 mph NNW25.7 kmh NNW 23.0 mph37.0 kmh 29.30 in992.2 mb 0.02 in0.5 mm 0.60 in15.2 mm 3.01 in76.5 mm
06:14 PM 42.5°F5.8°C 41.4°F5.2°C 96% 13.0 mph NNE20.9 kmh NNE 23.0 mph37.0 kmh 29.30 in992.2 mb 0.02 in0.5 mm 0.00 in0.0 mm 3.01 in76.5 mm
06:15 PM 42.5°F5.8°C 41.4°F5.2°C 96% 13.0 mph NNE20.9 kmh NNE 23.0 mph37.0 kmh 29.30 in992.2 mb 0.02 in0.5 mm 0.00 in0.0 mm 3.01 in76.5 mm
06:16 PM 42.5°F5.8°C 41.4°F5.2°C 96% 12.0 mph NNE19.3 kmh NNE 23.0 mph37.0 kmh 29.29 in991.9 mb 0.02 in0.5 mm 0.00 in0.0 mm 3.01 in76.5 mm
06:17 PM 42.5°F5.8°C 41.4°F5.2°C 96% 8.0 mph W12.9 kmh W 23.0 mph37.0 kmh 29.30 in992.2 mb 0.02 in0.5 mm 0.00 in0.0 mm 3.01 in76.5 mm
06:18 PM 42.5°F5.8°C 41.4°F5.2°C 96% 9.0 mph E14.5 kmh E 23.0 mph37.0 kmh 29.30 in992.2 mb 0.02 in0.5 mm 0.00 in0.0 mm 3.01 in76.5 mm
06:19 PM 42.5°F5.8°C 41.4°F5.2°C 96% 6.0 mph 9.7 kmh 23.0 mph37.0 kmh 29.30 in992.2 mb 0.02 in0.5 mm 0.00 in0.0 mm 3.01 in76.5 mm
06:20 PM 42.5°F5.8°C 41.4°F5.2°C 96% 14.0 mph 22.5 kmh 23.0 mph37.0 kmh 29.30 in992.2 mb 0.02 in0.5 mm 0.00 in0.0 mm 3.01 in76.5 mm
06:21 PM 42.5°F5.8°C 41.4°F5.2°C 96% 14.0 mph NNW22.5 kmh NNW 23.0 mph37.0 kmh 29.31 in992.6 mb 0.02 in0.5 mm 0.00 in0.0 mm 3.01 in76.5 mm
06:22 PM 42.5°F5.8°C 41.1°F5.1°C 95% 12.0 mph NNW19.3 kmh NNW 21.0 mph33.8 kmh 29.31 in992.6 mb 0.02 in0.5 mm 0.00 in0.0 mm 3.01 in76.5 mm
06:23 PM 42.5°F5.8°C 41.1°F5.1°C 95% 8.0 mph NNE12.9 kmh NNE 21.0 mph33.8 kmh 29.31 in992.6 mb 0.02 in0.5 mm 0.00 in0.0 mm 3.01 in76.5 mm
06:24 PM 42.5°F5.8°C 41.4°F5.2°C 96% 18.0 mph NNW29.0 kmh NNW 21.0 mph33.8 kmh 29.31 in992.6 mb 0.02 in0.5 mm 0.00 in0.0 mm 3.01 in76.5 mm
06:25 PM 42.7°F5.9°C 41.3°F5.2°C 95% 12.0 mph NE19.3 kmh NE 22.0 mph35.4 kmh 29.31 in992.6 mb 0.03 in0.8 mm 0.60 in15.2 mm 3.02 in76.7 mm
06:26 PM 42.7°F5.9°C 41.3°F5.2°C 95% 8.0 mph E12.9 kmh E 23.0 mph37.0 kmh 29.31 in992.6 mb 0.03 in0.8 mm 0.00 in0.0 mm 3.02 in76.7 mm
06:27 PM 42.7°F5.9°C 40.8°F4.9°C 93% 18.0 mph 29.0 kmh 27.0 mph43.5 kmh 29.31 in992.6 mb 0.03 in0.8 mm 0.00 in0.0 mm 3.02 in76.7 mm
06:28 PM 42.7°F5.9°C 40.8°F4.9°C 93% 25.0 mph 40.2 kmh 27.0 mph43.5 kmh 29.31 in992.6 mb 0.03 in0.8 mm 0.00 in0.0 mm 3.02 in76.7 mm
06:29 PM 42.7°F5.9°C 41.3°F5.2°C 95% 11.0 mph NNE17.7 kmh NNE 27.0 mph43.5 kmh 29.32 in992.9 mb 0.03 in0.8 mm 0.00 in0.0 mm 3.02 in76.7 mm
06:30 PM 42.7°F5.9°C 41.3°F5.2°C 95% 12.0 mph NNW19.3 kmh NNW 27.0 mph43.5 kmh 29.32 in992.9 mb 0.03 in0.8 mm 0.00 in0.0 mm 3.02 in76.7 mm
06:31 PM 42.7°F5.9°C 41.3°F5.2°C 95% 16.0 mph NNE25.7 kmh NNE 27.0 mph43.5 kmh 29.32 in992.9 mb 0.03 in0.8 mm 0.00 in0.0 mm 3.02 in76.7 mm
06:32 PM 42.7°F5.9°C 41.3°F5.2°C 95% 10.0 mph E16.1 kmh E 27.0 mph43.5 kmh 29.32 in992.9 mb 0.03 in0.8 mm 0.00 in0.0 mm 3.02 in76.7 mm
06:33 PM 42.7°F5.9°C 41.3°F5.2°C 95% 16.0 mph NE25.7 kmh NE 27.0 mph43.5 kmh 29.33 in993.2 mb 0.03 in0.8 mm 0.00 in0.0 mm 3.02 in76.7 mm
06:34 PM 42.7°F5.9°C 41.3°F5.2°C 95% 9.0 mph WNW14.5 kmh WNW 27.0 mph43.5 kmh 29.33 in993.2 mb 0.03 in0.8 mm 0.00 in0.0 mm 3.02 in76.7 mm
06:35 PM 42.7°F5.9°C 41.3°F5.2°C 95% 10.0 mph NNE16.1 kmh NNE 27.0 mph43.5 kmh 29.33 in993.2 mb 0.03 in0.8 mm 0.00 in0.0 mm 3.02 in76.7 mm
06:36 PM 42.7°F5.9°C 41.3°F5.2°C 95% 11.0 mph NNW17.7 kmh NNW 27.0 mph43.5 kmh 29.33 in993.2 mb 0.03 in0.8 mm 0.00 in0.0 mm 3.02 in76.7 mm
06:37 PM 42.5°F5.8°C 41.1°F5.1°C 95% 9.0 mph 14.5 kmh 25.0 mph40.2 kmh 29.33 in993.2 mb 0.03 in0.8 mm 0.00 in0.0 mm 3.02 in76.7 mm
06:38 PM 42.5°F5.8°C 41.1°F5.1°C 95% 7.0 mph WNW11.3 kmh WNW 20.0 mph32.2 kmh 29.33 in993.2 mb 0.04 in1.0 mm 0.60 in15.2 mm 3.03 in77.0 mm
06:39 PM 42.5°F5.8°C 41.1°F5.1°C 95% 13.0 mph WNW20.9 kmh WNW 20.0 mph32.2 kmh 29.33 in993.2 mb 0.04 in1.0 mm 0.00 in0.0 mm 3.03 in77.0 mm
06:40 PM 42.5°F5.8°C 41.1°F5.1°C 95% 13.0 mph 20.9 kmh 26.0 mph41.8 kmh 29.33 in993.2 mb 0.04 in1.0 mm 0.00 in0.0 mm 3.03 in77.0 mm
06:41 PM 42.5°F5.8°C 41.1°F5.1°C 95% 9.0 mph WNW14.5 kmh WNW 26.0 mph41.8 kmh 29.34 in993.6 mb 0.04 in1.0 mm 0.00 in0.0 mm 3.03 in77.0 mm
06:42 PM 42.5°F5.8°C 41.4°F5.2°C 96% 20.0 mph NE32.2 kmh NE 26.0 mph41.8 kmh 29.33 in993.2 mb 0.04 in1.0 mm 0.00 in0.0 mm 3.03 in77.0 mm
06:43 PM 42.5°F5.8°C 41.1°F5.1°C 95% 12.0 mph 19.3 kmh 26.0 mph41.8 kmh 29.33 in993.2 mb 0.04 in1.0 mm 0.00 in0.0 mm 3.03 in77.0 mm
06:44 PM 42.5°F5.8°C 41.1°F5.1°C 95% 10.0 mph NW16.1 kmh NW 26.0 mph41.8 kmh 29.33 in993.2 mb 0.04 in1.0 mm 0.00 in0.0 mm 3.03 in77.0 mm
06:45 PM 42.4°F5.8°C 41.0°F5.0°C 95% 12.0 mph NE19.3 kmh NE 26.0 mph41.8 kmh 29.34 in993.6 mb 0.04 in1.0 mm 0.00 in0.0 mm 3.03 in77.0 mm
06:46 PM 42.4°F5.8°C 41.0°F5.0°C 95% 12.0 mph NNE19.3 kmh NNE 26.0 mph41.8 kmh 29.34 in993.6 mb 0.05 in1.3 mm 0.60 in15.2 mm 3.04 in77.2 mm
06:47 PM 42.4°F5.8°C 41.0°F5.0°C 95% 10.0 mph NW16.1 kmh NW 26.0 mph41.8 kmh 29.34 in993.6 mb 0.05 in1.3 mm 0.00 in0.0 mm 3.04 in77.2 mm
06:48 PM 42.4°F5.8°C 41.3°F5.2°C 96% 11.0 mph NE17.7 kmh NE 26.0 mph41.8 kmh 29.34 in993.6 mb 0.05 in1.3 mm 0.00 in0.0 mm 3.04 in77.2 mm
06:49 PM 42.4°F5.8°C 41.3°F5.2°C 96% 8.0 mph NNE12.9 kmh NNE 26.0 mph41.8 kmh 29.34 in993.6 mb 0.05 in1.3 mm 0.00 in0.0 mm 3.04 in77.2 mm
06:50 PM 42.3°F5.7°C 41.2°F5.1°C 96% 10.0 mph WSW16.1 kmh WSW 25.0 mph40.2 kmh 29.34 in993.6 mb 0.05 in1.3 mm 0.00 in0.0 mm 3.04 in77.2 mm
06:51 PM 42.3°F5.7°C 41.2°F5.1°C 96% 8.0 mph NNE12.9 kmh NNE 21.0 mph33.8 kmh 29.35 in993.9 mb 0.05 in1.3 mm 0.00 in0.0 mm 3.04 in77.2 mm
06:52 PM 42.3°F5.7°C 41.2°F5.1°C 96% 11.0 mph NNW17.7 kmh NNW 21.0 mph33.8 kmh 29.35 in993.9 mb 0.06 in1.5 mm 0.60 in15.2 mm 3.05 in77.5 mm
06:53 PM 42.3°F5.7°C 41.2°F5.1°C 96% 9.0 mph 14.5 kmh 19.0 mph30.6 kmh 29.34 in993.6 mb 0.06 in1.5 mm 0.00 in0.0 mm 3.05 in77.5 mm
06:54 PM 42.3°F5.7°C 41.2°F5.1°C 96% 9.0 mph NNE14.5 kmh NNE 19.0 mph30.6 kmh 29.34 in993.6 mb 0.06 in1.5 mm 0.00 in0.0 mm 3.05 in77.5 mm
06:55 PM 42.1°F5.6°C 41.0°F5.0°C 96% 13.0 mph NNW20.9 kmh NNW 19.0 mph30.6 kmh 29.34 in993.6 mb 0.06 in1.5 mm 0.00 in0.0 mm 3.05 in77.5 mm
06:56 PM 42.1°F5.6°C 41.0°F5.0°C 96% 9.0 mph NNW14.5 kmh NNW 19.0 mph30.6 kmh 29.34 in993.6 mb 0.06 in1.5 mm 0.00 in0.0 mm 3.05 in77.5 mm
06:57 PM 42.1°F5.6°C 41.0°F5.0°C 96% 7.0 mph NNW11.3 kmh NNW 19.0 mph30.6 kmh 29.35 in993.9 mb 0.07 in1.8 mm 0.60 in15.2 mm 3.06 in77.7 mm
06:58 PM 42.1°F5.6°C 41.0°F5.0°C 96% 9.0 mph NE14.5 kmh NE 20.0 mph32.2 kmh 29.35 in993.9 mb 0.07 in1.8 mm 0.00 in0.0 mm 3.06 in77.7 mm
06:59 PM 42.1°F5.6°C 41.0°F5.0°C 96% 19.0 mph 30.6 kmh 20.0 mph32.2 kmh 29.35 in993.9 mb 0.07 in1.8 mm 0.00 in0.0 mm 3.06 in77.7 mm
07:00 PM 41.9°F5.5°C 40.8°F4.9°C 96% 7.0 mph 11.3 kmh 20.0 mph32.2 kmh 29.35 in993.9 mb 0.07 in1.8 mm 0.00 in0.0 mm 3.06 in77.7 mm
07:01 PM 41.9°F5.5°C 40.8°F4.9°C 96% 18.0 mph 29.0 kmh 20.0 mph32.2 kmh 29.35 in993.9 mb 0.07 in1.8 mm 0.00 in0.0 mm 3.06 in77.7 mm
07:02 PM 41.9°F5.5°C 40.8°F4.9°C 96% 13.0 mph NNW20.9 kmh NNW 22.0 mph35.4 kmh 29.35 in993.9 mb 0.08 in2.0 mm 0.60 in15.2 mm 3.07 in78.0 mm
07:03 PM 41.9°F5.5°C 40.8°F4.9°C 96% 16.0 mph NNE25.7 kmh NNE 22.0 mph35.4 kmh 29.36 in994.2 mb 0.08 in2.0 mm 0.00 in0.0 mm 3.07 in78.0 mm
07:04 PM 41.9°F5.5°C 40.8°F4.9°C 96% 10.0 mph NNE16.1 kmh NNE 22.0 mph35.4 kmh 29.36 in994.2 mb 0.08 in2.0 mm 0.00 in0.0 mm 3.07 in78.0 mm
07:05 PM 41.9°F5.5°C 40.8°F4.9°C 96% 23.0 mph NNW37.0 kmh NNW 23.0 mph37.0 kmh 29.36 in994.2 mb 0.09 in2.3 mm 0.60 in15.2 mm 3.08 in78.2 mm
07:06 PM 41.9°F5.5°C 40.8°F4.9°C 96% 16.0 mph NNE25.7 kmh NNE 23.0 mph37.0 kmh 29.36 in994.2 mb 0.09 in2.3 mm 0.00 in0.0 mm 3.08 in78.2 mm
07:07 PM 41.9°F5.5°C 40.8°F4.9°C 96% 12.0 mph 19.3 kmh 23.0 mph37.0 kmh 29.35 in993.9 mb 0.00 in0.0 mm 0.00 in0.0 mm 3.08 in78.2 mm
07:08 PM 41.9°F5.5°C 40.8°F4.9°C 96% 13.0 mph NE20.9 kmh NE 23.0 mph37.0 kmh 29.35 in993.9 mb 0.00 in0.0 mm 0.00 in0.0 mm 3.08 in78.2 mm
07:09 PM 41.9°F5.5°C 40.8°F4.9°C 96% 11.0 mph WNW17.7 kmh WNW 23.0 mph37.0 kmh 29.36 in994.2 mb 0.01 in0.3 mm 0.60 in15.2 mm 3.09 in78.5 mm
07:10 PM 41.9°F5.5°C 40.8°F4.9°C 96% 11.0 mph NNE17.7 kmh NNE 23.0 mph37.0 kmh 29.36 in994.2 mb 0.01 in0.3 mm 0.00 in0.0 mm 3.09 in78.5 mm
07:11 PM 41.9°F5.5°C 40.8°F4.9°C 96% 6.0 mph WNW9.7 kmh WNW 23.0 mph37.0 kmh 29.36 in994.2 mb 0.01 in0.3 mm 0.00 in0.0 mm 3.09 in78.5 mm
07:12 PM 41.9°F5.5°C 40.8°F4.9°C 96% 12.0 mph NNE19.3 kmh NNE 23.0 mph37.0 kmh 29.36 in994.2 mb 0.01 in0.3 mm 0.00 in0.0 mm 3.09 in78.5 mm
07:13 PM 41.9°F5.5°C 40.8°F4.9°C 96% 6.0 mph NE9.7 kmh NE 23.0 mph37.0 kmh 29.36 in994.2 mb 0.01 in0.3 mm 0.00 in0.0 mm 3.09 in78.5 mm
07:14 PM 41.9°F5.5°C 40.8°F4.9°C 96% 8.0 mph NNE12.9 kmh NNE 23.0 mph37.0 kmh 29.36 in994.2 mb 0.01 in0.3 mm 0.00 in0.0 mm 3.09 in78.5 mm
07:15 PM 41.9°F5.5°C 40.8°F4.9°C 96% 14.0 mph 22.5 kmh 20.0 mph32.2 kmh 29.37 in994.6 mb 0.02 in0.5 mm 0.60 in15.2 mm 3.10 in78.7 mm
07:16 PM 41.9°F5.5°C 40.8°F4.9°C 96% 17.0 mph 27.4 kmh 20.0 mph32.2 kmh 29.37 in994.6 mb 0.02 in0.5 mm 0.00 in0.0 mm 3.10 in78.7 mm
07:17 PM 41.9°F5.5°C 40.8°F4.9°C 96% 16.0 mph 25.7 kmh 22.0 mph35.4 kmh 29.36 in994.2 mb 0.02 in0.5 mm 0.00 in0.0 mm 3.10 in78.7 mm
07:18 PM 41.9°F5.5°C 40.8°F4.9°C 96% 7.0 mph 11.3 kmh 22.0 mph35.4 kmh 29.36 in994.2 mb 0.02 in0.5 mm 0.00 in0.0 mm 3.10 in78.7 mm
07:20 PM 41.9°F5.5°C 40.8°F4.9°C 96% 15.0 mph NE24.1 kmh NE 22.0 mph35.4 kmh 29.37 in994.6 mb 0.02 in0.5 mm 0.00 in0.0 mm 3.10 in78.7 mm
07:21 PM 41.7°F5.4°C 40.6°F4.8°C 96% 12.0 mph NNE19.3 kmh NNE 22.0 mph35.4 kmh 29.37 in994.6 mb 0.03 in0.8 mm 0.60 in15.2 mm 3.11 in79.0 mm
07:22 PM 41.7°F5.4°C 40.6°F4.8°C 96% 7.0 mph NNW11.3 kmh NNW 22.0 mph35.4 kmh 29.37 in994.6 mb 0.03 in0.8 mm 0.00 in0.0 mm 3.11 in79.0 mm
07:23 PM 41.7°F5.4°C 40.6°F4.8°C 96% 12.0 mph NNW19.3 kmh NNW 22.0 mph35.4 kmh 29.37 in994.6 mb 0.03 in0.8 mm 0.00 in0.0 mm 3.11 in79.0 mm
07:24 PM 41.7°F5.4°C 40.6°F4.8°C 96% 9.0 mph NNE14.5 kmh NNE 22.0 mph35.4 kmh 29.37 in994.6 mb 0.03 in0.8 mm 0.00 in0.0 mm 3.11 in79.0 mm
07:25 PM 41.7°F5.4°C 40.6°F4.8°C 96% 15.0 mph NNE24.1 kmh NNE 22.0 mph35.4 kmh 29.37 in994.6 mb 0.03 in0.8 mm 0.00 in0.0 mm 3.11 in79.0 mm
07:26 PM 41.7°F5.4°C 40.6°F4.8°C 96% 11.0 mph W17.7 kmh W 22.0 mph35.4 kmh 29.37 in994.6 mb 0.03 in0.8 mm 0.00 in0.0 mm 3.11 in79.0 mm
07:27 PM 41.7°F5.4°C 40.6°F4.8°C 96% 12.0 mph E19.3 kmh E 18.0 mph29.0 kmh 29.37 in994.6 mb 0.04 in1.0 mm 0.60 in15.2 mm 3.12 in79.2 mm
07:28 PM 41.5°F5.3°C 40.4°F4.7°C 96% 12.0 mph E19.3 kmh E 18.0 mph29.0 kmh 29.37 in994.6 mb 0.04 in1.0 mm 0.00 in0.0 mm 3.12 in79.2 mm
07:29 PM 41.5°F5.3°C 40.4°F4.7°C 96% 11.0 mph NW17.7 kmh NW 18.0 mph29.0 kmh 29.38 in994.9 mb 0.04 in1.0 mm 0.00 in0.0 mm 3.12 in79.2 mm
07:30 PM 41.5°F5.3°C 40.4°F4.7°C 96% 10.0 mph NE16.1 kmh NE 18.0 mph29.0 kmh 29.38 in994.9 mb 0.04 in1.0 mm 0.00 in0.0 mm 3.12 in79.2 mm
07:31 PM 41.5°F5.3°C 40.4°F4.7°C 96% 8.0 mph NE12.9 kmh NE 18.0 mph29.0 kmh 29.38 in994.9 mb 0.04 in1.0 mm 0.00 in0.0 mm 3.12 in79.2 mm
07:32 PM 41.5°F5.3°C 41.0°F5.0°C 98% 10.0 mph NW16.1 kmh NW 18.0 mph29.0 kmh 29.38 in994.9 mb 0.05 in1.3 mm 0.60 in15.2 mm 3.13 in79.5 mm
07:33 PM 41.5°F5.3°C 41.0°F5.0°C 98% 13.0 mph NNE20.9 kmh NNE 19.0 mph30.6 kmh 29.38 in994.9 mb 0.05 in1.3 mm 0.00 in0.0 mm 3.13 in79.5 mm
07:34 PM 41.5°F5.3°C 41.0°F5.0°C 98% 9.0 mph NE14.5 kmh NE 19.0 mph30.6 kmh 29.38 in994.9 mb 0.05 in1.3 mm 0.00 in0.0 mm 3.13 in79.5 mm
07:35 PM 41.5°F5.3°C 41.0°F5.0°C 98% 18.0 mph ESE29.0 kmh ESE 19.0 mph30.6 kmh 29.38 in994.9 mb 0.05 in1.3 mm 0.00 in0.0 mm 3.13 in79.5 mm
07:36 PM 41.4°F5.2°C 40.9°F4.9°C 98% 8.0 mph NE12.9 kmh NE 20.0 mph32.2 kmh 29.38 in994.9 mb 0.05 in1.3 mm 0.00 in0.0 mm 3.13 in79.5 mm
07:37 PM 41.4°F5.2°C 40.9°F4.9°C 98% 8.0 mph NNW12.9 kmh NNW 20.0 mph32.2 kmh 29.38 in994.9 mb 0.05 in1.3 mm 0.00 in0.0 mm 3.13 in79.5 mm
07:38 PM 41.4°F5.2°C 40.9°F4.9°C 98% 13.0 mph NNE20.9 kmh NNE 20.0 mph32.2 kmh 29.38 in